<?xml version="1.0" encoding="utf-8"?>
<gpx xmlns:xsi="http://www.w3.org/2001/XMLSchema-instance" xmlns:xsd="http://www.w3.org/2001/XMLSchema" version="1.1" creator="Shapelink.com" xmlns="http://www.topografix.com/GPX/1/1" xmlns:gpxtpx="http://www.garmin.com/xmlschemas/TrackPointExtension/v1">
  <metadata>
    <name>Løping 4.50 km, 2014-04-04</name>
    <desc></desc>
    <author><name>Mikael Blom</name></author> 
    <time>2014-04-04T17:02:17Z</time>
  </metadata>
  <trk>
    <name>Løping 4.50 km, 2014-04-04</name>
    <trkseg>
      <trkpt lat="59.9789533" lon="17.7392505">
        <ele>37.1481</ele>
        <time>2014-04-04T17:02:17Z</time>
      </trkpt>
      <trkpt lat="59.9789681" lon="17.739235">
        <ele>37.1481</ele>
        <time>2014-04-04T17:02:18Z</time>
      </trkpt>
      <trkpt lat="59.9789871" lon="17.7392159">
        <ele>37.6287</ele>
        <time>2014-04-04T17:02:19Z</time>
      </trkpt>
      <trkpt lat="59.9790154" lon="17.7391944">
        <ele>37.6287</ele>
        <time>2014-04-04T17:02:20Z</time>
      </trkpt>
      <trkpt lat="59.9790473" lon="17.7391712">
        <ele>37.1481</ele>
        <time>2014-04-04T17:02:21Z</time>
      </trkpt>
      <trkpt lat="59.9790827" lon="17.7391516">
        <ele>37.1481</ele>
        <time>2014-04-04T17:02:22Z</time>
      </trkpt>
      <trkpt lat="59.9791169" lon="17.7391285">
        <ele>37.6287</ele>
        <time>2014-04-04T17:02:23Z</time>
      </trkpt>
      <trkpt lat="59.9791537" lon="17.7391014">
        <ele>37.1481</ele>
        <time>2014-04-04T17:02:24Z</time>
      </trkpt>
      <trkpt lat="59.9791931" lon="17.7390706">
        <ele>37.6287</ele>
        <time>2014-04-04T17:02:25Z</time>
      </trkpt>
      <trkpt lat="59.9792319" lon="17.7390417">
        <ele>37.6287</ele>
        <time>2014-04-04T17:02:26Z</time>
      </trkpt>
      <trkpt lat="59.9792698" lon="17.7390217">
        <ele>37.1481</ele>
        <time>2014-04-04T17:02:27Z</time>
      </trkpt>
      <trkpt lat="59.9793008" lon="17.738999">
        <ele>37.1481</ele>
        <time>2014-04-04T17:02:28Z</time>
      </trkpt>
      <trkpt lat="59.9793339" lon="17.7389767">
        <ele>37.1481</ele>
        <time>2014-04-04T17:02:29Z</time>
      </trkpt>
      <trkpt lat="59.979365" lon="17.7389585">
        <ele>37.1481</ele>
        <time>2014-04-04T17:02:30Z</time>
      </trkpt>
      <trkpt lat="59.9793976" lon="17.7389456">
        <ele>36.6675</ele>
        <time>2014-04-04T17:02:31Z</time>
      </trkpt>
      <trkpt lat="59.9794308" lon="17.7389368">
        <ele>36.6675</ele>
        <time>2014-04-04T17:02:32Z</time>
      </trkpt>
      <trkpt lat="59.9794607" lon="17.7389242">
        <ele>36.6675</ele>
        <time>2014-04-04T17:02:33Z</time>
      </trkpt>
      <trkpt lat="59.9794877" lon="17.7389108">
        <ele>36.6675</ele>
        <time>2014-04-04T17:02:34Z</time>
      </trkpt>
      <trkpt lat="59.9795143" lon="17.7388999">
        <ele>36.6675</ele>
        <time>2014-04-04T17:02:35Z</time>
      </trkpt>
      <trkpt lat="59.9795395" lon="17.7388796">
        <ele>36.6675</ele>
        <time>2014-04-04T17:02:36Z</time>
      </trkpt>
      <trkpt lat="59.9795628" lon="17.7388627">
        <ele>36.1868</ele>
        <time>2014-04-04T17:02:37Z</time>
      </trkpt>
      <trkpt lat="59.9795913" lon="17.738847">
        <ele>37.1481</ele>
        <time>2014-04-04T17:02:38Z</time>
      </trkpt>
      <trkpt lat="59.9796194" lon="17.7388332">
        <ele>37.1481</ele>
        <time>2014-04-04T17:02:39Z</time>
      </trkpt>
      <trkpt lat="59.9796426" lon="17.7388174">
        <ele>37.1481</ele>
        <time>2014-04-04T17:02:40Z</time>
      </trkpt>
      <trkpt lat="59.9796632" lon="17.7388016">
        <ele>37.1481</ele>
        <time>2014-04-04T17:02:41Z</time>
      </trkpt>
      <trkpt lat="59.9796851" lon="17.73879">
        <ele>37.6287</ele>
        <time>2014-04-04T17:02:42Z</time>
      </trkpt>
      <trkpt lat="59.9797053" lon="17.7387783">
        <ele>37.6287</ele>
        <time>2014-04-04T17:02:43Z</time>
      </trkpt>
      <trkpt lat="59.979724" lon="17.7387623">
        <ele>37.6287</ele>
        <time>2014-04-04T17:02:44Z</time>
      </trkpt>
      <trkpt lat="59.9797446" lon="17.7387467">
        <ele>37.6287</ele>
        <time>2014-04-04T17:02:45Z</time>
      </trkpt>
      <trkpt lat="59.9797595" lon="17.7387432">
        <ele>37.6287</ele>
        <time>2014-04-04T17:02:46Z</time>
      </trkpt>
      <trkpt lat="59.9797789" lon="17.7387351">
        <ele>37.1481</ele>
        <time>2014-04-04T17:02:47Z</time>
      </trkpt>
      <trkpt lat="59.979801" lon="17.738718">
        <ele>37.1481</ele>
        <time>2014-04-04T17:02:48Z</time>
      </trkpt>
      <trkpt lat="59.9798301" lon="17.738704">
        <ele>37.1481</ele>
        <time>2014-04-04T17:02:49Z</time>
      </trkpt>
      <trkpt lat="59.9798598" lon="17.7386988">
        <ele>37.1481</ele>
        <time>2014-04-04T17:02:50Z</time>
      </trkpt>
      <trkpt lat="59.9798902" lon="17.7386981">
        <ele>37.1481</ele>
        <time>2014-04-04T17:02:51Z</time>
      </trkpt>
      <trkpt lat="59.9799198" lon="17.738694">
        <ele>37.1481</ele>
        <time>2014-04-04T17:02:52Z</time>
      </trkpt>
      <trkpt lat="59.9799538" lon="17.7386892">
        <ele>37.1481</ele>
        <time>2014-04-04T17:02:53Z</time>
      </trkpt>
      <trkpt lat="59.9799862" lon="17.7386813">
        <ele>37.1481</ele>
        <time>2014-04-04T17:02:54Z</time>
      </trkpt>
      <trkpt lat="59.9800129" lon="17.7386776">
        <ele>37.1481</ele>
        <time>2014-04-04T17:02:55Z</time>
      </trkpt>
      <trkpt lat="59.9800389" lon="17.7386834">
        <ele>37.1481</ele>
        <time>2014-04-04T17:02:56Z</time>
      </trkpt>
      <trkpt lat="59.9800665" lon="17.7386898">
        <ele>37.6287</ele>
        <time>2014-04-04T17:02:57Z</time>
      </trkpt>
      <trkpt lat="59.9800994" lon="17.7386979">
        <ele>37.6287</ele>
        <time>2014-04-04T17:02:58Z</time>
      </trkpt>
      <trkpt lat="59.9801357" lon="17.7387103">
        <ele>39.5513</ele>
        <time>2014-04-04T17:02:59Z</time>
      </trkpt>
      <trkpt lat="59.9801638" lon="17.7387172">
        <ele>40.0321</ele>
        <time>2014-04-04T17:03:00Z</time>
      </trkpt>
      <trkpt lat="59.9801855" lon="17.7387306">
        <ele>41.9547</ele>
        <time>2014-04-04T17:03:01Z</time>
      </trkpt>
      <trkpt lat="59.9802162" lon="17.7387312">
        <ele>43.3966</ele>
        <time>2014-04-04T17:03:02Z</time>
      </trkpt>
      <trkpt lat="59.980241" lon="17.7387248">
        <ele>42.4354</ele>
        <time>2014-04-04T17:03:03Z</time>
      </trkpt>
      <trkpt lat="59.9802706" lon="17.7387146">
        <ele>43.3966</ele>
        <time>2014-04-04T17:03:04Z</time>
      </trkpt>
      <trkpt lat="59.980298" lon="17.7387196">
        <ele>43.3966</ele>
        <time>2014-04-04T17:03:05Z</time>
      </trkpt>
      <trkpt lat="59.9803252" lon="17.738728">
        <ele>42.916</ele>
        <time>2014-04-04T17:03:06Z</time>
      </trkpt>
      <trkpt lat="59.9803505" lon="17.7387344">
        <ele>42.916</ele>
        <time>2014-04-04T17:03:07Z</time>
      </trkpt>
      <trkpt lat="59.9803775" lon="17.7387394">
        <ele>43.3966</ele>
        <time>2014-04-04T17:03:08Z</time>
      </trkpt>
      <trkpt lat="59.9804096" lon="17.7387327">
        <ele>44.358</ele>
        <time>2014-04-04T17:03:09Z</time>
      </trkpt>
      <trkpt lat="59.9804431" lon="17.7387223">
        <ele>44.8386</ele>
        <time>2014-04-04T17:03:10Z</time>
      </trkpt>
      <trkpt lat="59.9804735" lon="17.7387154">
        <ele>45.3192</ele>
        <time>2014-04-04T17:03:11Z</time>
      </trkpt>
      <trkpt lat="59.9804977" lon="17.7387128">
        <ele>45.3192</ele>
        <time>2014-04-04T17:03:12Z</time>
      </trkpt>
      <trkpt lat="59.9805222" lon="17.7387118">
        <ele>46.2806</ele>
        <time>2014-04-04T17:03:13Z</time>
      </trkpt>
      <trkpt lat="59.9805526" lon="17.7387051">
        <ele>46.2806</ele>
        <time>2014-04-04T17:03:14Z</time>
      </trkpt>
      <trkpt lat="59.980587" lon="17.7387016">
        <ele>46.7612</ele>
        <time>2014-04-04T17:03:15Z</time>
      </trkpt>
      <trkpt lat="59.9806169" lon="17.7386965">
        <ele>47.2418</ele>
        <time>2014-04-04T17:03:16Z</time>
      </trkpt>
      <trkpt lat="59.9806453" lon="17.7386901">
        <ele>47.7225</ele>
        <time>2014-04-04T17:03:17Z</time>
      </trkpt>
      <trkpt lat="59.9806662" lon="17.7386892">
        <ele>47.7225</ele>
        <time>2014-04-04T17:03:18Z</time>
      </trkpt>
      <trkpt lat="59.9806926" lon="17.7386843">
        <ele>48.2034</ele>
        <time>2014-04-04T17:03:19Z</time>
      </trkpt>
      <trkpt lat="59.9807221" lon="17.7386835">
        <ele>48.684</ele>
        <time>2014-04-04T17:03:20Z</time>
      </trkpt>
      <trkpt lat="59.9807521" lon="17.7386786">
        <ele>49.1646</ele>
        <time>2014-04-04T17:03:21Z</time>
      </trkpt>
      <trkpt lat="59.9807903" lon="17.7386798">
        <ele>49.1646</ele>
        <time>2014-04-04T17:03:23Z</time>
      </trkpt>
      <trkpt lat="59.9808119" lon="17.7386769">
        <ele>49.6453</ele>
        <time>2014-04-04T17:03:24Z</time>
      </trkpt>
      <trkpt lat="59.9808398" lon="17.7386608">
        <ele>49.6453</ele>
        <time>2014-04-04T17:03:25Z</time>
      </trkpt>
      <trkpt lat="59.9808636" lon="17.7386502">
        <ele>50.126</ele>
        <time>2014-04-04T17:03:26Z</time>
      </trkpt>
      <trkpt lat="59.9808911" lon="17.7386424">
        <ele>50.6066</ele>
        <time>2014-04-04T17:03:27Z</time>
      </trkpt>
      <trkpt lat="59.9809107" lon="17.7386424">
        <ele>50.6066</ele>
        <time>2014-04-04T17:03:28Z</time>
      </trkpt>
      <trkpt lat="59.9809369" lon="17.7386401">
        <ele>50.6066</ele>
        <time>2014-04-04T17:03:29Z</time>
      </trkpt>
      <trkpt lat="59.9809661" lon="17.7386358">
        <ele>50.6066</ele>
        <time>2014-04-04T17:03:30Z</time>
      </trkpt>
      <trkpt lat="59.9809947" lon="17.7386296">
        <ele>50.6066</ele>
        <time>2014-04-04T17:03:31Z</time>
      </trkpt>
      <trkpt lat="59.9810215" lon="17.7386177">
        <ele>50.6066</ele>
        <time>2014-04-04T17:03:32Z</time>
      </trkpt>
      <trkpt lat="59.9810422" lon="17.7386078">
        <ele>50.6066</ele>
        <time>2014-04-04T17:03:33Z</time>
      </trkpt>
      <trkpt lat="59.9810718" lon="17.7385923">
        <ele>50.6066</ele>
        <time>2014-04-04T17:03:34Z</time>
      </trkpt>
      <trkpt lat="59.9811003" lon="17.7385808">
        <ele>51.0872</ele>
        <time>2014-04-04T17:03:35Z</time>
      </trkpt>
      <trkpt lat="59.9811289" lon="17.7385732">
        <ele>51.5679</ele>
        <time>2014-04-04T17:03:36Z</time>
      </trkpt>
      <trkpt lat="59.9811557" lon="17.73857">
        <ele>51.5679</ele>
        <time>2014-04-04T17:03:37Z</time>
      </trkpt>
      <trkpt lat="59.9811814" lon="17.7385607">
        <ele>51.5679</ele>
        <time>2014-04-04T17:03:38Z</time>
      </trkpt>
      <trkpt lat="59.9812044" lon="17.7385472">
        <ele>52.0486</ele>
        <time>2014-04-04T17:03:39Z</time>
      </trkpt>
      <trkpt lat="59.9812315" lon="17.738541">
        <ele>52.0486</ele>
        <time>2014-04-04T17:03:40Z</time>
      </trkpt>
      <trkpt lat="59.9812556" lon="17.7385305">
        <ele>51.5679</ele>
        <time>2014-04-04T17:03:41Z</time>
      </trkpt>
      <trkpt lat="59.9812851" lon="17.7385256">
        <ele>52.0486</ele>
        <time>2014-04-04T17:03:42Z</time>
      </trkpt>
      <trkpt lat="59.9813141" lon="17.7385191">
        <ele>52.0486</ele>
        <time>2014-04-04T17:03:43Z</time>
      </trkpt>
      <trkpt lat="59.9813403" lon="17.7385088">
        <ele>51.5679</ele>
        <time>2014-04-04T17:03:44Z</time>
      </trkpt>
      <trkpt lat="59.9813718" lon="17.7384895">
        <ele>51.5679</ele>
        <time>2014-04-04T17:03:45Z</time>
      </trkpt>
      <trkpt lat="59.9814054" lon="17.7384649">
        <ele>51.5679</ele>
        <time>2014-04-04T17:03:46Z</time>
      </trkpt>
      <trkpt lat="59.9814361" lon="17.7384457">
        <ele>51.5679</ele>
        <time>2014-04-04T17:03:47Z</time>
      </trkpt>
      <trkpt lat="59.9814586" lon="17.7384274">
        <ele>51.0872</ele>
        <time>2014-04-04T17:03:48Z</time>
      </trkpt>
      <trkpt lat="59.9814806" lon="17.7384175">
        <ele>51.0872</ele>
        <time>2014-04-04T17:03:49Z</time>
      </trkpt>
      <trkpt lat="59.9815032" lon="17.7384073">
        <ele>50.6066</ele>
        <time>2014-04-04T17:03:50Z</time>
      </trkpt>
      <trkpt lat="59.9815282" lon="17.7383885">
        <ele>50.6066</ele>
        <time>2014-04-04T17:03:51Z</time>
      </trkpt>
      <trkpt lat="59.9815546" lon="17.7383684">
        <ele>50.126</ele>
        <time>2014-04-04T17:03:52Z</time>
      </trkpt>
      <trkpt lat="59.9815817" lon="17.738351">
        <ele>50.126</ele>
        <time>2014-04-04T17:03:53Z</time>
      </trkpt>
      <trkpt lat="59.9816069" lon="17.738344">
        <ele>49.6453</ele>
        <time>2014-04-04T17:03:54Z</time>
      </trkpt>
      <trkpt lat="59.9816358" lon="17.7383375">
        <ele>49.6453</ele>
        <time>2014-04-04T17:03:55Z</time>
      </trkpt>
      <trkpt lat="59.981662" lon="17.7383285">
        <ele>49.1646</ele>
        <time>2014-04-04T17:03:56Z</time>
      </trkpt>
      <trkpt lat="59.9816893" lon="17.7383214">
        <ele>50.126</ele>
        <time>2014-04-04T17:03:57Z</time>
      </trkpt>
      <trkpt lat="59.9817142" lon="17.7383096">
        <ele>50.126</ele>
        <time>2014-04-04T17:03:58Z</time>
      </trkpt>
      <trkpt lat="59.9817415" lon="17.7382996">
        <ele>50.6066</ele>
        <time>2014-04-04T17:03:59Z</time>
      </trkpt>
      <trkpt lat="59.9817681" lon="17.7382908">
        <ele>51.5679</ele>
        <time>2014-04-04T17:04:00Z</time>
      </trkpt>
      <trkpt lat="59.9817908" lon="17.7382809">
        <ele>51.5679</ele>
        <time>2014-04-04T17:04:01Z</time>
      </trkpt>
      <trkpt lat="59.9818085" lon="17.7382767">
        <ele>51.5679</ele>
        <time>2014-04-04T17:04:02Z</time>
      </trkpt>
      <trkpt lat="59.981828" lon="17.7382747">
        <ele>51.0872</ele>
        <time>2014-04-04T17:04:03Z</time>
      </trkpt>
      <trkpt lat="59.9818524" lon="17.7382632">
        <ele>51.0872</ele>
        <time>2014-04-04T17:04:04Z</time>
      </trkpt>
      <trkpt lat="59.9818789" lon="17.7382457">
        <ele>51.0872</ele>
        <time>2014-04-04T17:04:05Z</time>
      </trkpt>
      <trkpt lat="59.9819083" lon="17.7382264">
        <ele>50.126</ele>
        <time>2014-04-04T17:04:06Z</time>
      </trkpt>
      <trkpt lat="59.9819385" lon="17.7382089">
        <ele>50.126</ele>
        <time>2014-04-04T17:04:07Z</time>
      </trkpt>
      <trkpt lat="59.9819645" lon="17.7381985">
        <ele>50.6066</ele>
        <time>2014-04-04T17:04:08Z</time>
      </trkpt>
      <trkpt lat="59.9819902" lon="17.7381912">
        <ele>50.6066</ele>
        <time>2014-04-04T17:04:09Z</time>
      </trkpt>
      <trkpt lat="59.9820208" lon="17.738181">
        <ele>51.5679</ele>
        <time>2014-04-04T17:04:10Z</time>
      </trkpt>
      <trkpt lat="59.9820527" lon="17.7381606">
        <ele>52.0486</ele>
        <time>2014-04-04T17:04:11Z</time>
      </trkpt>
      <trkpt lat="59.9820835" lon="17.7381406">
        <ele>52.0486</ele>
        <time>2014-04-04T17:04:12Z</time>
      </trkpt>
      <trkpt lat="59.9821135" lon="17.7381231">
        <ele>52.0486</ele>
        <time>2014-04-04T17:04:13Z</time>
      </trkpt>
      <trkpt lat="59.9821442" lon="17.7381106">
        <ele>52.0486</ele>
        <time>2014-04-04T17:04:14Z</time>
      </trkpt>
      <trkpt lat="59.9821729" lon="17.7381007">
        <ele>51.5679</ele>
        <time>2014-04-04T17:04:15Z</time>
      </trkpt>
      <trkpt lat="59.9821995" lon="17.7380831">
        <ele>51.0872</ele>
        <time>2014-04-04T17:04:16Z</time>
      </trkpt>
      <trkpt lat="59.9822291" lon="17.738064">
        <ele>51.0872</ele>
        <time>2014-04-04T17:04:17Z</time>
      </trkpt>
      <trkpt lat="59.9822543" lon="17.7380557">
        <ele>50.6066</ele>
        <time>2014-04-04T17:04:18Z</time>
      </trkpt>
      <trkpt lat="59.9822783" lon="17.7380521">
        <ele>50.6066</ele>
        <time>2014-04-04T17:04:19Z</time>
      </trkpt>
      <trkpt lat="59.9823003" lon="17.7380526">
        <ele>50.126</ele>
        <time>2014-04-04T17:04:20Z</time>
      </trkpt>
      <trkpt lat="59.9823213" lon="17.7380526">
        <ele>49.6453</ele>
        <time>2014-04-04T17:04:21Z</time>
      </trkpt>
      <trkpt lat="59.982343" lon="17.7380425">
        <ele>49.6453</ele>
        <time>2014-04-04T17:04:22Z</time>
      </trkpt>
      <trkpt lat="59.9823689" lon="17.7380349">
        <ele>49.1646</ele>
        <time>2014-04-04T17:04:23Z</time>
      </trkpt>
      <trkpt lat="59.9823979" lon="17.7380318">
        <ele>49.1646</ele>
        <time>2014-04-04T17:04:24Z</time>
      </trkpt>
      <trkpt lat="59.9824234" lon="17.7380381">
        <ele>49.1646</ele>
        <time>2014-04-04T17:04:25Z</time>
      </trkpt>
      <trkpt lat="59.9824527" lon="17.7380391">
        <ele>49.1646</ele>
        <time>2014-04-04T17:04:26Z</time>
      </trkpt>
      <trkpt lat="59.9824782" lon="17.738023">
        <ele>48.2034</ele>
        <time>2014-04-04T17:04:27Z</time>
      </trkpt>
      <trkpt lat="59.9825" lon="17.7380194">
        <ele>47.2418</ele>
        <time>2014-04-04T17:04:28Z</time>
      </trkpt>
      <trkpt lat="59.9825247" lon="17.7380153">
        <ele>46.7612</ele>
        <time>2014-04-04T17:04:29Z</time>
      </trkpt>
      <trkpt lat="59.9825511" lon="17.7380167">
        <ele>46.2806</ele>
        <time>2014-04-04T17:04:30Z</time>
      </trkpt>
      <trkpt lat="59.9825809" lon="17.7380127">
        <ele>44.8386</ele>
        <time>2014-04-04T17:04:31Z</time>
      </trkpt>
      <trkpt lat="59.9826122" lon="17.7380039">
        <ele>44.358</ele>
        <time>2014-04-04T17:04:32Z</time>
      </trkpt>
      <trkpt lat="59.9826451" lon="17.7380006">
        <ele>43.3966</ele>
        <time>2014-04-04T17:04:33Z</time>
      </trkpt>
      <trkpt lat="59.9826764" lon="17.7379987">
        <ele>42.916</ele>
        <time>2014-04-04T17:04:34Z</time>
      </trkpt>
      <trkpt lat="59.9827035" lon="17.7380014">
        <ele>42.916</ele>
        <time>2014-04-04T17:04:35Z</time>
      </trkpt>
      <trkpt lat="59.9827376" lon="17.7380085">
        <ele>43.3966</ele>
        <time>2014-04-04T17:04:36Z</time>
      </trkpt>
      <trkpt lat="59.9827692" lon="17.7380135">
        <ele>43.8773</ele>
        <time>2014-04-04T17:04:37Z</time>
      </trkpt>
      <trkpt lat="59.9828034" lon="17.7380169">
        <ele>44.358</ele>
        <time>2014-04-04T17:04:38Z</time>
      </trkpt>
      <trkpt lat="59.9828372" lon="17.7380204">
        <ele>44.8386</ele>
        <time>2014-04-04T17:04:39Z</time>
      </trkpt>
      <trkpt lat="59.9828682" lon="17.7380277">
        <ele>44.8386</ele>
        <time>2014-04-04T17:04:40Z</time>
      </trkpt>
      <trkpt lat="59.9829052" lon="17.7380311">
        <ele>45.7999</ele>
        <time>2014-04-04T17:04:41Z</time>
      </trkpt>
      <trkpt lat="59.9829417" lon="17.7380262">
        <ele>46.7612</ele>
        <time>2014-04-04T17:04:42Z</time>
      </trkpt>
      <trkpt lat="59.9829812" lon="17.7380307">
        <ele>47.7225</ele>
        <time>2014-04-04T17:04:43Z</time>
      </trkpt>
      <trkpt lat="59.9830272" lon="17.7380344">
        <ele>49.1646</ele>
        <time>2014-04-04T17:04:44Z</time>
      </trkpt>
      <trkpt lat="59.9830585" lon="17.7380344">
        <ele>48.684</ele>
        <time>2014-04-04T17:04:45Z</time>
      </trkpt>
      <trkpt lat="59.9830895" lon="17.738037">
        <ele>48.684</ele>
        <time>2014-04-04T17:04:46Z</time>
      </trkpt>
      <trkpt lat="59.983118" lon="17.7380391">
        <ele>48.684</ele>
        <time>2014-04-04T17:04:47Z</time>
      </trkpt>
      <trkpt lat="59.9831433" lon="17.7380347">
        <ele>48.2034</ele>
        <time>2014-04-04T17:04:48Z</time>
      </trkpt>
      <trkpt lat="59.9831723" lon="17.7380335">
        <ele>48.2034</ele>
        <time>2014-04-04T17:04:49Z</time>
      </trkpt>
      <trkpt lat="59.9832009" lon="17.7380318">
        <ele>48.2034</ele>
        <time>2014-04-04T17:04:50Z</time>
      </trkpt>
      <trkpt lat="59.9832289" lon="17.7380323">
        <ele>48.2034</ele>
        <time>2014-04-04T17:04:51Z</time>
      </trkpt>
      <trkpt lat="59.9832571" lon="17.7380307">
        <ele>48.2034</ele>
        <time>2014-04-04T17:04:52Z</time>
      </trkpt>
      <trkpt lat="59.9832848" lon="17.7380237">
        <ele>48.684</ele>
        <time>2014-04-04T17:04:53Z</time>
      </trkpt>
      <trkpt lat="59.9833132" lon="17.7380225">
        <ele>49.1646</ele>
        <time>2014-04-04T17:04:54Z</time>
      </trkpt>
      <trkpt lat="59.9833393" lon="17.738024">
        <ele>48.684</ele>
        <time>2014-04-04T17:04:55Z</time>
      </trkpt>
      <trkpt lat="59.9833714" lon="17.7380241">
        <ele>48.684</ele>
        <time>2014-04-04T17:04:56Z</time>
      </trkpt>
      <trkpt lat="59.983393" lon="17.7380246">
        <ele>49.1646</ele>
        <time>2014-04-04T17:04:57Z</time>
      </trkpt>
      <trkpt lat="59.9834137" lon="17.738025">
        <ele>49.6453</ele>
        <time>2014-04-04T17:04:58Z</time>
      </trkpt>
      <trkpt lat="59.98344" lon="17.7380171">
        <ele>50.126</ele>
        <time>2014-04-04T17:04:59Z</time>
      </trkpt>
      <trkpt lat="59.9834713" lon="17.7380147">
        <ele>50.6066</ele>
        <time>2014-04-04T17:05:00Z</time>
      </trkpt>
      <trkpt lat="59.9835024" lon="17.7380105">
        <ele>51.0872</ele>
        <time>2014-04-04T17:05:01Z</time>
      </trkpt>
      <trkpt lat="59.9835256" lon="17.7380052">
        <ele>50.6066</ele>
        <time>2014-04-04T17:05:02Z</time>
      </trkpt>
      <trkpt lat="59.983549" lon="17.7380007">
        <ele>50.126</ele>
        <time>2014-04-04T17:05:03Z</time>
      </trkpt>
      <trkpt lat="59.9835736" lon="17.7379883">
        <ele>50.126</ele>
        <time>2014-04-04T17:05:04Z</time>
      </trkpt>
      <trkpt lat="59.9835966" lon="17.7379821">
        <ele>50.126</ele>
        <time>2014-04-04T17:05:05Z</time>
      </trkpt>
      <trkpt lat="59.9836131" lon="17.7379788">
        <ele>49.6453</ele>
        <time>2014-04-04T17:05:06Z</time>
      </trkpt>
      <trkpt lat="59.9836334" lon="17.7379764">
        <ele>49.1646</ele>
        <time>2014-04-04T17:05:07Z</time>
      </trkpt>
      <trkpt lat="59.9836556" lon="17.737978">
        <ele>49.6453</ele>
        <time>2014-04-04T17:05:08Z</time>
      </trkpt>
      <trkpt lat="59.9836769" lon="17.737971">
        <ele>49.6453</ele>
        <time>2014-04-04T17:05:09Z</time>
      </trkpt>
      <trkpt lat="59.9837016" lon="17.7379648">
        <ele>49.1646</ele>
        <time>2014-04-04T17:05:10Z</time>
      </trkpt>
      <trkpt lat="59.983726" lon="17.7379509">
        <ele>48.684</ele>
        <time>2014-04-04T17:05:11Z</time>
      </trkpt>
      <trkpt lat="59.9837562" lon="17.7379397">
        <ele>48.684</ele>
        <time>2014-04-04T17:05:12Z</time>
      </trkpt>
      <trkpt lat="59.9837846" lon="17.7379185">
        <ele>48.2034</ele>
        <time>2014-04-04T17:05:13Z</time>
      </trkpt>
      <trkpt lat="59.9838198" lon="17.737896">
        <ele>47.7225</ele>
        <time>2014-04-04T17:05:14Z</time>
      </trkpt>
      <trkpt lat="59.9838557" lon="17.7378825">
        <ele>47.2418</ele>
        <time>2014-04-04T17:05:15Z</time>
      </trkpt>
      <trkpt lat="59.983881" lon="17.7378748">
        <ele>46.2806</ele>
        <time>2014-04-04T17:05:16Z</time>
      </trkpt>
      <trkpt lat="59.9839069" lon="17.7378728">
        <ele>46.7612</ele>
        <time>2014-04-04T17:05:17Z</time>
      </trkpt>
      <trkpt lat="59.9839302" lon="17.7378646">
        <ele>46.2806</ele>
        <time>2014-04-04T17:05:18Z</time>
      </trkpt>
      <trkpt lat="59.9839534" lon="17.7378628">
        <ele>46.2806</ele>
        <time>2014-04-04T17:05:19Z</time>
      </trkpt>
      <trkpt lat="59.9839764" lon="17.7378667">
        <ele>45.7999</ele>
        <time>2014-04-04T17:05:20Z</time>
      </trkpt>
      <trkpt lat="59.9840037" lon="17.7378638">
        <ele>45.7999</ele>
        <time>2014-04-04T17:05:21Z</time>
      </trkpt>
      <trkpt lat="59.9840255" lon="17.7378636">
        <ele>45.7999</ele>
        <time>2014-04-04T17:05:22Z</time>
      </trkpt>
      <trkpt lat="59.9840529" lon="17.737863">
        <ele>45.3192</ele>
        <time>2014-04-04T17:05:23Z</time>
      </trkpt>
      <trkpt lat="59.9840864" lon="17.7378618">
        <ele>45.7999</ele>
        <time>2014-04-04T17:05:24Z</time>
      </trkpt>
      <trkpt lat="59.9841198" lon="17.7378697">
        <ele>45.7999</ele>
        <time>2014-04-04T17:05:25Z</time>
      </trkpt>
      <trkpt lat="59.9841421" lon="17.7378706">
        <ele>45.7999</ele>
        <time>2014-04-04T17:05:26Z</time>
      </trkpt>
      <trkpt lat="59.9841617" lon="17.7378734">
        <ele>44.358</ele>
        <time>2014-04-04T17:05:27Z</time>
      </trkpt>
      <trkpt lat="59.9841809" lon="17.7378779">
        <ele>43.8773</ele>
        <time>2014-04-04T17:05:28Z</time>
      </trkpt>
      <trkpt lat="59.9841999" lon="17.7378804">
        <ele>43.3966</ele>
        <time>2014-04-04T17:05:29Z</time>
      </trkpt>
      <trkpt lat="59.9842225" lon="17.737889">
        <ele>43.8773</ele>
        <time>2014-04-04T17:05:30Z</time>
      </trkpt>
      <trkpt lat="59.9842493" lon="17.7378952">
        <ele>43.8773</ele>
        <time>2014-04-04T17:05:31Z</time>
      </trkpt>
      <trkpt lat="59.9842831" lon="17.7378982">
        <ele>44.358</ele>
        <time>2014-04-04T17:05:32Z</time>
      </trkpt>
      <trkpt lat="59.9843147" lon="17.7379066">
        <ele>44.358</ele>
        <time>2014-04-04T17:05:33Z</time>
      </trkpt>
      <trkpt lat="59.9843427" lon="17.7379193">
        <ele>45.3192</ele>
        <time>2014-04-04T17:05:34Z</time>
      </trkpt>
      <trkpt lat="59.9843648" lon="17.7379225">
        <ele>44.8386</ele>
        <time>2014-04-04T17:05:35Z</time>
      </trkpt>
      <trkpt lat="59.9843939" lon="17.7379298">
        <ele>45.7999</ele>
        <time>2014-04-04T17:05:36Z</time>
      </trkpt>
      <trkpt lat="59.9844213" lon="17.7379369">
        <ele>46.2806</ele>
        <time>2014-04-04T17:05:37Z</time>
      </trkpt>
      <trkpt lat="59.9844544" lon="17.737947">
        <ele>46.7612</ele>
        <time>2014-04-04T17:05:38Z</time>
      </trkpt>
      <trkpt lat="59.9844804" lon="17.7379552">
        <ele>46.7612</ele>
        <time>2014-04-04T17:05:39Z</time>
      </trkpt>
      <trkpt lat="59.9845098" lon="17.737953">
        <ele>47.2418</ele>
        <time>2014-04-04T17:05:40Z</time>
      </trkpt>
      <trkpt lat="59.9845442" lon="17.7379446">
        <ele>47.2418</ele>
        <time>2014-04-04T17:05:41Z</time>
      </trkpt>
      <trkpt lat="59.9845782" lon="17.7379488">
        <ele>47.7225</ele>
        <time>2014-04-04T17:05:42Z</time>
      </trkpt>
      <trkpt lat="59.9846185" lon="17.737954">
        <ele>48.684</ele>
        <time>2014-04-04T17:05:43Z</time>
      </trkpt>
      <trkpt lat="59.9846549" lon="17.737964">
        <ele>50.126</ele>
        <time>2014-04-04T17:05:44Z</time>
      </trkpt>
      <trkpt lat="59.9846891" lon="17.7379805">
        <ele>50.6066</ele>
        <time>2014-04-04T17:05:45Z</time>
      </trkpt>
      <trkpt lat="59.9847145" lon="17.7379944">
        <ele>51.0872</ele>
        <time>2014-04-04T17:05:46Z</time>
      </trkpt>
      <trkpt lat="59.9847402" lon="17.7380043">
        <ele>51.0872</ele>
        <time>2014-04-04T17:05:47Z</time>
      </trkpt>
      <trkpt lat="59.9847631" lon="17.7380116">
        <ele>50.6066</ele>
        <time>2014-04-04T17:05:48Z</time>
      </trkpt>
      <trkpt lat="59.9847864" lon="17.738025">
        <ele>50.126</ele>
        <time>2014-04-04T17:05:49Z</time>
      </trkpt>
      <trkpt lat="59.9848075" lon="17.7380349">
        <ele>50.126</ele>
        <time>2014-04-04T17:05:50Z</time>
      </trkpt>
      <trkpt lat="59.9848285" lon="17.7380443">
        <ele>49.6453</ele>
        <time>2014-04-04T17:05:51Z</time>
      </trkpt>
      <trkpt lat="59.9848511" lon="17.7380577">
        <ele>49.6453</ele>
        <time>2014-04-04T17:05:52Z</time>
      </trkpt>
      <trkpt lat="59.9848734" lon="17.7380627">
        <ele>49.1646</ele>
        <time>2014-04-04T17:05:53Z</time>
      </trkpt>
      <trkpt lat="59.9848984" lon="17.7380727">
        <ele>49.1646</ele>
        <time>2014-04-04T17:05:54Z</time>
      </trkpt>
      <trkpt lat="59.9849269" lon="17.7380816">
        <ele>48.684</ele>
        <time>2014-04-04T17:05:55Z</time>
      </trkpt>
      <trkpt lat="59.9849548" lon="17.7380856">
        <ele>49.1646</ele>
        <time>2014-04-04T17:05:56Z</time>
      </trkpt>
      <trkpt lat="59.9849797" lon="17.7380857">
        <ele>48.684</ele>
        <time>2014-04-04T17:05:57Z</time>
      </trkpt>
      <trkpt lat="59.9850055" lon="17.7380876">
        <ele>48.684</ele>
        <time>2014-04-04T17:05:58Z</time>
      </trkpt>
      <trkpt lat="59.9850328" lon="17.738098">
        <ele>48.684</ele>
        <time>2014-04-04T17:05:59Z</time>
      </trkpt>
      <trkpt lat="59.9850601" lon="17.7381091">
        <ele>49.1646</ele>
        <time>2014-04-04T17:06:00Z</time>
      </trkpt>
      <trkpt lat="59.9850867" lon="17.7381142">
        <ele>49.1646</ele>
        <time>2014-04-04T17:06:01Z</time>
      </trkpt>
      <trkpt lat="59.9851175" lon="17.7381126">
        <ele>49.6453</ele>
        <time>2014-04-04T17:06:02Z</time>
      </trkpt>
      <trkpt lat="59.985147" lon="17.7381156">
        <ele>49.6453</ele>
        <time>2014-04-04T17:06:03Z</time>
      </trkpt>
      <trkpt lat="59.9851771" lon="17.7381199">
        <ele>49.6453</ele>
        <time>2014-04-04T17:06:04Z</time>
      </trkpt>
      <trkpt lat="59.9852071" lon="17.7381271">
        <ele>49.6453</ele>
        <time>2014-04-04T17:06:05Z</time>
      </trkpt>
      <trkpt lat="59.9852328" lon="17.7381375">
        <ele>49.6453</ele>
        <time>2014-04-04T17:06:06Z</time>
      </trkpt>
      <trkpt lat="59.9852615" lon="17.7381386">
        <ele>50.126</ele>
        <time>2014-04-04T17:06:07Z</time>
      </trkpt>
      <trkpt lat="59.985288" lon="17.7381415">
        <ele>50.126</ele>
        <time>2014-04-04T17:06:08Z</time>
      </trkpt>
      <trkpt lat="59.9853168" lon="17.7381536">
        <ele>50.6066</ele>
        <time>2014-04-04T17:06:09Z</time>
      </trkpt>
      <trkpt lat="59.9853453" lon="17.7381614">
        <ele>50.6066</ele>
        <time>2014-04-04T17:06:10Z</time>
      </trkpt>
      <trkpt lat="59.9853687" lon="17.7381608">
        <ele>50.6066</ele>
        <time>2014-04-04T17:06:11Z</time>
      </trkpt>
      <trkpt lat="59.9853908" lon="17.7381457">
        <ele>50.6066</ele>
        <time>2014-04-04T17:06:12Z</time>
      </trkpt>
      <trkpt lat="59.9854069" lon="17.7381145">
        <ele>50.126</ele>
        <time>2014-04-04T17:06:13Z</time>
      </trkpt>
      <trkpt lat="59.9854214" lon="17.7380731">
        <ele>50.126</ele>
        <time>2014-04-04T17:06:14Z</time>
      </trkpt>
      <trkpt lat="59.9854336" lon="17.7380291">
        <ele>49.6453</ele>
        <time>2014-04-04T17:06:15Z</time>
      </trkpt>
      <trkpt lat="59.9854484" lon="17.7379864">
        <ele>49.1646</ele>
        <time>2014-04-04T17:06:16Z</time>
      </trkpt>
      <trkpt lat="59.9854581" lon="17.7379329">
        <ele>48.684</ele>
        <time>2014-04-04T17:06:17Z</time>
      </trkpt>
      <trkpt lat="59.9854651" lon="17.7378795">
        <ele>48.2034</ele>
        <time>2014-04-04T17:06:18Z</time>
      </trkpt>
      <trkpt lat="59.9854722" lon="17.737831">
        <ele>46.7612</ele>
        <time>2014-04-04T17:06:19Z</time>
      </trkpt>
      <trkpt lat="59.9854792" lon="17.7377817">
        <ele>46.2806</ele>
        <time>2014-04-04T17:06:20Z</time>
      </trkpt>
      <trkpt lat="59.98549" lon="17.7377336">
        <ele>45.7999</ele>
        <time>2014-04-04T17:06:21Z</time>
      </trkpt>
      <trkpt lat="59.9855013" lon="17.7376854">
        <ele>45.3192</ele>
        <time>2014-04-04T17:06:22Z</time>
      </trkpt>
      <trkpt lat="59.9855111" lon="17.7376348">
        <ele>45.3192</ele>
        <time>2014-04-04T17:06:23Z</time>
      </trkpt>
      <trkpt lat="59.9855251" lon="17.7375863">
        <ele>44.8386</ele>
        <time>2014-04-04T17:06:24Z</time>
      </trkpt>
      <trkpt lat="59.9855417" lon="17.7375305">
        <ele>44.8386</ele>
        <time>2014-04-04T17:06:25Z</time>
      </trkpt>
      <trkpt lat="59.9855573" lon="17.7374784">
        <ele>44.8386</ele>
        <time>2014-04-04T17:06:26Z</time>
      </trkpt>
      <trkpt lat="59.9855733" lon="17.7374303">
        <ele>44.358</ele>
        <time>2014-04-04T17:06:27Z</time>
      </trkpt>
      <trkpt lat="59.9855934" lon="17.7373874">
        <ele>43.8773</ele>
        <time>2014-04-04T17:06:28Z</time>
      </trkpt>
      <trkpt lat="59.9856149" lon="17.7373329">
        <ele>44.358</ele>
        <time>2014-04-04T17:06:29Z</time>
      </trkpt>
      <trkpt lat="59.9856333" lon="17.7372859">
        <ele>44.8386</ele>
        <time>2014-04-04T17:06:30Z</time>
      </trkpt>
      <trkpt lat="59.9856491" lon="17.7372428">
        <ele>44.8386</ele>
        <time>2014-04-04T17:06:31Z</time>
      </trkpt>
      <trkpt lat="59.9856698" lon="17.7372024">
        <ele>44.8386</ele>
        <time>2014-04-04T17:06:32Z</time>
      </trkpt>
      <trkpt lat="59.985696" lon="17.7371636">
        <ele>44.8386</ele>
        <time>2014-04-04T17:06:33Z</time>
      </trkpt>
      <trkpt lat="59.9857197" lon="17.7371109">
        <ele>44.8386</ele>
        <time>2014-04-04T17:06:34Z</time>
      </trkpt>
      <trkpt lat="59.9857389" lon="17.7370651">
        <ele>45.3192</ele>
        <time>2014-04-04T17:06:35Z</time>
      </trkpt>
      <trkpt lat="59.9857577" lon="17.7370274">
        <ele>45.3192</ele>
        <time>2014-04-04T17:06:36Z</time>
      </trkpt>
      <trkpt lat="59.9857798" lon="17.7369834">
        <ele>46.2806</ele>
        <time>2014-04-04T17:06:37Z</time>
      </trkpt>
      <trkpt lat="59.9858009" lon="17.7369496">
        <ele>46.2806</ele>
        <time>2014-04-04T17:06:38Z</time>
      </trkpt>
      <trkpt lat="59.9858214" lon="17.7369104">
        <ele>46.2806</ele>
        <time>2014-04-04T17:06:39Z</time>
      </trkpt>
      <trkpt lat="59.9858513" lon="17.7368747">
        <ele>46.7612</ele>
        <time>2014-04-04T17:06:40Z</time>
      </trkpt>
      <trkpt lat="59.9858821" lon="17.7368407">
        <ele>46.7612</ele>
        <time>2014-04-04T17:06:41Z</time>
      </trkpt>
      <trkpt lat="59.9859091" lon="17.7367963">
        <ele>46.7612</ele>
        <time>2014-04-04T17:06:42Z</time>
      </trkpt>
      <trkpt lat="59.9859349" lon="17.7367525">
        <ele>47.2418</ele>
        <time>2014-04-04T17:06:43Z</time>
      </trkpt>
      <trkpt lat="59.9859587" lon="17.7367052">
        <ele>46.7612</ele>
        <time>2014-04-04T17:06:44Z</time>
      </trkpt>
      <trkpt lat="59.9859809" lon="17.7366632">
        <ele>47.2418</ele>
        <time>2014-04-04T17:06:45Z</time>
      </trkpt>
      <trkpt lat="59.9860075" lon="17.7366161">
        <ele>47.7225</ele>
        <time>2014-04-04T17:06:46Z</time>
      </trkpt>
      <trkpt lat="59.9860313" lon="17.7365717">
        <ele>48.2034</ele>
        <time>2014-04-04T17:06:47Z</time>
      </trkpt>
      <trkpt lat="59.9860546" lon="17.7365364">
        <ele>48.684</ele>
        <time>2014-04-04T17:06:48Z</time>
      </trkpt>
      <trkpt lat="59.9860783" lon="17.7365125">
        <ele>48.684</ele>
        <time>2014-04-04T17:06:49Z</time>
      </trkpt>
      <trkpt lat="59.9861007" lon="17.7364819">
        <ele>48.684</ele>
        <time>2014-04-04T17:06:50Z</time>
      </trkpt>
      <trkpt lat="59.9861198" lon="17.7364491">
        <ele>48.2034</ele>
        <time>2014-04-04T17:06:51Z</time>
      </trkpt>
      <trkpt lat="59.9861385" lon="17.736403">
        <ele>48.2034</ele>
        <time>2014-04-04T17:06:52Z</time>
      </trkpt>
      <trkpt lat="59.9861654" lon="17.736359">
        <ele>48.684</ele>
        <time>2014-04-04T17:06:53Z</time>
      </trkpt>
      <trkpt lat="59.9861932" lon="17.7363238">
        <ele>48.2034</ele>
        <time>2014-04-04T17:06:54Z</time>
      </trkpt>
      <trkpt lat="59.9862163" lon="17.7362916">
        <ele>48.2034</ele>
        <time>2014-04-04T17:06:55Z</time>
      </trkpt>
      <trkpt lat="59.9862369" lon="17.7362675">
        <ele>48.2034</ele>
        <time>2014-04-04T17:06:56Z</time>
      </trkpt>
      <trkpt lat="59.9862549" lon="17.7362343">
        <ele>48.2034</ele>
        <time>2014-04-04T17:06:57Z</time>
      </trkpt>
      <trkpt lat="59.9862719" lon="17.7361892">
        <ele>48.2034</ele>
        <time>2014-04-04T17:06:58Z</time>
      </trkpt>
      <trkpt lat="59.9862892" lon="17.7361531">
        <ele>48.2034</ele>
        <time>2014-04-04T17:06:59Z</time>
      </trkpt>
      <trkpt lat="59.9863085" lon="17.7361122">
        <ele>49.1646</ele>
        <time>2014-04-04T17:07:00Z</time>
      </trkpt>
      <trkpt lat="59.9863313" lon="17.7360738">
        <ele>49.1646</ele>
        <time>2014-04-04T17:07:01Z</time>
      </trkpt>
      <trkpt lat="59.9863517" lon="17.7360441">
        <ele>49.1646</ele>
        <time>2014-04-04T17:07:02Z</time>
      </trkpt>
      <trkpt lat="59.98637" lon="17.7360106">
        <ele>49.1646</ele>
        <time>2014-04-04T17:07:03Z</time>
      </trkpt>
      <trkpt lat="59.9863924" lon="17.7359734">
        <ele>48.684</ele>
        <time>2014-04-04T17:07:04Z</time>
      </trkpt>
      <trkpt lat="59.9864146" lon="17.7359321">
        <ele>48.684</ele>
        <time>2014-04-04T17:07:05Z</time>
      </trkpt>
      <trkpt lat="59.9864354" lon="17.7358868">
        <ele>48.2034</ele>
        <time>2014-04-04T17:07:06Z</time>
      </trkpt>
      <trkpt lat="59.9864539" lon="17.7358416">
        <ele>47.7225</ele>
        <time>2014-04-04T17:07:07Z</time>
      </trkpt>
      <trkpt lat="59.9864695" lon="17.7357956">
        <ele>47.7225</ele>
        <time>2014-04-04T17:07:08Z</time>
      </trkpt>
      <trkpt lat="59.9864866" lon="17.7357526">
        <ele>47.2418</ele>
        <time>2014-04-04T17:07:09Z</time>
      </trkpt>
      <trkpt lat="59.9865045" lon="17.7357106">
        <ele>46.7612</ele>
        <time>2014-04-04T17:07:10Z</time>
      </trkpt>
      <trkpt lat="59.9865197" lon="17.7356657">
        <ele>46.2806</ele>
        <time>2014-04-04T17:07:11Z</time>
      </trkpt>
      <trkpt lat="59.9865352" lon="17.7356215">
        <ele>46.2806</ele>
        <time>2014-04-04T17:07:12Z</time>
      </trkpt>
      <trkpt lat="59.9865502" lon="17.7355723">
        <ele>46.2806</ele>
        <time>2014-04-04T17:07:13Z</time>
      </trkpt>
      <trkpt lat="59.9865654" lon="17.7355219">
        <ele>45.7999</ele>
        <time>2014-04-04T17:07:14Z</time>
      </trkpt>
      <trkpt lat="59.9865796" lon="17.735466">
        <ele>45.7999</ele>
        <time>2014-04-04T17:07:15Z</time>
      </trkpt>
      <trkpt lat="59.9865924" lon="17.735423">
        <ele>46.2806</ele>
        <time>2014-04-04T17:07:16Z</time>
      </trkpt>
      <trkpt lat="59.9866056" lon="17.735376">
        <ele>46.2806</ele>
        <time>2014-04-04T17:07:17Z</time>
      </trkpt>
      <trkpt lat="59.9866164" lon="17.7353214">
        <ele>46.2806</ele>
        <time>2014-04-04T17:07:18Z</time>
      </trkpt>
      <trkpt lat="59.9866274" lon="17.73526">
        <ele>46.2806</ele>
        <time>2014-04-04T17:07:19Z</time>
      </trkpt>
      <trkpt lat="59.9866385" lon="17.7352017">
        <ele>46.2806</ele>
        <time>2014-04-04T17:07:20Z</time>
      </trkpt>
      <trkpt lat="59.9866513" lon="17.7351501">
        <ele>46.7612</ele>
        <time>2014-04-04T17:07:21Z</time>
      </trkpt>
      <trkpt lat="59.9866682" lon="17.7351073">
        <ele>46.2806</ele>
        <time>2014-04-04T17:07:22Z</time>
      </trkpt>
      <trkpt lat="59.9866755" lon="17.7350683">
        <ele>46.2806</ele>
        <time>2014-04-04T17:07:23Z</time>
      </trkpt>
      <trkpt lat="59.9866839" lon="17.7350393">
        <ele>46.2806</ele>
        <time>2014-04-04T17:07:24Z</time>
      </trkpt>
      <trkpt lat="59.9866969" lon="17.7350164">
        <ele>45.7999</ele>
        <time>2014-04-04T17:07:25Z</time>
      </trkpt>
      <trkpt lat="59.9867036" lon="17.7349817">
        <ele>45.7999</ele>
        <time>2014-04-04T17:07:26Z</time>
      </trkpt>
      <trkpt lat="59.9867112" lon="17.7349357">
        <ele>45.7999</ele>
        <time>2014-04-04T17:07:27Z</time>
      </trkpt>
      <trkpt lat="59.9867232" lon="17.7348859">
        <ele>46.2806</ele>
        <time>2014-04-04T17:07:28Z</time>
      </trkpt>
      <trkpt lat="59.9867321" lon="17.734828">
        <ele>46.7612</ele>
        <time>2014-04-04T17:07:29Z</time>
      </trkpt>
      <trkpt lat="59.9867436" lon="17.7347677">
        <ele>47.2418</ele>
        <time>2014-04-04T17:07:30Z</time>
      </trkpt>
      <trkpt lat="59.9867575" lon="17.7347237">
        <ele>47.2418</ele>
        <time>2014-04-04T17:07:31Z</time>
      </trkpt>
      <trkpt lat="59.9867715" lon="17.7346757">
        <ele>47.2418</ele>
        <time>2014-04-04T17:07:32Z</time>
      </trkpt>
      <trkpt lat="59.9867829" lon="17.7346226">
        <ele>47.2418</ele>
        <time>2014-04-04T17:07:33Z</time>
      </trkpt>
      <trkpt lat="59.9867942" lon="17.7345703">
        <ele>47.7225</ele>
        <time>2014-04-04T17:07:34Z</time>
      </trkpt>
      <trkpt lat="59.9868076" lon="17.7345099">
        <ele>48.2034</ele>
        <time>2014-04-04T17:07:35Z</time>
      </trkpt>
      <trkpt lat="59.9868207" lon="17.734456">
        <ele>48.2034</ele>
        <time>2014-04-04T17:07:36Z</time>
      </trkpt>
      <trkpt lat="59.986835" lon="17.7344056">
        <ele>48.2034</ele>
        <time>2014-04-04T17:07:37Z</time>
      </trkpt>
      <trkpt lat="59.9868493" lon="17.7343564">
        <ele>48.2034</ele>
        <time>2014-04-04T17:07:38Z</time>
      </trkpt>
      <trkpt lat="59.9868612" lon="17.734308">
        <ele>48.2034</ele>
        <time>2014-04-04T17:07:39Z</time>
      </trkpt>
      <trkpt lat="59.9868738" lon="17.7342502">
        <ele>48.2034</ele>
        <time>2014-04-04T17:07:40Z</time>
      </trkpt>
      <trkpt lat="59.9868861" lon="17.734187">
        <ele>48.2034</ele>
        <time>2014-04-04T17:07:41Z</time>
      </trkpt>
      <trkpt lat="59.9869" lon="17.7341276">
        <ele>48.2034</ele>
        <time>2014-04-04T17:07:42Z</time>
      </trkpt>
      <trkpt lat="59.9869154" lon="17.7340783">
        <ele>48.2034</ele>
        <time>2014-04-04T17:07:43Z</time>
      </trkpt>
      <trkpt lat="59.9869291" lon="17.7340327">
        <ele>47.7225</ele>
        <time>2014-04-04T17:07:44Z</time>
      </trkpt>
      <trkpt lat="59.9869428" lon="17.7339876">
        <ele>47.7225</ele>
        <time>2014-04-04T17:07:45Z</time>
      </trkpt>
      <trkpt lat="59.9869554" lon="17.7339415">
        <ele>47.7225</ele>
        <time>2014-04-04T17:07:46Z</time>
      </trkpt>
      <trkpt lat="59.9869673" lon="17.7338924">
        <ele>47.2418</ele>
        <time>2014-04-04T17:07:47Z</time>
      </trkpt>
      <trkpt lat="59.9869812" lon="17.7338425">
        <ele>46.2806</ele>
        <time>2014-04-04T17:07:48Z</time>
      </trkpt>
      <trkpt lat="59.9869928" lon="17.733794">
        <ele>45.3192</ele>
        <time>2014-04-04T17:07:49Z</time>
      </trkpt>
      <trkpt lat="59.9870005" lon="17.7337421">
        <ele>44.358</ele>
        <time>2014-04-04T17:07:50Z</time>
      </trkpt>
      <trkpt lat="59.9870119" lon="17.7336834">
        <ele>43.8773</ele>
        <time>2014-04-04T17:07:51Z</time>
      </trkpt>
      <trkpt lat="59.9870265" lon="17.7336263">
        <ele>43.3966</ele>
        <time>2014-04-04T17:07:52Z</time>
      </trkpt>
      <trkpt lat="59.9870391" lon="17.7335723">
        <ele>42.916</ele>
        <time>2014-04-04T17:07:53Z</time>
      </trkpt>
      <trkpt lat="59.9870497" lon="17.7335194">
        <ele>41.9547</ele>
        <time>2014-04-04T17:07:54Z</time>
      </trkpt>
      <trkpt lat="59.9870632" lon="17.7334687">
        <ele>41.9547</ele>
        <time>2014-04-04T17:07:55Z</time>
      </trkpt>
      <trkpt lat="59.9870797" lon="17.7334215">
        <ele>41.9547</ele>
        <time>2014-04-04T17:07:56Z</time>
      </trkpt>
      <trkpt lat="59.9870932" lon="17.7333763">
        <ele>41.9547</ele>
        <time>2014-04-04T17:07:57Z</time>
      </trkpt>
      <trkpt lat="59.9871055" lon="17.7333299">
        <ele>41.9547</ele>
        <time>2014-04-04T17:07:58Z</time>
      </trkpt>
      <trkpt lat="59.9871206" lon="17.7332703">
        <ele>41.9547</ele>
        <time>2014-04-04T17:07:59Z</time>
      </trkpt>
      <trkpt lat="59.9871351" lon="17.7332154">
        <ele>41.9547</ele>
        <time>2014-04-04T17:08:00Z</time>
      </trkpt>
      <trkpt lat="59.9871486" lon="17.7331548">
        <ele>41.9547</ele>
        <time>2014-04-04T17:08:01Z</time>
      </trkpt>
      <trkpt lat="59.9871666" lon="17.7330978">
        <ele>41.9547</ele>
        <time>2014-04-04T17:08:02Z</time>
      </trkpt>
      <trkpt lat="59.9871824" lon="17.7330458">
        <ele>42.4354</ele>
        <time>2014-04-04T17:08:03Z</time>
      </trkpt>
      <trkpt lat="59.9871932" lon="17.7329987">
        <ele>41.9547</ele>
        <time>2014-04-04T17:08:04Z</time>
      </trkpt>
      <trkpt lat="59.9872051" lon="17.732949">
        <ele>42.4354</ele>
        <time>2014-04-04T17:08:05Z</time>
      </trkpt>
      <trkpt lat="59.9872181" lon="17.7329016">
        <ele>42.4354</ele>
        <time>2014-04-04T17:08:06Z</time>
      </trkpt>
      <trkpt lat="59.9872294" lon="17.7328546">
        <ele>41.9547</ele>
        <time>2014-04-04T17:08:07Z</time>
      </trkpt>
      <trkpt lat="59.9872393" lon="17.7328072">
        <ele>42.4354</ele>
        <time>2014-04-04T17:08:08Z</time>
      </trkpt>
      <trkpt lat="59.9872508" lon="17.732758">
        <ele>42.916</ele>
        <time>2014-04-04T17:08:09Z</time>
      </trkpt>
      <trkpt lat="59.987264" lon="17.7327077">
        <ele>42.916</ele>
        <time>2014-04-04T17:08:10Z</time>
      </trkpt>
      <trkpt lat="59.9872755" lon="17.7326611">
        <ele>43.3966</ele>
        <time>2014-04-04T17:08:11Z</time>
      </trkpt>
      <trkpt lat="59.9872868" lon="17.7326082">
        <ele>43.3966</ele>
        <time>2014-04-04T17:08:12Z</time>
      </trkpt>
      <trkpt lat="59.9872932" lon="17.7325508">
        <ele>42.916</ele>
        <time>2014-04-04T17:08:13Z</time>
      </trkpt>
      <trkpt lat="59.9873" lon="17.7324964">
        <ele>43.3966</ele>
        <time>2014-04-04T17:08:14Z</time>
      </trkpt>
      <trkpt lat="59.9873149" lon="17.7324459">
        <ele>43.3966</ele>
        <time>2014-04-04T17:08:15Z</time>
      </trkpt>
      <trkpt lat="59.9873269" lon="17.7323913">
        <ele>43.3966</ele>
        <time>2014-04-04T17:08:16Z</time>
      </trkpt>
      <trkpt lat="59.9873351" lon="17.7323428">
        <ele>43.3966</ele>
        <time>2014-04-04T17:08:17Z</time>
      </trkpt>
      <trkpt lat="59.9873404" lon="17.7322843">
        <ele>43.3966</ele>
        <time>2014-04-04T17:08:18Z</time>
      </trkpt>
      <trkpt lat="59.9873486" lon="17.7322305">
        <ele>43.8773</ele>
        <time>2014-04-04T17:08:19Z</time>
      </trkpt>
      <trkpt lat="59.987358" lon="17.7321769">
        <ele>44.358</ele>
        <time>2014-04-04T17:08:20Z</time>
      </trkpt>
      <trkpt lat="59.9873666" lon="17.732117">
        <ele>44.358</ele>
        <time>2014-04-04T17:08:21Z</time>
      </trkpt>
      <trkpt lat="59.9873756" lon="17.7320488">
        <ele>44.358</ele>
        <time>2014-04-04T17:08:22Z</time>
      </trkpt>
      <trkpt lat="59.9873852" lon="17.7319928">
        <ele>44.8386</ele>
        <time>2014-04-04T17:08:23Z</time>
      </trkpt>
      <trkpt lat="59.9873931" lon="17.731941">
        <ele>44.358</ele>
        <time>2014-04-04T17:08:24Z</time>
      </trkpt>
      <trkpt lat="59.9874092" lon="17.7319022">
        <ele>44.8386</ele>
        <time>2014-04-04T17:08:25Z</time>
      </trkpt>
      <trkpt lat="59.9874269" lon="17.7318595">
        <ele>44.8386</ele>
        <time>2014-04-04T17:08:26Z</time>
      </trkpt>
      <trkpt lat="59.9874434" lon="17.7318114">
        <ele>44.8386</ele>
        <time>2014-04-04T17:08:27Z</time>
      </trkpt>
      <trkpt lat="59.9874594" lon="17.7317534">
        <ele>44.8386</ele>
        <time>2014-04-04T17:08:28Z</time>
      </trkpt>
      <trkpt lat="59.9874739" lon="17.7317106">
        <ele>44.8386</ele>
        <time>2014-04-04T17:08:29Z</time>
      </trkpt>
      <trkpt lat="59.9874889" lon="17.7316681">
        <ele>44.8386</ele>
        <time>2014-04-04T17:08:30Z</time>
      </trkpt>
      <trkpt lat="59.9875076" lon="17.7316154">
        <ele>44.8386</ele>
        <time>2014-04-04T17:08:31Z</time>
      </trkpt>
      <trkpt lat="59.9875302" lon="17.7315671">
        <ele>44.358</ele>
        <time>2014-04-04T17:08:32Z</time>
      </trkpt>
      <trkpt lat="59.9875536" lon="17.7315316">
        <ele>44.358</ele>
        <time>2014-04-04T17:08:33Z</time>
      </trkpt>
      <trkpt lat="59.9875756" lon="17.7315018">
        <ele>43.8773</ele>
        <time>2014-04-04T17:08:34Z</time>
      </trkpt>
      <trkpt lat="59.9875993" lon="17.7314598">
        <ele>43.3966</ele>
        <time>2014-04-04T17:08:35Z</time>
      </trkpt>
      <trkpt lat="59.9876222" lon="17.7314149">
        <ele>43.3966</ele>
        <time>2014-04-04T17:08:36Z</time>
      </trkpt>
      <trkpt lat="59.9876452" lon="17.7313753">
        <ele>43.3966</ele>
        <time>2014-04-04T17:08:37Z</time>
      </trkpt>
      <trkpt lat="59.9876686" lon="17.7313318">
        <ele>43.3966</ele>
        <time>2014-04-04T17:08:38Z</time>
      </trkpt>
      <trkpt lat="59.9876918" lon="17.7312864">
        <ele>43.3966</ele>
        <time>2014-04-04T17:08:39Z</time>
      </trkpt>
      <trkpt lat="59.9877165" lon="17.7312522">
        <ele>42.4354</ele>
        <time>2014-04-04T17:08:40Z</time>
      </trkpt>
      <trkpt lat="59.9877407" lon="17.7312118">
        <ele>42.4354</ele>
        <time>2014-04-04T17:08:41Z</time>
      </trkpt>
      <trkpt lat="59.9877648" lon="17.7311725">
        <ele>41.9547</ele>
        <time>2014-04-04T17:08:42Z</time>
      </trkpt>
      <trkpt lat="59.9877882" lon="17.731134">
        <ele>41.474</ele>
        <time>2014-04-04T17:08:43Z</time>
      </trkpt>
      <trkpt lat="59.9878117" lon="17.7310968">
        <ele>41.474</ele>
        <time>2014-04-04T17:08:44Z</time>
      </trkpt>
      <trkpt lat="59.987834" lon="17.7310594">
        <ele>40.9934</ele>
        <time>2014-04-04T17:08:45Z</time>
      </trkpt>
      <trkpt lat="59.9878572" lon="17.7310215">
        <ele>40.9934</ele>
        <time>2014-04-04T17:08:46Z</time>
      </trkpt>
      <trkpt lat="59.987882" lon="17.7309817">
        <ele>40.5128</ele>
        <time>2014-04-04T17:08:47Z</time>
      </trkpt>
      <trkpt lat="59.987908" lon="17.730946">
        <ele>40.5128</ele>
        <time>2014-04-04T17:08:48Z</time>
      </trkpt>
      <trkpt lat="59.9879335" lon="17.7309171">
        <ele>40.5128</ele>
        <time>2014-04-04T17:08:49Z</time>
      </trkpt>
      <trkpt lat="59.9879556" lon="17.730875">
        <ele>40.5128</ele>
        <time>2014-04-04T17:08:50Z</time>
      </trkpt>
      <trkpt lat="59.9879782" lon="17.7308277">
        <ele>40.5128</ele>
        <time>2014-04-04T17:08:51Z</time>
      </trkpt>
      <trkpt lat="59.9880028" lon="17.7307885">
        <ele>40.5128</ele>
        <time>2014-04-04T17:08:52Z</time>
      </trkpt>
      <trkpt lat="59.9880291" lon="17.7307486">
        <ele>40.0321</ele>
        <time>2014-04-04T17:08:53Z</time>
      </trkpt>
      <trkpt lat="59.9880528" lon="17.7306957">
        <ele>40.0321</ele>
        <time>2014-04-04T17:08:54Z</time>
      </trkpt>
      <trkpt lat="59.9880753" lon="17.7306559">
        <ele>39.5513</ele>
        <time>2014-04-04T17:08:55Z</time>
      </trkpt>
      <trkpt lat="59.9880984" lon="17.7306107">
        <ele>39.5513</ele>
        <time>2014-04-04T17:08:56Z</time>
      </trkpt>
      <trkpt lat="59.9881183" lon="17.730572">
        <ele>39.0707</ele>
        <time>2014-04-04T17:08:57Z</time>
      </trkpt>
      <trkpt lat="59.9881393" lon="17.7305322">
        <ele>39.0707</ele>
        <time>2014-04-04T17:08:58Z</time>
      </trkpt>
      <trkpt lat="59.9881619" lon="17.7304962">
        <ele>38.5901</ele>
        <time>2014-04-04T17:08:59Z</time>
      </trkpt>
      <trkpt lat="59.9881801" lon="17.7304674">
        <ele>38.1094</ele>
        <time>2014-04-04T17:09:00Z</time>
      </trkpt>
      <trkpt lat="59.9881998" lon="17.730436">
        <ele>38.1094</ele>
        <time>2014-04-04T17:09:01Z</time>
      </trkpt>
      <trkpt lat="59.988222" lon="17.7303999">
        <ele>37.6287</ele>
        <time>2014-04-04T17:09:02Z</time>
      </trkpt>
      <trkpt lat="59.9882426" lon="17.7303517">
        <ele>38.1094</ele>
        <time>2014-04-04T17:09:03Z</time>
      </trkpt>
      <trkpt lat="59.9882649" lon="17.7303112">
        <ele>37.1481</ele>
        <time>2014-04-04T17:09:04Z</time>
      </trkpt>
      <trkpt lat="59.9882878" lon="17.7302652">
        <ele>37.1481</ele>
        <time>2014-04-04T17:09:05Z</time>
      </trkpt>
      <trkpt lat="59.9883103" lon="17.7302159">
        <ele>37.1481</ele>
        <time>2014-04-04T17:09:06Z</time>
      </trkpt>
      <trkpt lat="59.9883338" lon="17.7301753">
        <ele>36.6675</ele>
        <time>2014-04-04T17:09:07Z</time>
      </trkpt>
      <trkpt lat="59.9883556" lon="17.7301392">
        <ele>36.6675</ele>
        <time>2014-04-04T17:09:08Z</time>
      </trkpt>
      <trkpt lat="59.9883809" lon="17.7301068">
        <ele>36.6675</ele>
        <time>2014-04-04T17:09:09Z</time>
      </trkpt>
      <trkpt lat="59.9884061" lon="17.7300742">
        <ele>36.6675</ele>
        <time>2014-04-04T17:09:10Z</time>
      </trkpt>
      <trkpt lat="59.9884302" lon="17.7300413">
        <ele>36.6675</ele>
        <time>2014-04-04T17:09:11Z</time>
      </trkpt>
      <trkpt lat="59.988455" lon="17.7300147">
        <ele>36.6675</ele>
        <time>2014-04-04T17:09:12Z</time>
      </trkpt>
      <trkpt lat="59.9884757" lon="17.7299778">
        <ele>36.6675</ele>
        <time>2014-04-04T17:09:13Z</time>
      </trkpt>
      <trkpt lat="59.9884975" lon="17.7299461">
        <ele>37.1481</ele>
        <time>2014-04-04T17:09:14Z</time>
      </trkpt>
      <trkpt lat="59.9885218" lon="17.7299219">
        <ele>37.1481</ele>
        <time>2014-04-04T17:09:15Z</time>
      </trkpt>
      <trkpt lat="59.988544" lon="17.7298934">
        <ele>36.6675</ele>
        <time>2014-04-04T17:09:16Z</time>
      </trkpt>
      <trkpt lat="59.988566" lon="17.729872">
        <ele>36.1868</ele>
        <time>2014-04-04T17:09:17Z</time>
      </trkpt>
      <trkpt lat="59.9885909" lon="17.729852">
        <ele>36.6675</ele>
        <time>2014-04-04T17:09:18Z</time>
      </trkpt>
      <trkpt lat="59.9886161" lon="17.7298306">
        <ele>36.1868</ele>
        <time>2014-04-04T17:09:19Z</time>
      </trkpt>
      <trkpt lat="59.9886384" lon="17.7298041">
        <ele>35.7061</ele>
        <time>2014-04-04T17:09:20Z</time>
      </trkpt>
      <trkpt lat="59.9886587" lon="17.7297758">
        <ele>35.7061</ele>
        <time>2014-04-04T17:09:21Z</time>
      </trkpt>
      <trkpt lat="59.9886819" lon="17.7297472">
        <ele>36.1868</ele>
        <time>2014-04-04T17:09:22Z</time>
      </trkpt>
      <trkpt lat="59.9887062" lon="17.72972">
        <ele>36.6675</ele>
        <time>2014-04-04T17:09:23Z</time>
      </trkpt>
      <trkpt lat="59.988734" lon="17.729697">
        <ele>37.1481</ele>
        <time>2014-04-04T17:09:24Z</time>
      </trkpt>
      <trkpt lat="59.9887628" lon="17.7296737">
        <ele>37.1481</ele>
        <time>2014-04-04T17:09:25Z</time>
      </trkpt>
      <trkpt lat="59.988789" lon="17.7296505">
        <ele>37.6287</ele>
        <time>2014-04-04T17:09:26Z</time>
      </trkpt>
      <trkpt lat="59.9888176" lon="17.729623">
        <ele>37.6287</ele>
        <time>2014-04-04T17:09:27Z</time>
      </trkpt>
      <trkpt lat="59.9888438" lon="17.7295986">
        <ele>37.6287</ele>
        <time>2014-04-04T17:09:28Z</time>
      </trkpt>
      <trkpt lat="59.9888668" lon="17.7295798">
        <ele>37.6287</ele>
        <time>2014-04-04T17:09:29Z</time>
      </trkpt>
      <trkpt lat="59.9888917" lon="17.7295644">
        <ele>37.1481</ele>
        <time>2014-04-04T17:09:30Z</time>
      </trkpt>
      <trkpt lat="59.9889155" lon="17.7295423">
        <ele>37.1481</ele>
        <time>2014-04-04T17:09:31Z</time>
      </trkpt>
      <trkpt lat="59.9889369" lon="17.7295143">
        <ele>37.1481</ele>
        <time>2014-04-04T17:09:32Z</time>
      </trkpt>
      <trkpt lat="59.9889592" lon="17.7294907">
        <ele>36.6675</ele>
        <time>2014-04-04T17:09:33Z</time>
      </trkpt>
      <trkpt lat="59.9889823" lon="17.7294604">
        <ele>36.6675</ele>
        <time>2014-04-04T17:09:34Z</time>
      </trkpt>
      <trkpt lat="59.9890035" lon="17.7294267">
        <ele>36.6675</ele>
        <time>2014-04-04T17:09:35Z</time>
      </trkpt>
      <trkpt lat="59.9890262" lon="17.7293914">
        <ele>36.6675</ele>
        <time>2014-04-04T17:09:36Z</time>
      </trkpt>
      <trkpt lat="59.9890507" lon="17.7293552">
        <ele>36.6675</ele>
        <time>2014-04-04T17:09:37Z</time>
      </trkpt>
      <trkpt lat="59.9890725" lon="17.729322">
        <ele>36.6675</ele>
        <time>2014-04-04T17:09:38Z</time>
      </trkpt>
      <trkpt lat="59.9890933" lon="17.7292935">
        <ele>36.1868</ele>
        <time>2014-04-04T17:09:39Z</time>
      </trkpt>
      <trkpt lat="59.9891155" lon="17.7292629">
        <ele>36.1868</ele>
        <time>2014-04-04T17:09:40Z</time>
      </trkpt>
      <trkpt lat="59.9891398" lon="17.7292283">
        <ele>35.7061</ele>
        <time>2014-04-04T17:09:41Z</time>
      </trkpt>
      <trkpt lat="59.9891625" lon="17.7291973">
        <ele>35.7061</ele>
        <time>2014-04-04T17:09:42Z</time>
      </trkpt>
      <trkpt lat="59.9891817" lon="17.7291641">
        <ele>35.2255</ele>
        <time>2014-04-04T17:09:43Z</time>
      </trkpt>
      <trkpt lat="59.9892018" lon="17.7291314">
        <ele>35.2255</ele>
        <time>2014-04-04T17:09:44Z</time>
      </trkpt>
      <trkpt lat="59.9892211" lon="17.7291053">
        <ele>35.2255</ele>
        <time>2014-04-04T17:09:45Z</time>
      </trkpt>
      <trkpt lat="59.9892388" lon="17.729078">
        <ele>34.7449</ele>
        <time>2014-04-04T17:09:46Z</time>
      </trkpt>
      <trkpt lat="59.9892605" lon="17.7290582">
        <ele>34.7449</ele>
        <time>2014-04-04T17:09:47Z</time>
      </trkpt>
      <trkpt lat="59.9892818" lon="17.7290307">
        <ele>34.7449</ele>
        <time>2014-04-04T17:09:48Z</time>
      </trkpt>
      <trkpt lat="59.9893052" lon="17.7289993">
        <ele>34.2642</ele>
        <time>2014-04-04T17:09:49Z</time>
      </trkpt>
      <trkpt lat="59.9893272" lon="17.7289692">
        <ele>34.2642</ele>
        <time>2014-04-04T17:09:50Z</time>
      </trkpt>
      <trkpt lat="59.9893489" lon="17.7289371">
        <ele>34.2642</ele>
        <time>2014-04-04T17:09:51Z</time>
      </trkpt>
      <trkpt lat="59.989372" lon="17.7289062">
        <ele>34.2642</ele>
        <time>2014-04-04T17:09:52Z</time>
      </trkpt>
      <trkpt lat="59.9893967" lon="17.7288776">
        <ele>34.2642</ele>
        <time>2014-04-04T17:09:53Z</time>
      </trkpt>
      <trkpt lat="59.989418" lon="17.7288438">
        <ele>34.2642</ele>
        <time>2014-04-04T17:09:54Z</time>
      </trkpt>
      <trkpt lat="59.9894356" lon="17.728804">
        <ele>34.2642</ele>
        <time>2014-04-04T17:09:55Z</time>
      </trkpt>
      <trkpt lat="59.9894504" lon="17.7287594">
        <ele>33.7834</ele>
        <time>2014-04-04T17:09:56Z</time>
      </trkpt>
      <trkpt lat="59.9894651" lon="17.7287204">
        <ele>33.7834</ele>
        <time>2014-04-04T17:09:57Z</time>
      </trkpt>
      <trkpt lat="59.9894784" lon="17.7286766">
        <ele>33.7834</ele>
        <time>2014-04-04T17:09:58Z</time>
      </trkpt>
      <trkpt lat="59.9894885" lon="17.7286268">
        <ele>33.3029</ele>
        <time>2014-04-04T17:09:59Z</time>
      </trkpt>
      <trkpt lat="59.9894994" lon="17.7285745">
        <ele>33.3029</ele>
        <time>2014-04-04T17:10:00Z</time>
      </trkpt>
      <trkpt lat="59.9895107" lon="17.728523">
        <ele>32.8223</ele>
        <time>2014-04-04T17:10:01Z</time>
      </trkpt>
      <trkpt lat="59.9895176" lon="17.7284676">
        <ele>32.3416</ele>
        <time>2014-04-04T17:10:02Z</time>
      </trkpt>
      <trkpt lat="59.9895214" lon="17.728406">
        <ele>32.3416</ele>
        <time>2014-04-04T17:10:03Z</time>
      </trkpt>
      <trkpt lat="59.989519" lon="17.7283405">
        <ele>32.3416</ele>
        <time>2014-04-04T17:10:04Z</time>
      </trkpt>
      <trkpt lat="59.9895132" lon="17.7282757">
        <ele>31.8607</ele>
        <time>2014-04-04T17:10:05Z</time>
      </trkpt>
      <trkpt lat="59.9895181" lon="17.7282197">
        <ele>31.3801</ele>
        <time>2014-04-04T17:10:06Z</time>
      </trkpt>
      <trkpt lat="59.9895225" lon="17.7281654">
        <ele>31.3801</ele>
        <time>2014-04-04T17:10:07Z</time>
      </trkpt>
      <trkpt lat="59.9895273" lon="17.7281134">
        <ele>31.3801</ele>
        <time>2014-04-04T17:10:08Z</time>
      </trkpt>
      <trkpt lat="59.989533" lon="17.7280539">
        <ele>30.8995</ele>
        <time>2014-04-04T17:10:09Z</time>
      </trkpt>
      <trkpt lat="59.9895356" lon="17.7279856">
        <ele>30.4188</ele>
        <time>2014-04-04T17:10:10Z</time>
      </trkpt>
      <trkpt lat="59.98954" lon="17.7279176">
        <ele>30.4188</ele>
        <time>2014-04-04T17:10:11Z</time>
      </trkpt>
      <trkpt lat="59.9895435" lon="17.7278487">
        <ele>30.4188</ele>
        <time>2014-04-04T17:10:12Z</time>
      </trkpt>
      <trkpt lat="59.989546" lon="17.7277869">
        <ele>30.4188</ele>
        <time>2014-04-04T17:10:13Z</time>
      </trkpt>
      <trkpt lat="59.9895423" lon="17.7277218">
        <ele>29.9381</ele>
        <time>2014-04-04T17:10:14Z</time>
      </trkpt>
      <trkpt lat="59.9895362" lon="17.7276556">
        <ele>29.9381</ele>
        <time>2014-04-04T17:10:15Z</time>
      </trkpt>
      <trkpt lat="59.989534" lon="17.727593">
        <ele>29.9381</ele>
        <time>2014-04-04T17:10:16Z</time>
      </trkpt>
      <trkpt lat="59.989536" lon="17.7275334">
        <ele>30.4188</ele>
        <time>2014-04-04T17:10:17Z</time>
      </trkpt>
      <trkpt lat="59.9895392" lon="17.7274732">
        <ele>29.9381</ele>
        <time>2014-04-04T17:10:18Z</time>
      </trkpt>
      <trkpt lat="59.9895432" lon="17.7274152">
        <ele>29.9381</ele>
        <time>2014-04-04T17:10:19Z</time>
      </trkpt>
      <trkpt lat="59.9895485" lon="17.7273601">
        <ele>29.4575</ele>
        <time>2014-04-04T17:10:20Z</time>
      </trkpt>
      <trkpt lat="59.9895553" lon="17.7273112">
        <ele>29.9381</ele>
        <time>2014-04-04T17:10:21Z</time>
      </trkpt>
      <trkpt lat="59.9895592" lon="17.7272527">
        <ele>30.4188</ele>
        <time>2014-04-04T17:10:22Z</time>
      </trkpt>
      <trkpt lat="59.9895644" lon="17.7271897">
        <ele>30.4188</ele>
        <time>2014-04-04T17:10:23Z</time>
      </trkpt>
      <trkpt lat="59.9895687" lon="17.7271329">
        <ele>30.4188</ele>
        <time>2014-04-04T17:10:24Z</time>
      </trkpt>
      <trkpt lat="59.9895734" lon="17.7270749">
        <ele>30.8995</ele>
        <time>2014-04-04T17:10:25Z</time>
      </trkpt>
      <trkpt lat="59.9895807" lon="17.7270164">
        <ele>31.3801</ele>
        <time>2014-04-04T17:10:26Z</time>
      </trkpt>
      <trkpt lat="59.9895899" lon="17.726959">
        <ele>31.3801</ele>
        <time>2014-04-04T17:10:27Z</time>
      </trkpt>
      <trkpt lat="59.9895965" lon="17.7269051">
        <ele>31.3801</ele>
        <time>2014-04-04T17:10:28Z</time>
      </trkpt>
      <trkpt lat="59.9896045" lon="17.7268556">
        <ele>31.8607</ele>
        <time>2014-04-04T17:10:29Z</time>
      </trkpt>
      <trkpt lat="59.9896107" lon="17.7267976">
        <ele>32.3416</ele>
        <time>2014-04-04T17:10:30Z</time>
      </trkpt>
      <trkpt lat="59.9896167" lon="17.7267455">
        <ele>32.3416</ele>
        <time>2014-04-04T17:10:31Z</time>
      </trkpt>
      <trkpt lat="59.9896227" lon="17.7266865">
        <ele>31.3801</ele>
        <time>2014-04-04T17:10:32Z</time>
      </trkpt>
      <trkpt lat="59.9896281" lon="17.7266211">
        <ele>31.3801</ele>
        <time>2014-04-04T17:10:33Z</time>
      </trkpt>
      <trkpt lat="59.9896279" lon="17.7265625">
        <ele>31.3801</ele>
        <time>2014-04-04T17:10:34Z</time>
      </trkpt>
      <trkpt lat="59.9896247" lon="17.7265095">
        <ele>30.8995</ele>
        <time>2014-04-04T17:10:35Z</time>
      </trkpt>
      <trkpt lat="59.9896079" lon="17.7264812">
        <ele>30.8995</ele>
        <time>2014-04-04T17:10:36Z</time>
      </trkpt>
      <trkpt lat="59.9895816" lon="17.7264745">
        <ele>30.4188</ele>
        <time>2014-04-04T17:10:37Z</time>
      </trkpt>
      <trkpt lat="59.9895538" lon="17.7264911">
        <ele>29.9381</ele>
        <time>2014-04-04T17:10:38Z</time>
      </trkpt>
      <trkpt lat="59.9895303" lon="17.7265155">
        <ele>29.9381</ele>
        <time>2014-04-04T17:10:39Z</time>
      </trkpt>
      <trkpt lat="59.9895056" lon="17.7265351">
        <ele>29.9381</ele>
        <time>2014-04-04T17:10:40Z</time>
      </trkpt>
      <trkpt lat="59.9894768" lon="17.7265487">
        <ele>29.4575</ele>
        <time>2014-04-04T17:10:41Z</time>
      </trkpt>
      <trkpt lat="59.9894418" lon="17.726548">
        <ele>28.4962</ele>
        <time>2014-04-04T17:10:42Z</time>
      </trkpt>
      <trkpt lat="59.9894076" lon="17.7265368">
        <ele>28.4962</ele>
        <time>2014-04-04T17:10:43Z</time>
      </trkpt>
      <trkpt lat="59.9893707" lon="17.7265288">
        <ele>28.0155</ele>
        <time>2014-04-04T17:10:44Z</time>
      </trkpt>
      <trkpt lat="59.9893331" lon="17.726521">
        <ele>27.5349</ele>
        <time>2014-04-04T17:10:45Z</time>
      </trkpt>
      <trkpt lat="59.9892987" lon="17.726518">
        <ele>26.5736</ele>
        <time>2014-04-04T17:10:46Z</time>
      </trkpt>
      <trkpt lat="59.9892653" lon="17.7265164">
        <ele>25.6123</ele>
        <time>2014-04-04T17:10:47Z</time>
      </trkpt>
      <trkpt lat="59.9892259" lon="17.7265166">
        <ele>24.651</ele>
        <time>2014-04-04T17:10:48Z</time>
      </trkpt>
      <trkpt lat="59.9891844" lon="17.7265097">
        <ele>24.1703</ele>
        <time>2014-04-04T17:10:49Z</time>
      </trkpt>
      <trkpt lat="59.989148" lon="17.7265061">
        <ele>24.1703</ele>
        <time>2014-04-04T17:10:50Z</time>
      </trkpt>
      <trkpt lat="59.9891123" lon="17.7265075">
        <ele>23.6896</ele>
        <time>2014-04-04T17:10:51Z</time>
      </trkpt>
      <trkpt lat="59.9890755" lon="17.7265087">
        <ele>23.209</ele>
        <time>2014-04-04T17:10:52Z</time>
      </trkpt>
      <trkpt lat="59.9890471" lon="17.726514">
        <ele>23.209</ele>
        <time>2014-04-04T17:10:53Z</time>
      </trkpt>
      <trkpt lat="59.989016" lon="17.7265189">
        <ele>23.209</ele>
        <time>2014-04-04T17:10:54Z</time>
      </trkpt>
      <trkpt lat="59.9889828" lon="17.7265201">
        <ele>22.7283</ele>
        <time>2014-04-04T17:10:55Z</time>
      </trkpt>
      <trkpt lat="59.9889542" lon="17.7265257">
        <ele>22.7283</ele>
        <time>2014-04-04T17:10:56Z</time>
      </trkpt>
      <trkpt lat="59.9889238" lon="17.7265299">
        <ele>22.2476</ele>
        <time>2014-04-04T17:10:57Z</time>
      </trkpt>
      <trkpt lat="59.9888943" lon="17.7265316">
        <ele>23.209</ele>
        <time>2014-04-04T17:10:58Z</time>
      </trkpt>
      <trkpt lat="59.9888658" lon="17.7265382">
        <ele>22.7283</ele>
        <time>2014-04-04T17:10:59Z</time>
      </trkpt>
      <trkpt lat="59.9888357" lon="17.7265419">
        <ele>23.209</ele>
        <time>2014-04-04T17:11:00Z</time>
      </trkpt>
      <trkpt lat="59.9888042" lon="17.7265465">
        <ele>23.209</ele>
        <time>2014-04-04T17:11:01Z</time>
      </trkpt>
      <trkpt lat="59.9887751" lon="17.7265534">
        <ele>23.209</ele>
        <time>2014-04-04T17:11:02Z</time>
      </trkpt>
      <trkpt lat="59.9887441" lon="17.7265604">
        <ele>23.6896</ele>
        <time>2014-04-04T17:11:03Z</time>
      </trkpt>
      <trkpt lat="59.9887135" lon="17.7265641">
        <ele>24.1703</ele>
        <time>2014-04-04T17:11:04Z</time>
      </trkpt>
      <trkpt lat="59.9886849" lon="17.7265663">
        <ele>24.651</ele>
        <time>2014-04-04T17:11:05Z</time>
      </trkpt>
      <trkpt lat="59.9886534" lon="17.7265632">
        <ele>24.651</ele>
        <time>2014-04-04T17:11:06Z</time>
      </trkpt>
      <trkpt lat="59.9886214" lon="17.726561">
        <ele>24.651</ele>
        <time>2014-04-04T17:11:07Z</time>
      </trkpt>
      <trkpt lat="59.9885916" lon="17.7265585">
        <ele>24.651</ele>
        <time>2014-04-04T17:11:08Z</time>
      </trkpt>
      <trkpt lat="59.9885598" lon="17.7265499">
        <ele>25.1317</ele>
        <time>2014-04-04T17:11:09Z</time>
      </trkpt>
      <trkpt lat="59.9885286" lon="17.7265434">
        <ele>25.1317</ele>
        <time>2014-04-04T17:11:10Z</time>
      </trkpt>
      <trkpt lat="59.9884985" lon="17.7265445">
        <ele>24.651</ele>
        <time>2014-04-04T17:11:11Z</time>
      </trkpt>
      <trkpt lat="59.9884673" lon="17.7265444">
        <ele>25.1317</ele>
        <time>2014-04-04T17:11:12Z</time>
      </trkpt>
      <trkpt lat="59.9884358" lon="17.7265357">
        <ele>25.1317</ele>
        <time>2014-04-04T17:11:13Z</time>
      </trkpt>
      <trkpt lat="59.9884084" lon="17.7265258">
        <ele>26.0929</ele>
        <time>2014-04-04T17:11:14Z</time>
      </trkpt>
      <trkpt lat="59.9883799" lon="17.7265199">
        <ele>25.6123</ele>
        <time>2014-04-04T17:11:15Z</time>
      </trkpt>
      <trkpt lat="59.988353" lon="17.7265144">
        <ele>25.6123</ele>
        <time>2014-04-04T17:11:16Z</time>
      </trkpt>
      <trkpt lat="59.988325" lon="17.7265144">
        <ele>25.6123</ele>
        <time>2014-04-04T17:11:17Z</time>
      </trkpt>
      <trkpt lat="59.9882965" lon="17.7265149">
        <ele>25.6123</ele>
        <time>2014-04-04T17:11:18Z</time>
      </trkpt>
      <trkpt lat="59.9882705" lon="17.7265181">
        <ele>25.1317</ele>
        <time>2014-04-04T17:11:19Z</time>
      </trkpt>
      <trkpt lat="59.9882442" lon="17.7265202">
        <ele>25.6123</ele>
        <time>2014-04-04T17:11:20Z</time>
      </trkpt>
      <trkpt lat="59.9882176" lon="17.7265189">
        <ele>25.6123</ele>
        <time>2014-04-04T17:11:21Z</time>
      </trkpt>
      <trkpt lat="59.9881923" lon="17.7265211">
        <ele>25.6123</ele>
        <time>2014-04-04T17:11:22Z</time>
      </trkpt>
      <trkpt lat="59.9881633" lon="17.7265194">
        <ele>25.1317</ele>
        <time>2014-04-04T17:11:23Z</time>
      </trkpt>
      <trkpt lat="59.9881344" lon="17.7265123">
        <ele>25.1317</ele>
        <time>2014-04-04T17:11:24Z</time>
      </trkpt>
      <trkpt lat="59.9881044" lon="17.7265077">
        <ele>25.1317</ele>
        <time>2014-04-04T17:11:25Z</time>
      </trkpt>
      <trkpt lat="59.9880727" lon="17.7265015">
        <ele>25.1317</ele>
        <time>2014-04-04T17:11:26Z</time>
      </trkpt>
      <trkpt lat="59.9880449" lon="17.726507">
        <ele>25.1317</ele>
        <time>2014-04-04T17:11:27Z</time>
      </trkpt>
      <trkpt lat="59.9880161" lon="17.7265154">
        <ele>25.1317</ele>
        <time>2014-04-04T17:11:28Z</time>
      </trkpt>
      <trkpt lat="59.9879811" lon="17.7265118">
        <ele>24.651</ele>
        <time>2014-04-04T17:11:29Z</time>
      </trkpt>
      <trkpt lat="59.9879524" lon="17.7265087">
        <ele>24.651</ele>
        <time>2014-04-04T17:11:30Z</time>
      </trkpt>
      <trkpt lat="59.987926" lon="17.7265148">
        <ele>24.651</ele>
        <time>2014-04-04T17:11:31Z</time>
      </trkpt>
      <trkpt lat="59.9878971" lon="17.7265139">
        <ele>24.651</ele>
        <time>2014-04-04T17:11:32Z</time>
      </trkpt>
      <trkpt lat="59.9878672" lon="17.7265132">
        <ele>24.651</ele>
        <time>2014-04-04T17:11:33Z</time>
      </trkpt>
      <trkpt lat="59.987836" lon="17.7265194">
        <ele>23.6896</ele>
        <time>2014-04-04T17:11:34Z</time>
      </trkpt>
      <trkpt lat="59.9878045" lon="17.7265243">
        <ele>23.6896</ele>
        <time>2014-04-04T17:11:35Z</time>
      </trkpt>
      <trkpt lat="59.9877769" lon="17.7265279">
        <ele>24.1703</ele>
        <time>2014-04-04T17:11:36Z</time>
      </trkpt>
      <trkpt lat="59.9877499" lon="17.7265289">
        <ele>23.6896</ele>
        <time>2014-04-04T17:11:37Z</time>
      </trkpt>
      <trkpt lat="59.9877223" lon="17.7265268">
        <ele>24.1703</ele>
        <time>2014-04-04T17:11:38Z</time>
      </trkpt>
      <trkpt lat="59.9876942" lon="17.7265253">
        <ele>24.1703</ele>
        <time>2014-04-04T17:11:39Z</time>
      </trkpt>
      <trkpt lat="59.9876651" lon="17.7265217">
        <ele>23.6896</ele>
        <time>2014-04-04T17:11:40Z</time>
      </trkpt>
      <trkpt lat="59.9876355" lon="17.7265113">
        <ele>23.6896</ele>
        <time>2014-04-04T17:11:41Z</time>
      </trkpt>
      <trkpt lat="59.9876077" lon="17.7264999">
        <ele>23.6896</ele>
        <time>2014-04-04T17:11:42Z</time>
      </trkpt>
      <trkpt lat="59.9875804" lon="17.7264942">
        <ele>24.1703</ele>
        <time>2014-04-04T17:11:43Z</time>
      </trkpt>
      <trkpt lat="59.987549" lon="17.7264914">
        <ele>24.1703</ele>
        <time>2014-04-04T17:11:44Z</time>
      </trkpt>
      <trkpt lat="59.9875195" lon="17.7264868">
        <ele>24.1703</ele>
        <time>2014-04-04T17:11:45Z</time>
      </trkpt>
      <trkpt lat="59.9874895" lon="17.7264885">
        <ele>24.1703</ele>
        <time>2014-04-04T17:11:46Z</time>
      </trkpt>
      <trkpt lat="59.9874594" lon="17.726489">
        <ele>23.6896</ele>
        <time>2014-04-04T17:11:47Z</time>
      </trkpt>
      <trkpt lat="59.9874319" lon="17.726491">
        <ele>24.1703</ele>
        <time>2014-04-04T17:11:48Z</time>
      </trkpt>
      <trkpt lat="59.9874024" lon="17.7264969">
        <ele>23.6896</ele>
        <time>2014-04-04T17:11:49Z</time>
      </trkpt>
      <trkpt lat="59.9873719" lon="17.7264983">
        <ele>24.1703</ele>
        <time>2014-04-04T17:11:50Z</time>
      </trkpt>
      <trkpt lat="59.9873434" lon="17.7265049">
        <ele>24.1703</ele>
        <time>2014-04-04T17:11:51Z</time>
      </trkpt>
      <trkpt lat="59.9873171" lon="17.7265142">
        <ele>25.1317</ele>
        <time>2014-04-04T17:11:52Z</time>
      </trkpt>
      <trkpt lat="59.9872829" lon="17.7265165">
        <ele>24.651</ele>
        <time>2014-04-04T17:11:53Z</time>
      </trkpt>
      <trkpt lat="59.9872527" lon="17.726516">
        <ele>25.6123</ele>
        <time>2014-04-04T17:11:54Z</time>
      </trkpt>
      <trkpt lat="59.9872246" lon="17.72652">
        <ele>26.0929</ele>
        <time>2014-04-04T17:11:55Z</time>
      </trkpt>
      <trkpt lat="59.9871967" lon="17.7265088">
        <ele>26.5736</ele>
        <time>2014-04-04T17:11:56Z</time>
      </trkpt>
      <trkpt lat="59.9871696" lon="17.7264961">
        <ele>25.6123</ele>
        <time>2014-04-04T17:11:57Z</time>
      </trkpt>
      <trkpt lat="59.9871446" lon="17.7264921">
        <ele>26.0929</ele>
        <time>2014-04-04T17:11:58Z</time>
      </trkpt>
      <trkpt lat="59.9871135" lon="17.7264928">
        <ele>26.0929</ele>
        <time>2014-04-04T17:11:59Z</time>
      </trkpt>
      <trkpt lat="59.9870857" lon="17.7264948">
        <ele>25.6123</ele>
        <time>2014-04-04T17:12:00Z</time>
      </trkpt>
      <trkpt lat="59.9870591" lon="17.7264931">
        <ele>25.6123</ele>
        <time>2014-04-04T17:12:01Z</time>
      </trkpt>
      <trkpt lat="59.9870315" lon="17.726489">
        <ele>25.6123</ele>
        <time>2014-04-04T17:12:02Z</time>
      </trkpt>
      <trkpt lat="59.9870057" lon="17.7264868">
        <ele>26.0929</ele>
        <time>2014-04-04T17:12:03Z</time>
      </trkpt>
      <trkpt lat="59.9869767" lon="17.7264807">
        <ele>25.6123</ele>
        <time>2014-04-04T17:12:04Z</time>
      </trkpt>
      <trkpt lat="59.9869466" lon="17.7264788">
        <ele>25.1317</ele>
        <time>2014-04-04T17:12:05Z</time>
      </trkpt>
      <trkpt lat="59.9869177" lon="17.7264828">
        <ele>24.651</ele>
        <time>2014-04-04T17:12:06Z</time>
      </trkpt>
      <trkpt lat="59.9868886" lon="17.7264805">
        <ele>24.651</ele>
        <time>2014-04-04T17:12:07Z</time>
      </trkpt>
      <trkpt lat="59.9868609" lon="17.7264731">
        <ele>24.651</ele>
        <time>2014-04-04T17:12:08Z</time>
      </trkpt>
      <trkpt lat="59.9868347" lon="17.7264674">
        <ele>24.1703</ele>
        <time>2014-04-04T17:12:09Z</time>
      </trkpt>
      <trkpt lat="59.9868046" lon="17.7264674">
        <ele>24.1703</ele>
        <time>2014-04-04T17:12:10Z</time>
      </trkpt>
      <trkpt lat="59.9867762" lon="17.7264707">
        <ele>23.6896</ele>
        <time>2014-04-04T17:12:11Z</time>
      </trkpt>
      <trkpt lat="59.9867523" lon="17.7264707">
        <ele>23.6896</ele>
        <time>2014-04-04T17:12:12Z</time>
      </trkpt>
      <trkpt lat="59.9867219" lon="17.7264696">
        <ele>22.7283</ele>
        <time>2014-04-04T17:12:13Z</time>
      </trkpt>
      <trkpt lat="59.9866923" lon="17.7264627">
        <ele>22.7283</ele>
        <time>2014-04-04T17:12:14Z</time>
      </trkpt>
      <trkpt lat="59.9866618" lon="17.7264551">
        <ele>22.2476</ele>
        <time>2014-04-04T17:12:15Z</time>
      </trkpt>
      <trkpt lat="59.9866326" lon="17.7264502">
        <ele>22.2476</ele>
        <time>2014-04-04T17:12:16Z</time>
      </trkpt>
      <trkpt lat="59.986604" lon="17.7264482">
        <ele>21.767</ele>
        <time>2014-04-04T17:12:17Z</time>
      </trkpt>
      <trkpt lat="59.9865768" lon="17.7264453">
        <ele>21.2864</ele>
        <time>2014-04-04T17:12:18Z</time>
      </trkpt>
      <trkpt lat="59.9865493" lon="17.7264507">
        <ele>21.2864</ele>
        <time>2014-04-04T17:12:19Z</time>
      </trkpt>
      <trkpt lat="59.9865192" lon="17.7264529">
        <ele>21.2864</ele>
        <time>2014-04-04T17:12:20Z</time>
      </trkpt>
      <trkpt lat="59.9864923" lon="17.7264521">
        <ele>20.8057</ele>
        <time>2014-04-04T17:12:21Z</time>
      </trkpt>
      <trkpt lat="59.9864672" lon="17.7264582">
        <ele>21.2864</ele>
        <time>2014-04-04T17:12:22Z</time>
      </trkpt>
      <trkpt lat="59.9864403" lon="17.7264626">
        <ele>21.2864</ele>
        <time>2014-04-04T17:12:23Z</time>
      </trkpt>
      <trkpt lat="59.9864146" lon="17.7264647">
        <ele>21.2864</ele>
        <time>2014-04-04T17:12:24Z</time>
      </trkpt>
      <trkpt lat="59.986389" lon="17.7264682">
        <ele>21.2864</ele>
        <time>2014-04-04T17:12:25Z</time>
      </trkpt>
      <trkpt lat="59.9863619" lon="17.7264703">
        <ele>21.2864</ele>
        <time>2014-04-04T17:12:26Z</time>
      </trkpt>
      <trkpt lat="59.986337" lon="17.726473">
        <ele>21.2864</ele>
        <time>2014-04-04T17:12:27Z</time>
      </trkpt>
      <trkpt lat="59.9863089" lon="17.7264767">
        <ele>21.767</ele>
        <time>2014-04-04T17:12:28Z</time>
      </trkpt>
      <trkpt lat="59.98628" lon="17.7264776">
        <ele>21.767</ele>
        <time>2014-04-04T17:12:29Z</time>
      </trkpt>
      <trkpt lat="59.9862536" lon="17.7264782">
        <ele>21.767</ele>
        <time>2014-04-04T17:12:30Z</time>
      </trkpt>
      <trkpt lat="59.986226" lon="17.7264751">
        <ele>21.767</ele>
        <time>2014-04-04T17:12:31Z</time>
      </trkpt>
      <trkpt lat="59.9861986" lon="17.7264767">
        <ele>21.767</ele>
        <time>2014-04-04T17:12:32Z</time>
      </trkpt>
      <trkpt lat="59.986173" lon="17.7264834">
        <ele>22.7283</ele>
        <time>2014-04-04T17:12:33Z</time>
      </trkpt>
      <trkpt lat="59.9861477" lon="17.7264879">
        <ele>22.7283</ele>
        <time>2014-04-04T17:12:34Z</time>
      </trkpt>
      <trkpt lat="59.9861205" lon="17.726488">
        <ele>23.209</ele>
        <time>2014-04-04T17:12:35Z</time>
      </trkpt>
      <trkpt lat="59.986094" lon="17.726487">
        <ele>23.209</ele>
        <time>2014-04-04T17:12:36Z</time>
      </trkpt>
      <trkpt lat="59.986069" lon="17.7264921">
        <ele>23.209</ele>
        <time>2014-04-04T17:12:37Z</time>
      </trkpt>
      <trkpt lat="59.9860421" lon="17.7264957">
        <ele>23.6896</ele>
        <time>2014-04-04T17:12:38Z</time>
      </trkpt>
      <trkpt lat="59.9860165" lon="17.7265008">
        <ele>24.1703</ele>
        <time>2014-04-04T17:12:39Z</time>
      </trkpt>
      <trkpt lat="59.9859909" lon="17.7265056">
        <ele>24.651</ele>
        <time>2014-04-04T17:12:40Z</time>
      </trkpt>
      <trkpt lat="59.9859642" lon="17.7265077">
        <ele>24.651</ele>
        <time>2014-04-04T17:12:41Z</time>
      </trkpt>
      <trkpt lat="59.9859385" lon="17.7265122">
        <ele>25.1317</ele>
        <time>2014-04-04T17:12:42Z</time>
      </trkpt>
      <trkpt lat="59.9859127" lon="17.7265161">
        <ele>25.6123</ele>
        <time>2014-04-04T17:12:43Z</time>
      </trkpt>
      <trkpt lat="59.9858852" lon="17.726518">
        <ele>26.0929</ele>
        <time>2014-04-04T17:12:44Z</time>
      </trkpt>
      <trkpt lat="59.9858577" lon="17.72652">
        <ele>26.0929</ele>
        <time>2014-04-04T17:12:45Z</time>
      </trkpt>
      <trkpt lat="59.9858272" lon="17.7265165">
        <ele>26.5736</ele>
        <time>2014-04-04T17:12:46Z</time>
      </trkpt>
      <trkpt lat="59.9857971" lon="17.7265092">
        <ele>26.5736</ele>
        <time>2014-04-04T17:12:47Z</time>
      </trkpt>
      <trkpt lat="59.9857691" lon="17.7265034">
        <ele>26.5736</ele>
        <time>2014-04-04T17:12:48Z</time>
      </trkpt>
      <trkpt lat="59.9857395" lon="17.7265007">
        <ele>26.0929</ele>
        <time>2014-04-04T17:12:49Z</time>
      </trkpt>
      <trkpt lat="59.9857111" lon="17.7265024">
        <ele>26.5736</ele>
        <time>2014-04-04T17:12:50Z</time>
      </trkpt>
      <trkpt lat="59.9856832" lon="17.7265052">
        <ele>26.5736</ele>
        <time>2014-04-04T17:12:51Z</time>
      </trkpt>
      <trkpt lat="59.9856541" lon="17.7265075">
        <ele>26.5736</ele>
        <time>2014-04-04T17:12:52Z</time>
      </trkpt>
      <trkpt lat="59.9856288" lon="17.7265071">
        <ele>27.0543</ele>
        <time>2014-04-04T17:12:53Z</time>
      </trkpt>
      <trkpt lat="59.9856021" lon="17.7265014">
        <ele>27.0543</ele>
        <time>2014-04-04T17:12:54Z</time>
      </trkpt>
      <trkpt lat="59.9855764" lon="17.7264961">
        <ele>27.0543</ele>
        <time>2014-04-04T17:12:55Z</time>
      </trkpt>
      <trkpt lat="59.9855521" lon="17.7264945">
        <ele>27.0543</ele>
        <time>2014-04-04T17:12:56Z</time>
      </trkpt>
      <trkpt lat="59.9855226" lon="17.7264889">
        <ele>26.5736</ele>
        <time>2014-04-04T17:12:57Z</time>
      </trkpt>
      <trkpt lat="59.9854962" lon="17.7264845">
        <ele>27.0543</ele>
        <time>2014-04-04T17:12:58Z</time>
      </trkpt>
      <trkpt lat="59.9854691" lon="17.7264863">
        <ele>26.5736</ele>
        <time>2014-04-04T17:12:59Z</time>
      </trkpt>
      <trkpt lat="59.9854401" lon="17.7264832">
        <ele>26.5736</ele>
        <time>2014-04-04T17:13:00Z</time>
      </trkpt>
      <trkpt lat="59.9854165" lon="17.7264819">
        <ele>26.5736</ele>
        <time>2014-04-04T17:13:01Z</time>
      </trkpt>
      <trkpt lat="59.9853892" lon="17.7264894">
        <ele>26.0929</ele>
        <time>2014-04-04T17:13:02Z</time>
      </trkpt>
      <trkpt lat="59.9853599" lon="17.7264885">
        <ele>25.6123</ele>
        <time>2014-04-04T17:13:03Z</time>
      </trkpt>
      <trkpt lat="59.9853328" lon="17.7264839">
        <ele>25.6123</ele>
        <time>2014-04-04T17:13:04Z</time>
      </trkpt>
      <trkpt lat="59.985301" lon="17.7264838">
        <ele>24.651</ele>
        <time>2014-04-04T17:13:05Z</time>
      </trkpt>
      <trkpt lat="59.9852723" lon="17.7264858">
        <ele>24.1703</ele>
        <time>2014-04-04T17:13:06Z</time>
      </trkpt>
      <trkpt lat="59.985246" lon="17.7264881">
        <ele>24.1703</ele>
        <time>2014-04-04T17:13:07Z</time>
      </trkpt>
      <trkpt lat="59.9852164" lon="17.7264854">
        <ele>24.1703</ele>
        <time>2014-04-04T17:13:08Z</time>
      </trkpt>
      <trkpt lat="59.9851894" lon="17.7264845">
        <ele>23.6896</ele>
        <time>2014-04-04T17:13:09Z</time>
      </trkpt>
      <trkpt lat="59.9851598" lon="17.7264937">
        <ele>23.209</ele>
        <time>2014-04-04T17:13:10Z</time>
      </trkpt>
      <trkpt lat="59.9851315" lon="17.7265003">
        <ele>23.209</ele>
        <time>2014-04-04T17:13:11Z</time>
      </trkpt>
      <trkpt lat="59.9851029" lon="17.7265014">
        <ele>22.7283</ele>
        <time>2014-04-04T17:13:12Z</time>
      </trkpt>
      <trkpt lat="59.9850725" lon="17.726501">
        <ele>22.7283</ele>
        <time>2014-04-04T17:13:13Z</time>
      </trkpt>
      <trkpt lat="59.985045" lon="17.7265025">
        <ele>22.7283</ele>
        <time>2014-04-04T17:13:14Z</time>
      </trkpt>
      <trkpt lat="59.985015" lon="17.7265081">
        <ele>22.2476</ele>
        <time>2014-04-04T17:13:15Z</time>
      </trkpt>
      <trkpt lat="59.9849873" lon="17.7265086">
        <ele>22.2476</ele>
        <time>2014-04-04T17:13:16Z</time>
      </trkpt>
      <trkpt lat="59.9849619" lon="17.7265051">
        <ele>22.7283</ele>
        <time>2014-04-04T17:13:17Z</time>
      </trkpt>
      <trkpt lat="59.9849367" lon="17.726503">
        <ele>23.209</ele>
        <time>2014-04-04T17:13:18Z</time>
      </trkpt>
      <trkpt lat="59.9849107" lon="17.7265087">
        <ele>22.7283</ele>
        <time>2014-04-04T17:13:19Z</time>
      </trkpt>
      <trkpt lat="59.9848797" lon="17.7265095">
        <ele>22.7283</ele>
        <time>2014-04-04T17:13:20Z</time>
      </trkpt>
      <trkpt lat="59.9848512" lon="17.7265054">
        <ele>23.209</ele>
        <time>2014-04-04T17:13:21Z</time>
      </trkpt>
      <trkpt lat="59.9848248" lon="17.7265045">
        <ele>22.7283</ele>
        <time>2014-04-04T17:13:22Z</time>
      </trkpt>
      <trkpt lat="59.9847959" lon="17.7265014">
        <ele>22.7283</ele>
        <time>2014-04-04T17:13:23Z</time>
      </trkpt>
      <trkpt lat="59.9847693" lon="17.7265009">
        <ele>22.2476</ele>
        <time>2014-04-04T17:13:24Z</time>
      </trkpt>
      <trkpt lat="59.9847386" lon="17.7264981">
        <ele>21.767</ele>
        <time>2014-04-04T17:13:25Z</time>
      </trkpt>
      <trkpt lat="59.9847088" lon="17.7264938">
        <ele>22.2476</ele>
        <time>2014-04-04T17:13:26Z</time>
      </trkpt>
      <trkpt lat="59.9846808" lon="17.7264985">
        <ele>22.7283</ele>
        <time>2014-04-04T17:13:27Z</time>
      </trkpt>
      <trkpt lat="59.9846554" lon="17.7265031">
        <ele>23.209</ele>
        <time>2014-04-04T17:13:28Z</time>
      </trkpt>
      <trkpt lat="59.9846288" lon="17.7265077">
        <ele>23.209</ele>
        <time>2014-04-04T17:13:29Z</time>
      </trkpt>
      <trkpt lat="59.9846025" lon="17.7265106">
        <ele>23.209</ele>
        <time>2014-04-04T17:13:30Z</time>
      </trkpt>
      <trkpt lat="59.9845762" lon="17.726509">
        <ele>23.209</ele>
        <time>2014-04-04T17:13:31Z</time>
      </trkpt>
      <trkpt lat="59.9845516" lon="17.7265036">
        <ele>23.6896</ele>
        <time>2014-04-04T17:13:32Z</time>
      </trkpt>
      <trkpt lat="59.9845264" lon="17.7264978">
        <ele>24.1703</ele>
        <time>2014-04-04T17:13:33Z</time>
      </trkpt>
      <trkpt lat="59.9844989" lon="17.7264971">
        <ele>24.1703</ele>
        <time>2014-04-04T17:13:34Z</time>
      </trkpt>
      <trkpt lat="59.9844722" lon="17.7264972">
        <ele>24.1703</ele>
        <time>2014-04-04T17:13:35Z</time>
      </trkpt>
      <trkpt lat="59.9844446" lon="17.7264979">
        <ele>24.1703</ele>
        <time>2014-04-04T17:13:36Z</time>
      </trkpt>
      <trkpt lat="59.9844171" lon="17.7264993">
        <ele>24.651</ele>
        <time>2014-04-04T17:13:37Z</time>
      </trkpt>
      <trkpt lat="59.9843902" lon="17.7264945">
        <ele>24.651</ele>
        <time>2014-04-04T17:13:38Z</time>
      </trkpt>
      <trkpt lat="59.9843617" lon="17.7264875">
        <ele>24.651</ele>
        <time>2014-04-04T17:13:39Z</time>
      </trkpt>
      <trkpt lat="59.9843337" lon="17.7264854">
        <ele>24.651</ele>
        <time>2014-04-04T17:13:40Z</time>
      </trkpt>
      <trkpt lat="59.9843059" lon="17.7264862">
        <ele>24.651</ele>
        <time>2014-04-04T17:13:41Z</time>
      </trkpt>
      <trkpt lat="59.9842793" lon="17.7264904">
        <ele>24.651</ele>
        <time>2014-04-04T17:13:42Z</time>
      </trkpt>
      <trkpt lat="59.9842546" lon="17.7264958">
        <ele>24.651</ele>
        <time>2014-04-04T17:13:43Z</time>
      </trkpt>
      <trkpt lat="59.9842261" lon="17.726504">
        <ele>24.651</ele>
        <time>2014-04-04T17:13:44Z</time>
      </trkpt>
      <trkpt lat="59.9841981" lon="17.7265154">
        <ele>24.651</ele>
        <time>2014-04-04T17:13:45Z</time>
      </trkpt>
      <trkpt lat="59.9841699" lon="17.7265246">
        <ele>24.1703</ele>
        <time>2014-04-04T17:13:46Z</time>
      </trkpt>
      <trkpt lat="59.9841431" lon="17.7265252">
        <ele>24.1703</ele>
        <time>2014-04-04T17:13:47Z</time>
      </trkpt>
      <trkpt lat="59.9841183" lon="17.7265274">
        <ele>24.1703</ele>
        <time>2014-04-04T17:13:48Z</time>
      </trkpt>
      <trkpt lat="59.9840908" lon="17.7265268">
        <ele>24.1703</ele>
        <time>2014-04-04T17:13:49Z</time>
      </trkpt>
      <trkpt lat="59.984065" lon="17.7265195">
        <ele>23.6896</ele>
        <time>2014-04-04T17:13:50Z</time>
      </trkpt>
      <trkpt lat="59.9840409" lon="17.7265165">
        <ele>23.6896</ele>
        <time>2014-04-04T17:13:51Z</time>
      </trkpt>
      <trkpt lat="59.9840131" lon="17.726515">
        <ele>23.6896</ele>
        <time>2014-04-04T17:13:52Z</time>
      </trkpt>
      <trkpt lat="59.9839851" lon="17.7265183">
        <ele>23.6896</ele>
        <time>2014-04-04T17:13:53Z</time>
      </trkpt>
      <trkpt lat="59.9839604" lon="17.7265165">
        <ele>23.6896</ele>
        <time>2014-04-04T17:13:54Z</time>
      </trkpt>
      <trkpt lat="59.9839312" lon="17.7265124">
        <ele>24.1703</ele>
        <time>2014-04-04T17:13:55Z</time>
      </trkpt>
      <trkpt lat="59.9838998" lon="17.7265113">
        <ele>23.6896</ele>
        <time>2014-04-04T17:13:56Z</time>
      </trkpt>
      <trkpt lat="59.9838712" lon="17.7265049">
        <ele>24.1703</ele>
        <time>2014-04-04T17:13:57Z</time>
      </trkpt>
      <trkpt lat="59.9838435" lon="17.7264978">
        <ele>24.1703</ele>
        <time>2014-04-04T17:13:58Z</time>
      </trkpt>
      <trkpt lat="59.9838181" lon="17.7264916">
        <ele>24.1703</ele>
        <time>2014-04-04T17:13:59Z</time>
      </trkpt>
      <trkpt lat="59.9837933" lon="17.7264898">
        <ele>24.651</ele>
        <time>2014-04-04T17:14:00Z</time>
      </trkpt>
      <trkpt lat="59.9837668" lon="17.7264948">
        <ele>24.651</ele>
        <time>2014-04-04T17:14:01Z</time>
      </trkpt>
      <trkpt lat="59.9837405" lon="17.7265003">
        <ele>24.651</ele>
        <time>2014-04-04T17:14:02Z</time>
      </trkpt>
      <trkpt lat="59.9837106" lon="17.7264978">
        <ele>25.1317</ele>
        <time>2014-04-04T17:14:03Z</time>
      </trkpt>
      <trkpt lat="59.9836806" lon="17.7264971">
        <ele>25.1317</ele>
        <time>2014-04-04T17:14:04Z</time>
      </trkpt>
      <trkpt lat="59.9836505" lon="17.7264993">
        <ele>24.651</ele>
        <time>2014-04-04T17:14:05Z</time>
      </trkpt>
      <trkpt lat="59.9836225" lon="17.7264979">
        <ele>24.651</ele>
        <time>2014-04-04T17:14:06Z</time>
      </trkpt>
      <trkpt lat="59.983595" lon="17.7264978">
        <ele>23.6896</ele>
        <time>2014-04-04T17:14:07Z</time>
      </trkpt>
      <trkpt lat="59.983567" lon="17.7264976">
        <ele>23.6896</ele>
        <time>2014-04-04T17:14:08Z</time>
      </trkpt>
      <trkpt lat="59.9835377" lon="17.7265047">
        <ele>23.6896</ele>
        <time>2014-04-04T17:14:09Z</time>
      </trkpt>
      <trkpt lat="59.983511" lon="17.7265057">
        <ele>23.209</ele>
        <time>2014-04-04T17:14:10Z</time>
      </trkpt>
      <trkpt lat="59.9834822" lon="17.7264994">
        <ele>23.209</ele>
        <time>2014-04-04T17:14:11Z</time>
      </trkpt>
      <trkpt lat="59.983455" lon="17.7264955">
        <ele>22.7283</ele>
        <time>2014-04-04T17:14:12Z</time>
      </trkpt>
      <trkpt lat="59.9834253" lon="17.7264994">
        <ele>22.2476</ele>
        <time>2014-04-04T17:14:13Z</time>
      </trkpt>
      <trkpt lat="59.9833929" lon="17.7264972">
        <ele>21.767</ele>
        <time>2014-04-04T17:14:14Z</time>
      </trkpt>
      <trkpt lat="59.9833629" lon="17.7264937">
        <ele>21.767</ele>
        <time>2014-04-04T17:14:15Z</time>
      </trkpt>
      <trkpt lat="59.9833344" lon="17.7264951">
        <ele>21.767</ele>
        <time>2014-04-04T17:14:16Z</time>
      </trkpt>
      <trkpt lat="59.9833024" lon="17.7264963">
        <ele>21.767</ele>
        <time>2014-04-04T17:14:17Z</time>
      </trkpt>
      <trkpt lat="59.9832716" lon="17.7264956">
        <ele>21.2864</ele>
        <time>2014-04-04T17:14:18Z</time>
      </trkpt>
      <trkpt lat="59.9832413" lon="17.7264909">
        <ele>21.2864</ele>
        <time>2014-04-04T17:14:19Z</time>
      </trkpt>
      <trkpt lat="59.9832102" lon="17.7264931">
        <ele>21.2864</ele>
        <time>2014-04-04T17:14:20Z</time>
      </trkpt>
      <trkpt lat="59.983181" lon="17.7264994">
        <ele>21.2864</ele>
        <time>2014-04-04T17:14:21Z</time>
      </trkpt>
      <trkpt lat="59.9831506" lon="17.726503">
        <ele>21.2864</ele>
        <time>2014-04-04T17:14:22Z</time>
      </trkpt>
      <trkpt lat="59.9831237" lon="17.7264974">
        <ele>21.2864</ele>
        <time>2014-04-04T17:14:23Z</time>
      </trkpt>
      <trkpt lat="59.983095" lon="17.7264955">
        <ele>21.767</ele>
        <time>2014-04-04T17:14:24Z</time>
      </trkpt>
      <trkpt lat="59.9830663" lon="17.7264925">
        <ele>21.767</ele>
        <time>2014-04-04T17:14:25Z</time>
      </trkpt>
      <trkpt lat="59.9830382" lon="17.7264894">
        <ele>22.2476</ele>
        <time>2014-04-04T17:14:26Z</time>
      </trkpt>
      <trkpt lat="59.9830091" lon="17.7264891">
        <ele>22.7283</ele>
        <time>2014-04-04T17:14:27Z</time>
      </trkpt>
      <trkpt lat="59.9829771" lon="17.7264938">
        <ele>22.2476</ele>
        <time>2014-04-04T17:14:28Z</time>
      </trkpt>
      <trkpt lat="59.9829496" lon="17.7265003">
        <ele>22.7283</ele>
        <time>2014-04-04T17:14:29Z</time>
      </trkpt>
      <trkpt lat="59.9829222" lon="17.7265047">
        <ele>22.7283</ele>
        <time>2014-04-04T17:14:30Z</time>
      </trkpt>
      <trkpt lat="59.9828947" lon="17.7265056">
        <ele>22.7283</ele>
        <time>2014-04-04T17:14:31Z</time>
      </trkpt>
      <trkpt lat="59.9828647" lon="17.7265059">
        <ele>22.7283</ele>
        <time>2014-04-04T17:14:32Z</time>
      </trkpt>
      <trkpt lat="59.982832" lon="17.726507">
        <ele>22.2476</ele>
        <time>2014-04-04T17:14:33Z</time>
      </trkpt>
      <trkpt lat="59.9828016" lon="17.7265119">
        <ele>21.767</ele>
        <time>2014-04-04T17:14:34Z</time>
      </trkpt>
      <trkpt lat="59.9827726" lon="17.7265163">
        <ele>21.767</ele>
        <time>2014-04-04T17:14:35Z</time>
      </trkpt>
      <trkpt lat="59.9827425" lon="17.7265139">
        <ele>22.2476</ele>
        <time>2014-04-04T17:14:36Z</time>
      </trkpt>
      <trkpt lat="59.9827112" lon="17.7265148">
        <ele>22.2476</ele>
        <time>2014-04-04T17:14:37Z</time>
      </trkpt>
      <trkpt lat="59.9826826" lon="17.7265223">
        <ele>22.2476</ele>
        <time>2014-04-04T17:14:38Z</time>
      </trkpt>
      <trkpt lat="59.9826543" lon="17.7265352">
        <ele>21.767</ele>
        <time>2014-04-04T17:14:39Z</time>
      </trkpt>
      <trkpt lat="59.9826256" lon="17.7265517">
        <ele>21.767</ele>
        <time>2014-04-04T17:14:40Z</time>
      </trkpt>
      <trkpt lat="59.9826015" lon="17.7265713">
        <ele>21.767</ele>
        <time>2014-04-04T17:14:41Z</time>
      </trkpt>
      <trkpt lat="59.9825765" lon="17.7266035">
        <ele>21.767</ele>
        <time>2014-04-04T17:14:42Z</time>
      </trkpt>
      <trkpt lat="59.9825516" lon="17.7266378">
        <ele>21.2864</ele>
        <time>2014-04-04T17:14:43Z</time>
      </trkpt>
      <trkpt lat="59.9825275" lon="17.7266724">
        <ele>21.2864</ele>
        <time>2014-04-04T17:14:44Z</time>
      </trkpt>
      <trkpt lat="59.9825005" lon="17.7267015">
        <ele>20.8057</ele>
        <time>2014-04-04T17:14:45Z</time>
      </trkpt>
      <trkpt lat="59.9824709" lon="17.7267274">
        <ele>20.325</ele>
        <time>2014-04-04T17:14:46Z</time>
      </trkpt>
      <trkpt lat="59.9824405" lon="17.7267559">
        <ele>19.8444</ele>
        <time>2014-04-04T17:14:47Z</time>
      </trkpt>
      <trkpt lat="59.982414" lon="17.7267838">
        <ele>20.325</ele>
        <time>2014-04-04T17:14:48Z</time>
      </trkpt>
      <trkpt lat="59.9823913" lon="17.7268133">
        <ele>20.325</ele>
        <time>2014-04-04T17:14:49Z</time>
      </trkpt>
      <trkpt lat="59.98237" lon="17.7268413">
        <ele>20.325</ele>
        <time>2014-04-04T17:14:50Z</time>
      </trkpt>
      <trkpt lat="59.9823492" lon="17.7268682">
        <ele>20.325</ele>
        <time>2014-04-04T17:14:51Z</time>
      </trkpt>
      <trkpt lat="59.9823244" lon="17.7268988">
        <ele>20.325</ele>
        <time>2014-04-04T17:14:52Z</time>
      </trkpt>
      <trkpt lat="59.9822974" lon="17.7269298">
        <ele>20.325</ele>
        <time>2014-04-04T17:14:53Z</time>
      </trkpt>
      <trkpt lat="59.9822787" lon="17.7269613">
        <ele>20.325</ele>
        <time>2014-04-04T17:14:54Z</time>
      </trkpt>
      <trkpt lat="59.982259" lon="17.7270115">
        <ele>20.325</ele>
        <time>2014-04-04T17:14:55Z</time>
      </trkpt>
      <trkpt lat="59.982242" lon="17.7270633">
        <ele>21.2864</ele>
        <time>2014-04-04T17:14:56Z</time>
      </trkpt>
      <trkpt lat="59.9822284" lon="17.7271078">
        <ele>21.767</ele>
        <time>2014-04-04T17:14:57Z</time>
      </trkpt>
      <trkpt lat="59.982213" lon="17.7271531">
        <ele>22.2476</ele>
        <time>2014-04-04T17:14:58Z</time>
      </trkpt>
      <trkpt lat="59.9822002" lon="17.7271957">
        <ele>22.7283</ele>
        <time>2014-04-04T17:14:59Z</time>
      </trkpt>
      <trkpt lat="59.9821902" lon="17.7272391">
        <ele>23.6896</ele>
        <time>2014-04-04T17:15:00Z</time>
      </trkpt>
      <trkpt lat="59.9821766" lon="17.7272857">
        <ele>24.1703</ele>
        <time>2014-04-04T17:15:01Z</time>
      </trkpt>
      <trkpt lat="59.9821623" lon="17.7273318">
        <ele>24.651</ele>
        <time>2014-04-04T17:15:02Z</time>
      </trkpt>
      <trkpt lat="59.9821491" lon="17.7273816">
        <ele>25.1317</ele>
        <time>2014-04-04T17:15:03Z</time>
      </trkpt>
      <trkpt lat="59.9821351" lon="17.7274277">
        <ele>26.0929</ele>
        <time>2014-04-04T17:15:04Z</time>
      </trkpt>
      <trkpt lat="59.9821206" lon="17.7274695">
        <ele>27.5349</ele>
        <time>2014-04-04T17:15:05Z</time>
      </trkpt>
      <trkpt lat="59.9821022" lon="17.727513">
        <ele>28.0155</ele>
        <time>2014-04-04T17:15:06Z</time>
      </trkpt>
      <trkpt lat="59.9820839" lon="17.7275562">
        <ele>29.4575</ele>
        <time>2014-04-04T17:15:07Z</time>
      </trkpt>
      <trkpt lat="59.9820689" lon="17.7276001">
        <ele>30.4188</ele>
        <time>2014-04-04T17:15:08Z</time>
      </trkpt>
      <trkpt lat="59.9820512" lon="17.7276381">
        <ele>31.3801</ele>
        <time>2014-04-04T17:15:09Z</time>
      </trkpt>
      <trkpt lat="59.9820315" lon="17.7276759">
        <ele>31.8607</ele>
        <time>2014-04-04T17:15:10Z</time>
      </trkpt>
      <trkpt lat="59.9820139" lon="17.7277131">
        <ele>32.3416</ele>
        <time>2014-04-04T17:15:11Z</time>
      </trkpt>
      <trkpt lat="59.9819948" lon="17.7277536">
        <ele>33.3029</ele>
        <time>2014-04-04T17:15:12Z</time>
      </trkpt>
      <trkpt lat="59.9819745" lon="17.7277928">
        <ele>33.3029</ele>
        <time>2014-04-04T17:15:13Z</time>
      </trkpt>
      <trkpt lat="59.9819548" lon="17.7278281">
        <ele>33.3029</ele>
        <time>2014-04-04T17:15:14Z</time>
      </trkpt>
      <trkpt lat="59.9819363" lon="17.7278664">
        <ele>33.7834</ele>
        <time>2014-04-04T17:15:15Z</time>
      </trkpt>
      <trkpt lat="59.9819183" lon="17.7279033">
        <ele>34.7449</ele>
        <time>2014-04-04T17:15:16Z</time>
      </trkpt>
      <trkpt lat="59.9819006" lon="17.7279362">
        <ele>35.7061</ele>
        <time>2014-04-04T17:15:17Z</time>
      </trkpt>
      <trkpt lat="59.9818803" lon="17.7279758">
        <ele>36.1868</ele>
        <time>2014-04-04T17:15:18Z</time>
      </trkpt>
      <trkpt lat="59.9818582" lon="17.7280177">
        <ele>36.1868</ele>
        <time>2014-04-04T17:15:19Z</time>
      </trkpt>
      <trkpt lat="59.9818395" lon="17.7280499">
        <ele>36.6675</ele>
        <time>2014-04-04T17:15:20Z</time>
      </trkpt>
      <trkpt lat="59.9818202" lon="17.7280775">
        <ele>37.1481</ele>
        <time>2014-04-04T17:15:21Z</time>
      </trkpt>
      <trkpt lat="59.9817982" lon="17.7281073">
        <ele>37.1481</ele>
        <time>2014-04-04T17:15:22Z</time>
      </trkpt>
      <trkpt lat="59.9817747" lon="17.7281389">
        <ele>37.1481</ele>
        <time>2014-04-04T17:15:23Z</time>
      </trkpt>
      <trkpt lat="59.9817505" lon="17.7281648">
        <ele>36.6675</ele>
        <time>2014-04-04T17:15:24Z</time>
      </trkpt>
      <trkpt lat="59.9817253" lon="17.728184">
        <ele>36.6675</ele>
        <time>2014-04-04T17:15:25Z</time>
      </trkpt>
      <trkpt lat="59.9817043" lon="17.7281974">
        <ele>36.6675</ele>
        <time>2014-04-04T17:15:26Z</time>
      </trkpt>
      <trkpt lat="59.9816813" lon="17.7282114">
        <ele>36.1868</ele>
        <time>2014-04-04T17:15:27Z</time>
      </trkpt>
      <trkpt lat="59.9816539" lon="17.7282228">
        <ele>35.7061</ele>
        <time>2014-04-04T17:15:28Z</time>
      </trkpt>
      <trkpt lat="59.9816254" lon="17.7282373">
        <ele>34.7449</ele>
        <time>2014-04-04T17:15:29Z</time>
      </trkpt>
      <trkpt lat="59.9816007" lon="17.7282571">
        <ele>35.2255</ele>
        <time>2014-04-04T17:15:30Z</time>
      </trkpt>
      <trkpt lat="59.9815712" lon="17.7282845">
        <ele>35.7061</ele>
        <time>2014-04-04T17:15:31Z</time>
      </trkpt>
      <trkpt lat="59.9815438" lon="17.7283129">
        <ele>35.7061</ele>
        <time>2014-04-04T17:15:32Z</time>
      </trkpt>
      <trkpt lat="59.9815169" lon="17.7283326">
        <ele>34.7449</ele>
        <time>2014-04-04T17:15:33Z</time>
      </trkpt>
      <trkpt lat="59.9814888" lon="17.7283528">
        <ele>34.2642</ele>
        <time>2014-04-04T17:15:34Z</time>
      </trkpt>
      <trkpt lat="59.9814622" lon="17.7283766">
        <ele>33.7834</ele>
        <time>2014-04-04T17:15:35Z</time>
      </trkpt>
      <trkpt lat="59.9814355" lon="17.7284091">
        <ele>33.3029</ele>
        <time>2014-04-04T17:15:36Z</time>
      </trkpt>
      <trkpt lat="59.981409" lon="17.7284436">
        <ele>33.3029</ele>
        <time>2014-04-04T17:15:37Z</time>
      </trkpt>
      <trkpt lat="59.9813883" lon="17.7284756">
        <ele>33.7834</ele>
        <time>2014-04-04T17:15:38Z</time>
      </trkpt>
      <trkpt lat="59.9813644" lon="17.728517">
        <ele>33.3029</ele>
        <time>2014-04-04T17:15:39Z</time>
      </trkpt>
      <trkpt lat="59.9813427" lon="17.7285562">
        <ele>33.7834</ele>
        <time>2014-04-04T17:15:40Z</time>
      </trkpt>
      <trkpt lat="59.981322" lon="17.7285916">
        <ele>33.3029</ele>
        <time>2014-04-04T17:15:41Z</time>
      </trkpt>
      <trkpt lat="59.9813019" lon="17.7286211">
        <ele>34.2642</ele>
        <time>2014-04-04T17:15:42Z</time>
      </trkpt>
      <trkpt lat="59.981279" lon="17.7286513">
        <ele>33.7834</ele>
        <time>2014-04-04T17:15:43Z</time>
      </trkpt>
      <trkpt lat="59.9812604" lon="17.7286771">
        <ele>34.7449</ele>
        <time>2014-04-04T17:15:44Z</time>
      </trkpt>
      <trkpt lat="59.9812381" lon="17.7287045">
        <ele>35.2255</ele>
        <time>2014-04-04T17:15:45Z</time>
      </trkpt>
      <trkpt lat="59.9812149" lon="17.7287313">
        <ele>35.7061</ele>
        <time>2014-04-04T17:15:46Z</time>
      </trkpt>
      <trkpt lat="59.9811919" lon="17.7287624">
        <ele>35.7061</ele>
        <time>2014-04-04T17:15:47Z</time>
      </trkpt>
      <trkpt lat="59.9811671" lon="17.7287943">
        <ele>35.2255</ele>
        <time>2014-04-04T17:15:48Z</time>
      </trkpt>
      <trkpt lat="59.9811464" lon="17.728819">
        <ele>35.2255</ele>
        <time>2014-04-04T17:15:49Z</time>
      </trkpt>
      <trkpt lat="59.9811248" lon="17.7288383">
        <ele>35.2255</ele>
        <time>2014-04-04T17:15:50Z</time>
      </trkpt>
      <trkpt lat="59.9811023" lon="17.7288578">
        <ele>35.2255</ele>
        <time>2014-04-04T17:15:51Z</time>
      </trkpt>
      <trkpt lat="59.981082" lon="17.728868">
        <ele>34.7449</ele>
        <time>2014-04-04T17:15:52Z</time>
      </trkpt>
      <trkpt lat="59.9810584" lon="17.728882">
        <ele>34.7449</ele>
        <time>2014-04-04T17:15:53Z</time>
      </trkpt>
      <trkpt lat="59.9810305" lon="17.7289003">
        <ele>33.7834</ele>
        <time>2014-04-04T17:15:54Z</time>
      </trkpt>
      <trkpt lat="59.981009" lon="17.7288992">
        <ele>32.8223</ele>
        <time>2014-04-04T17:15:55Z</time>
      </trkpt>
      <trkpt lat="59.9809832" lon="17.7288968">
        <ele>32.3416</ele>
        <time>2014-04-04T17:15:56Z</time>
      </trkpt>
      <trkpt lat="59.9809501" lon="17.7288973">
        <ele>31.8607</ele>
        <time>2014-04-04T17:15:57Z</time>
      </trkpt>
      <trkpt lat="59.9809157" lon="17.7288967">
        <ele>30.8995</ele>
        <time>2014-04-04T17:15:58Z</time>
      </trkpt>
      <trkpt lat="59.9808847" lon="17.7288926">
        <ele>30.8995</ele>
        <time>2014-04-04T17:15:59Z</time>
      </trkpt>
      <trkpt lat="59.9808554" lon="17.7288796">
        <ele>30.8995</ele>
        <time>2014-04-04T17:16:00Z</time>
      </trkpt>
      <trkpt lat="59.9808263" lon="17.7288559">
        <ele>30.8995</ele>
        <time>2014-04-04T17:16:01Z</time>
      </trkpt>
      <trkpt lat="59.9807972" lon="17.7288216">
        <ele>30.4188</ele>
        <time>2014-04-04T17:16:02Z</time>
      </trkpt>
      <trkpt lat="59.9807696" lon="17.7287889">
        <ele>29.9381</ele>
        <time>2014-04-04T17:16:03Z</time>
      </trkpt>
      <trkpt lat="59.9807425" lon="17.7287615">
        <ele>28.9769</ele>
        <time>2014-04-04T17:16:04Z</time>
      </trkpt>
      <trkpt lat="59.9807108" lon="17.728733">
        <ele>28.9769</ele>
        <time>2014-04-04T17:16:05Z</time>
      </trkpt>
      <trkpt lat="59.9806839" lon="17.7286973">
        <ele>28.0155</ele>
        <time>2014-04-04T17:16:06Z</time>
      </trkpt>
      <trkpt lat="59.9806615" lon="17.7286591">
        <ele>28.0155</ele>
        <time>2014-04-04T17:16:07Z</time>
      </trkpt>
      <trkpt lat="59.9806349" lon="17.728627">
        <ele>28.0155</ele>
        <time>2014-04-04T17:16:08Z</time>
      </trkpt>
      <trkpt lat="59.9806076" lon="17.7285962">
        <ele>28.4962</ele>
        <time>2014-04-04T17:16:09Z</time>
      </trkpt>
      <trkpt lat="59.9805848" lon="17.7285555">
        <ele>28.4962</ele>
        <time>2014-04-04T17:16:10Z</time>
      </trkpt>
      <trkpt lat="59.9805627" lon="17.7285102">
        <ele>28.0155</ele>
        <time>2014-04-04T17:16:11Z</time>
      </trkpt>
      <trkpt lat="59.9805419" lon="17.728464">
        <ele>28.4962</ele>
        <time>2014-04-04T17:16:12Z</time>
      </trkpt>
      <trkpt lat="59.9805181" lon="17.7284239">
        <ele>27.5349</ele>
        <time>2014-04-04T17:16:13Z</time>
      </trkpt>
      <trkpt lat="59.9804935" lon="17.7283961">
        <ele>27.5349</ele>
        <time>2014-04-04T17:16:14Z</time>
      </trkpt>
      <trkpt lat="59.9804606" lon="17.7283658">
        <ele>27.5349</ele>
        <time>2014-04-04T17:16:15Z</time>
      </trkpt>
      <trkpt lat="59.9804277" lon="17.7283243">
        <ele>28.0155</ele>
        <time>2014-04-04T17:16:16Z</time>
      </trkpt>
      <trkpt lat="59.9803959" lon="17.728286">
        <ele>28.0155</ele>
        <time>2014-04-04T17:16:17Z</time>
      </trkpt>
      <trkpt lat="59.9803627" lon="17.7282543">
        <ele>28.4962</ele>
        <time>2014-04-04T17:16:18Z</time>
      </trkpt>
      <trkpt lat="59.9803295" lon="17.7282174">
        <ele>28.9769</ele>
        <time>2014-04-04T17:16:19Z</time>
      </trkpt>
      <trkpt lat="59.9803067" lon="17.7281768">
        <ele>28.4962</ele>
        <time>2014-04-04T17:16:20Z</time>
      </trkpt>
      <trkpt lat="59.9802988" lon="17.7281276">
        <ele>28.4962</ele>
        <time>2014-04-04T17:16:21Z</time>
      </trkpt>
      <trkpt lat="59.9802912" lon="17.7280711">
        <ele>28.4962</ele>
        <time>2014-04-04T17:16:22Z</time>
      </trkpt>
      <trkpt lat="59.9802772" lon="17.7280217">
        <ele>28.4962</ele>
        <time>2014-04-04T17:16:23Z</time>
      </trkpt>
      <trkpt lat="59.9802612" lon="17.7279761">
        <ele>28.9769</ele>
        <time>2014-04-04T17:16:24Z</time>
      </trkpt>
      <trkpt lat="59.9802394" lon="17.7279322">
        <ele>28.9769</ele>
        <time>2014-04-04T17:16:25Z</time>
      </trkpt>
      <trkpt lat="59.9802207" lon="17.7278912">
        <ele>29.4575</ele>
        <time>2014-04-04T17:16:26Z</time>
      </trkpt>
      <trkpt lat="59.9801994" lon="17.7278491">
        <ele>29.4575</ele>
        <time>2014-04-04T17:16:27Z</time>
      </trkpt>
      <trkpt lat="59.980177" lon="17.7278051">
        <ele>28.9769</ele>
        <time>2014-04-04T17:16:28Z</time>
      </trkpt>
      <trkpt lat="59.9801586" lon="17.7277631">
        <ele>28.9769</ele>
        <time>2014-04-04T17:16:29Z</time>
      </trkpt>
      <trkpt lat="59.9801379" lon="17.7277162">
        <ele>28.9769</ele>
        <time>2014-04-04T17:16:30Z</time>
      </trkpt>
      <trkpt lat="59.9801187" lon="17.7276663">
        <ele>28.9769</ele>
        <time>2014-04-04T17:16:31Z</time>
      </trkpt>
      <trkpt lat="59.9801025" lon="17.7276223">
        <ele>28.4962</ele>
        <time>2014-04-04T17:16:32Z</time>
      </trkpt>
      <trkpt lat="59.980085" lon="17.7275762">
        <ele>28.4962</ele>
        <time>2014-04-04T17:16:33Z</time>
      </trkpt>
      <trkpt lat="59.9800677" lon="17.7275303">
        <ele>28.0155</ele>
        <time>2014-04-04T17:16:34Z</time>
      </trkpt>
      <trkpt lat="59.9800498" lon="17.7274887">
        <ele>27.5349</ele>
        <time>2014-04-04T17:16:35Z</time>
      </trkpt>
      <trkpt lat="59.9800265" lon="17.7274499">
        <ele>27.0543</ele>
        <time>2014-04-04T17:16:36Z</time>
      </trkpt>
      <trkpt lat="59.9800021" lon="17.7274209">
        <ele>26.5736</ele>
        <time>2014-04-04T17:16:37Z</time>
      </trkpt>
      <trkpt lat="59.9799798" lon="17.7273865">
        <ele>26.0929</ele>
        <time>2014-04-04T17:16:38Z</time>
      </trkpt>
      <trkpt lat="59.9799602" lon="17.727341">
        <ele>26.0929</ele>
        <time>2014-04-04T17:16:39Z</time>
      </trkpt>
      <trkpt lat="59.9799382" lon="17.7272997">
        <ele>26.0929</ele>
        <time>2014-04-04T17:16:40Z</time>
      </trkpt>
      <trkpt lat="59.9799118" lon="17.7272638">
        <ele>25.6123</ele>
        <time>2014-04-04T17:16:41Z</time>
      </trkpt>
      <trkpt lat="59.9798855" lon="17.7272319">
        <ele>25.6123</ele>
        <time>2014-04-04T17:16:42Z</time>
      </trkpt>
      <trkpt lat="59.9798632" lon="17.7271977">
        <ele>25.1317</ele>
        <time>2014-04-04T17:16:43Z</time>
      </trkpt>
      <trkpt lat="59.9798486" lon="17.727154">
        <ele>24.651</ele>
        <time>2014-04-04T17:16:44Z</time>
      </trkpt>
      <trkpt lat="59.9798274" lon="17.7271194">
        <ele>24.1703</ele>
        <time>2014-04-04T17:16:45Z</time>
      </trkpt>
      <trkpt lat="59.9798026" lon="17.7270902">
        <ele>23.6896</ele>
        <time>2014-04-04T17:16:46Z</time>
      </trkpt>
      <trkpt lat="59.9797815" lon="17.7270511">
        <ele>23.6896</ele>
        <time>2014-04-04T17:16:47Z</time>
      </trkpt>
      <trkpt lat="59.9797633" lon="17.7270132">
        <ele>23.6896</ele>
        <time>2014-04-04T17:16:48Z</time>
      </trkpt>
      <trkpt lat="59.9797458" lon="17.7269731">
        <ele>23.209</ele>
        <time>2014-04-04T17:16:49Z</time>
      </trkpt>
      <trkpt lat="59.979729" lon="17.7269263">
        <ele>22.7283</ele>
        <time>2014-04-04T17:16:50Z</time>
      </trkpt>
      <trkpt lat="59.9797124" lon="17.7268862">
        <ele>22.7283</ele>
        <time>2014-04-04T17:16:51Z</time>
      </trkpt>
      <trkpt lat="59.9796913" lon="17.7268479">
        <ele>22.2476</ele>
        <time>2014-04-04T17:16:52Z</time>
      </trkpt>
      <trkpt lat="59.9796678" lon="17.7268065">
        <ele>21.767</ele>
        <time>2014-04-04T17:16:53Z</time>
      </trkpt>
      <trkpt lat="59.9796466" lon="17.7267693">
        <ele>21.767</ele>
        <time>2014-04-04T17:16:54Z</time>
      </trkpt>
      <trkpt lat="59.9796266" lon="17.7267256">
        <ele>21.767</ele>
        <time>2014-04-04T17:16:55Z</time>
      </trkpt>
      <trkpt lat="59.9796085" lon="17.7266801">
        <ele>21.2864</ele>
        <time>2014-04-04T17:16:56Z</time>
      </trkpt>
      <trkpt lat="59.9795894" lon="17.7266433">
        <ele>20.8057</ele>
        <time>2014-04-04T17:16:57Z</time>
      </trkpt>
      <trkpt lat="59.9795711" lon="17.7266017">
        <ele>20.325</ele>
        <time>2014-04-04T17:16:58Z</time>
      </trkpt>
      <trkpt lat="59.9795567" lon="17.7265563">
        <ele>20.325</ele>
        <time>2014-04-04T17:16:59Z</time>
      </trkpt>
      <trkpt lat="59.9795415" lon="17.7265108">
        <ele>20.325</ele>
        <time>2014-04-04T17:17:00Z</time>
      </trkpt>
      <trkpt lat="59.9795246" lon="17.726464">
        <ele>19.8444</ele>
        <time>2014-04-04T17:17:01Z</time>
      </trkpt>
      <trkpt lat="59.9795074" lon="17.7264305">
        <ele>19.8444</ele>
        <time>2014-04-04T17:17:02Z</time>
      </trkpt>
      <trkpt lat="59.9794868" lon="17.7264091">
        <ele>19.8444</ele>
        <time>2014-04-04T17:17:03Z</time>
      </trkpt>
      <trkpt lat="59.9794639" lon="17.7263824">
        <ele>19.8444</ele>
        <time>2014-04-04T17:17:04Z</time>
      </trkpt>
      <trkpt lat="59.9794404" lon="17.7263554">
        <ele>19.8444</ele>
        <time>2014-04-04T17:17:05Z</time>
      </trkpt>
      <trkpt lat="59.9794141" lon="17.7263375">
        <ele>19.8444</ele>
        <time>2014-04-04T17:17:06Z</time>
      </trkpt>
      <trkpt lat="59.9793808" lon="17.7263247">
        <ele>20.325</ele>
        <time>2014-04-04T17:17:07Z</time>
      </trkpt>
      <trkpt lat="59.9793461" lon="17.7263181">
        <ele>20.325</ele>
        <time>2014-04-04T17:17:08Z</time>
      </trkpt>
      <trkpt lat="59.9793166" lon="17.7263142">
        <ele>20.325</ele>
        <time>2014-04-04T17:17:09Z</time>
      </trkpt>
      <trkpt lat="59.9792894" lon="17.726306">
        <ele>19.8444</ele>
        <time>2014-04-04T17:17:10Z</time>
      </trkpt>
      <trkpt lat="59.979265" lon="17.7262942">
        <ele>20.325</ele>
        <time>2014-04-04T17:17:11Z</time>
      </trkpt>
      <trkpt lat="59.979233" lon="17.7262911">
        <ele>20.8057</ele>
        <time>2014-04-04T17:17:12Z</time>
      </trkpt>
      <trkpt lat="59.9792032" lon="17.7262823">
        <ele>21.2864</ele>
        <time>2014-04-04T17:17:13Z</time>
      </trkpt>
      <trkpt lat="59.9791794" lon="17.7262685">
        <ele>21.767</ele>
        <time>2014-04-04T17:17:14Z</time>
      </trkpt>
      <trkpt lat="59.9791495" lon="17.7262548">
        <ele>21.2864</ele>
        <time>2014-04-04T17:17:15Z</time>
      </trkpt>
      <trkpt lat="59.9791236" lon="17.7262329">
        <ele>21.2864</ele>
        <time>2014-04-04T17:17:16Z</time>
      </trkpt>
      <trkpt lat="59.979099" lon="17.7262078">
        <ele>20.8057</ele>
        <time>2014-04-04T17:17:17Z</time>
      </trkpt>
      <trkpt lat="59.9790766" lon="17.7261772">
        <ele>20.325</ele>
        <time>2014-04-04T17:17:18Z</time>
      </trkpt>
      <trkpt lat="59.9790557" lon="17.7261518">
        <ele>20.325</ele>
        <time>2014-04-04T17:17:19Z</time>
      </trkpt>
      <trkpt lat="59.9790298" lon="17.726129">
        <ele>20.325</ele>
        <time>2014-04-04T17:17:20Z</time>
      </trkpt>
      <trkpt lat="59.9790056" lon="17.7261017">
        <ele>19.8444</ele>
        <time>2014-04-04T17:17:21Z</time>
      </trkpt>
      <trkpt lat="59.9789861" lon="17.7260698">
        <ele>19.8444</ele>
        <time>2014-04-04T17:17:22Z</time>
      </trkpt>
      <trkpt lat="59.9789566" lon="17.7260421">
        <ele>19.8444</ele>
        <time>2014-04-04T17:17:23Z</time>
      </trkpt>
      <trkpt lat="59.9789277" lon="17.726014">
        <ele>19.8444</ele>
        <time>2014-04-04T17:17:24Z</time>
      </trkpt>
      <trkpt lat="59.9789063" lon="17.7259767">
        <ele>19.8444</ele>
        <time>2014-04-04T17:17:25Z</time>
      </trkpt>
      <trkpt lat="59.978892" lon="17.725929">
        <ele>19.8444</ele>
        <time>2014-04-04T17:17:26Z</time>
      </trkpt>
      <trkpt lat="59.9788805" lon="17.7258824">
        <ele>20.325</ele>
        <time>2014-04-04T17:17:27Z</time>
      </trkpt>
      <trkpt lat="59.9788573" lon="17.7258471">
        <ele>20.8057</ele>
        <time>2014-04-04T17:17:28Z</time>
      </trkpt>
      <trkpt lat="59.9788295" lon="17.7258135">
        <ele>21.2864</ele>
        <time>2014-04-04T17:17:29Z</time>
      </trkpt>
      <trkpt lat="59.9788046" lon="17.7257828">
        <ele>21.2864</ele>
        <time>2014-04-04T17:17:30Z</time>
      </trkpt>
      <trkpt lat="59.9787859" lon="17.7257431">
        <ele>21.2864</ele>
        <time>2014-04-04T17:17:31Z</time>
      </trkpt>
      <trkpt lat="59.9787625" lon="17.7257069">
        <ele>21.767</ele>
        <time>2014-04-04T17:17:32Z</time>
      </trkpt>
      <trkpt lat="59.9787354" lon="17.7256773">
        <ele>21.767</ele>
        <time>2014-04-04T17:17:33Z</time>
      </trkpt>
      <trkpt lat="59.9787072" lon="17.7256478">
        <ele>22.2476</ele>
        <time>2014-04-04T17:17:34Z</time>
      </trkpt>
      <trkpt lat="59.9786822" lon="17.7256302">
        <ele>22.2476</ele>
        <time>2014-04-04T17:17:35Z</time>
      </trkpt>
      <trkpt lat="59.9786543" lon="17.7256176">
        <ele>22.2476</ele>
        <time>2014-04-04T17:17:36Z</time>
      </trkpt>
      <trkpt lat="59.978632" lon="17.7255964">
        <ele>21.767</ele>
        <time>2014-04-04T17:17:37Z</time>
      </trkpt>
      <trkpt lat="59.9786109" lon="17.7255784">
        <ele>22.2476</ele>
        <time>2014-04-04T17:17:38Z</time>
      </trkpt>
      <trkpt lat="59.9785833" lon="17.7255617">
        <ele>22.2476</ele>
        <time>2014-04-04T17:17:39Z</time>
      </trkpt>
      <trkpt lat="59.9785574" lon="17.7255414">
        <ele>21.767</ele>
        <time>2014-04-04T17:17:40Z</time>
      </trkpt>
      <trkpt lat="59.9785222" lon="17.7255306">
        <ele>21.767</ele>
        <time>2014-04-04T17:17:41Z</time>
      </trkpt>
      <trkpt lat="59.9784902" lon="17.7255209">
        <ele>21.2864</ele>
        <time>2014-04-04T17:17:42Z</time>
      </trkpt>
      <trkpt lat="59.97847" lon="17.7255018">
        <ele>21.767</ele>
        <time>2014-04-04T17:17:43Z</time>
      </trkpt>
      <trkpt lat="59.978447" lon="17.7254844">
        <ele>21.767</ele>
        <time>2014-04-04T17:17:44Z</time>
      </trkpt>
      <trkpt lat="59.9784192" lon="17.7254722">
        <ele>21.2864</ele>
        <time>2014-04-04T17:17:45Z</time>
      </trkpt>
      <trkpt lat="59.9783906" lon="17.7254607">
        <ele>21.2864</ele>
        <time>2014-04-04T17:17:46Z</time>
      </trkpt>
      <trkpt lat="59.9783619" lon="17.7254416">
        <ele>21.2864</ele>
        <time>2014-04-04T17:17:47Z</time>
      </trkpt>
      <trkpt lat="59.978335" lon="17.725421">
        <ele>20.8057</ele>
        <time>2014-04-04T17:17:48Z</time>
      </trkpt>
      <trkpt lat="59.9783056" lon="17.7253965">
        <ele>20.325</ele>
        <time>2014-04-04T17:17:49Z</time>
      </trkpt>
      <trkpt lat="59.9782756" lon="17.7253711">
        <ele>19.8444</ele>
        <time>2014-04-04T17:17:50Z</time>
      </trkpt>
      <trkpt lat="59.9782482" lon="17.7253504">
        <ele>18.8831</ele>
        <time>2014-04-04T17:17:51Z</time>
      </trkpt>
      <trkpt lat="59.9782223" lon="17.725328">
        <ele>18.4023</ele>
        <time>2014-04-04T17:17:52Z</time>
      </trkpt>
      <trkpt lat="59.9781984" lon="17.725308">
        <ele>17.9218</ele>
        <time>2014-04-04T17:17:53Z</time>
      </trkpt>
      <trkpt lat="59.9781709" lon="17.7252878">
        <ele>17.9218</ele>
        <time>2014-04-04T17:17:54Z</time>
      </trkpt>
      <trkpt lat="59.9781392" lon="17.7252701">
        <ele>17.4412</ele>
        <time>2014-04-04T17:17:55Z</time>
      </trkpt>
      <trkpt lat="59.9781087" lon="17.7252559">
        <ele>16.9604</ele>
        <time>2014-04-04T17:17:56Z</time>
      </trkpt>
      <trkpt lat="59.9780709" lon="17.7252462">
        <ele>16.9604</ele>
        <time>2014-04-04T17:17:57Z</time>
      </trkpt>
      <trkpt lat="59.9780378" lon="17.7252335">
        <ele>16.9604</ele>
        <time>2014-04-04T17:17:58Z</time>
      </trkpt>
      <trkpt lat="59.9780093" lon="17.725222">
        <ele>16.9604</ele>
        <time>2014-04-04T17:17:59Z</time>
      </trkpt>
      <trkpt lat="59.9779777" lon="17.7252147">
        <ele>16.9604</ele>
        <time>2014-04-04T17:18:00Z</time>
      </trkpt>
      <trkpt lat="59.9779522" lon="17.7252044">
        <ele>16.4797</ele>
        <time>2014-04-04T17:18:01Z</time>
      </trkpt>
      <trkpt lat="59.9779213" lon="17.7251943">
        <ele>16.4797</ele>
        <time>2014-04-04T17:18:02Z</time>
      </trkpt>
      <trkpt lat="59.9778891" lon="17.7251853">
        <ele>15.999</ele>
        <time>2014-04-04T17:18:03Z</time>
      </trkpt>
      <trkpt lat="59.9778654" lon="17.7251694">
        <ele>15.5184</ele>
        <time>2014-04-04T17:18:04Z</time>
      </trkpt>
      <trkpt lat="59.9778401" lon="17.7251541">
        <ele>15.5184</ele>
        <time>2014-04-04T17:18:05Z</time>
      </trkpt>
      <trkpt lat="59.9778146" lon="17.7251459">
        <ele>15.5184</ele>
        <time>2014-04-04T17:18:06Z</time>
      </trkpt>
      <trkpt lat="59.9777881" lon="17.7251389">
        <ele>15.5184</ele>
        <time>2014-04-04T17:18:07Z</time>
      </trkpt>
      <trkpt lat="59.9777612" lon="17.7251339">
        <ele>15.5184</ele>
        <time>2014-04-04T17:18:08Z</time>
      </trkpt>
      <trkpt lat="59.97773" lon="17.7251329">
        <ele>15.999</ele>
        <time>2014-04-04T17:18:09Z</time>
      </trkpt>
      <trkpt lat="59.9776991" lon="17.7251251">
        <ele>15.999</ele>
        <time>2014-04-04T17:18:10Z</time>
      </trkpt>
      <trkpt lat="59.9776771" lon="17.7251109">
        <ele>16.4797</ele>
        <time>2014-04-04T17:18:11Z</time>
      </trkpt>
      <trkpt lat="59.977654" lon="17.7251042">
        <ele>16.9604</ele>
        <time>2014-04-04T17:18:12Z</time>
      </trkpt>
      <trkpt lat="59.9776296" lon="17.7250977">
        <ele>17.4412</ele>
        <time>2014-04-04T17:18:13Z</time>
      </trkpt>
      <trkpt lat="59.9776079" lon="17.7250899">
        <ele>17.9218</ele>
        <time>2014-04-04T17:18:14Z</time>
      </trkpt>
      <trkpt lat="59.9775851" lon="17.7250803">
        <ele>17.9218</ele>
        <time>2014-04-04T17:18:15Z</time>
      </trkpt>
      <trkpt lat="59.9775608" lon="17.7250682">
        <ele>18.4023</ele>
        <time>2014-04-04T17:18:16Z</time>
      </trkpt>
      <trkpt lat="59.9775359" lon="17.7250609">
        <ele>18.4023</ele>
        <time>2014-04-04T17:18:17Z</time>
      </trkpt>
      <trkpt lat="59.9775083" lon="17.7250561">
        <ele>18.4023</ele>
        <time>2014-04-04T17:18:18Z</time>
      </trkpt>
      <trkpt lat="59.9774831" lon="17.7250484">
        <ele>18.4023</ele>
        <time>2014-04-04T17:18:19Z</time>
      </trkpt>
      <trkpt lat="59.9774577" lon="17.7250415">
        <ele>18.8831</ele>
        <time>2014-04-04T17:18:20Z</time>
      </trkpt>
      <trkpt lat="59.9774329" lon="17.7250328">
        <ele>18.8831</ele>
        <time>2014-04-04T17:18:21Z</time>
      </trkpt>
      <trkpt lat="59.9774081" lon="17.7250251">
        <ele>18.8831</ele>
        <time>2014-04-04T17:18:22Z</time>
      </trkpt>
      <trkpt lat="59.9773814" lon="17.7250087">
        <ele>18.8831</ele>
        <time>2014-04-04T17:18:23Z</time>
      </trkpt>
      <trkpt lat="59.9773551" lon="17.7249969">
        <ele>18.4023</ele>
        <time>2014-04-04T17:18:24Z</time>
      </trkpt>
      <trkpt lat="59.9773278" lon="17.7249951">
        <ele>18.4023</ele>
        <time>2014-04-04T17:18:25Z</time>
      </trkpt>
      <trkpt lat="59.9772995" lon="17.7249878">
        <ele>18.8831</ele>
        <time>2014-04-04T17:18:26Z</time>
      </trkpt>
      <trkpt lat="59.9772746" lon="17.7249651">
        <ele>19.3638</ele>
        <time>2014-04-04T17:18:27Z</time>
      </trkpt>
      <trkpt lat="59.9772576" lon="17.7249394">
        <ele>19.8444</ele>
        <time>2014-04-04T17:18:28Z</time>
      </trkpt>
      <trkpt lat="59.9772391" lon="17.7249184">
        <ele>19.8444</ele>
        <time>2014-04-04T17:18:29Z</time>
      </trkpt>
      <trkpt lat="59.9772127" lon="17.7249074">
        <ele>19.3638</ele>
        <time>2014-04-04T17:18:30Z</time>
      </trkpt>
      <trkpt lat="59.9771868" lon="17.7249066">
        <ele>19.3638</ele>
        <time>2014-04-04T17:18:31Z</time>
      </trkpt>
      <trkpt lat="59.9771619" lon="17.724904">
        <ele>19.3638</ele>
        <time>2014-04-04T17:18:32Z</time>
      </trkpt>
      <trkpt lat="59.9771408" lon="17.7248941">
        <ele>19.3638</ele>
        <time>2014-04-04T17:18:33Z</time>
      </trkpt>
      <trkpt lat="59.9771218" lon="17.7248873">
        <ele>19.3638</ele>
        <time>2014-04-04T17:18:34Z</time>
      </trkpt>
      <trkpt lat="59.9770974" lon="17.7248892">
        <ele>19.3638</ele>
        <time>2014-04-04T17:18:35Z</time>
      </trkpt>
      <trkpt lat="59.9770729" lon="17.724893">
        <ele>18.8831</ele>
        <time>2014-04-04T17:18:36Z</time>
      </trkpt>
      <trkpt lat="59.9770519" lon="17.7249011">
        <ele>18.8831</ele>
        <time>2014-04-04T17:18:37Z</time>
      </trkpt>
      <trkpt lat="59.9770325" lon="17.7249099">
        <ele>18.8831</ele>
        <time>2014-04-04T17:18:38Z</time>
      </trkpt>
      <trkpt lat="59.9770122" lon="17.7249277">
        <ele>18.8831</ele>
        <time>2014-04-04T17:18:39Z</time>
      </trkpt>
      <trkpt lat="59.9769873" lon="17.7249568">
        <ele>19.3638</ele>
        <time>2014-04-04T17:18:40Z</time>
      </trkpt>
      <trkpt lat="59.9769618" lon="17.7249889">
        <ele>19.3638</ele>
        <time>2014-04-04T17:18:41Z</time>
      </trkpt>
      <trkpt lat="59.976938" lon="17.7250198">
        <ele>19.3638</ele>
        <time>2014-04-04T17:18:42Z</time>
      </trkpt>
      <trkpt lat="59.976912" lon="17.7250474">
        <ele>19.3638</ele>
        <time>2014-04-04T17:18:43Z</time>
      </trkpt>
      <trkpt lat="59.9768899" lon="17.725069">
        <ele>19.8444</ele>
        <time>2014-04-04T17:18:44Z</time>
      </trkpt>
      <trkpt lat="59.9768693" lon="17.7250933">
        <ele>19.8444</ele>
        <time>2014-04-04T17:18:45Z</time>
      </trkpt>
      <trkpt lat="59.9768475" lon="17.7251185">
        <ele>19.8444</ele>
        <time>2014-04-04T17:18:46Z</time>
      </trkpt>
      <trkpt lat="59.9768266" lon="17.7251447">
        <ele>19.8444</ele>
        <time>2014-04-04T17:18:47Z</time>
      </trkpt>
      <trkpt lat="59.976806" lon="17.725166">
        <ele>20.325</ele>
        <time>2014-04-04T17:18:48Z</time>
      </trkpt>
      <trkpt lat="59.9767863" lon="17.7251888">
        <ele>19.8444</ele>
        <time>2014-04-04T17:18:49Z</time>
      </trkpt>
      <trkpt lat="59.9767661" lon="17.7252173">
        <ele>20.325</ele>
        <time>2014-04-04T17:18:50Z</time>
      </trkpt>
      <trkpt lat="59.9767423" lon="17.7252449">
        <ele>20.325</ele>
        <time>2014-04-04T17:18:51Z</time>
      </trkpt>
      <trkpt lat="59.976719" lon="17.7252715">
        <ele>19.8444</ele>
        <time>2014-04-04T17:18:52Z</time>
      </trkpt>
      <trkpt lat="59.9766931" lon="17.7253047">
        <ele>19.8444</ele>
        <time>2014-04-04T17:18:53Z</time>
      </trkpt>
      <trkpt lat="59.9766682" lon="17.7253359">
        <ele>19.8444</ele>
        <time>2014-04-04T17:18:54Z</time>
      </trkpt>
      <trkpt lat="59.9766473" lon="17.7253639">
        <ele>19.8444</ele>
        <time>2014-04-04T17:18:55Z</time>
      </trkpt>
      <trkpt lat="59.9766219" lon="17.7254001">
        <ele>20.325</ele>
        <time>2014-04-04T17:18:56Z</time>
      </trkpt>
      <trkpt lat="59.9765972" lon="17.7254334">
        <ele>20.325</ele>
        <time>2014-04-04T17:18:57Z</time>
      </trkpt>
      <trkpt lat="59.9765714" lon="17.7254753">
        <ele>20.8057</ele>
        <time>2014-04-04T17:18:58Z</time>
      </trkpt>
      <trkpt lat="59.9765454" lon="17.7255136">
        <ele>21.2864</ele>
        <time>2014-04-04T17:18:59Z</time>
      </trkpt>
      <trkpt lat="59.9765216" lon="17.725542">
        <ele>20.8057</ele>
        <time>2014-04-04T17:19:00Z</time>
      </trkpt>
      <trkpt lat="59.9764964" lon="17.7255753">
        <ele>20.8057</ele>
        <time>2014-04-04T17:19:01Z</time>
      </trkpt>
      <trkpt lat="59.9764698" lon="17.7256144">
        <ele>20.8057</ele>
        <time>2014-04-04T17:19:02Z</time>
      </trkpt>
      <trkpt lat="59.9764456" lon="17.7256471">
        <ele>21.2864</ele>
        <time>2014-04-04T17:19:03Z</time>
      </trkpt>
      <trkpt lat="59.976424" lon="17.7256722">
        <ele>21.2864</ele>
        <time>2014-04-04T17:19:04Z</time>
      </trkpt>
      <trkpt lat="59.976404" lon="17.7256907">
        <ele>21.2864</ele>
        <time>2014-04-04T17:19:05Z</time>
      </trkpt>
      <trkpt lat="59.9763843" lon="17.7257076">
        <ele>20.8057</ele>
        <time>2014-04-04T17:19:06Z</time>
      </trkpt>
      <trkpt lat="59.9763594" lon="17.7257335">
        <ele>21.2864</ele>
        <time>2014-04-04T17:19:07Z</time>
      </trkpt>
      <trkpt lat="59.9763383" lon="17.7257538">
        <ele>20.8057</ele>
        <time>2014-04-04T17:19:08Z</time>
      </trkpt>
      <trkpt lat="59.9763161" lon="17.7257799">
        <ele>20.8057</ele>
        <time>2014-04-04T17:19:09Z</time>
      </trkpt>
      <trkpt lat="59.9762921" lon="17.7258123">
        <ele>21.2864</ele>
        <time>2014-04-04T17:19:10Z</time>
      </trkpt>
      <trkpt lat="59.9762702" lon="17.7258389">
        <ele>21.2864</ele>
        <time>2014-04-04T17:19:11Z</time>
      </trkpt>
      <trkpt lat="59.976245" lon="17.7258703">
        <ele>21.767</ele>
        <time>2014-04-04T17:19:12Z</time>
      </trkpt>
      <trkpt lat="59.976222" lon="17.7258949">
        <ele>21.2864</ele>
        <time>2014-04-04T17:19:13Z</time>
      </trkpt>
      <trkpt lat="59.9762008" lon="17.7259125">
        <ele>21.2864</ele>
        <time>2014-04-04T17:19:14Z</time>
      </trkpt>
      <trkpt lat="59.9761777" lon="17.7259322">
        <ele>21.2864</ele>
        <time>2014-04-04T17:19:15Z</time>
      </trkpt>
      <trkpt lat="59.9761553" lon="17.725957">
        <ele>21.2864</ele>
        <time>2014-04-04T17:19:16Z</time>
      </trkpt>
      <trkpt lat="59.9761343" lon="17.7259818">
        <ele>21.2864</ele>
        <time>2014-04-04T17:19:17Z</time>
      </trkpt>
      <trkpt lat="59.976111" lon="17.726017">
        <ele>21.2864</ele>
        <time>2014-04-04T17:19:18Z</time>
      </trkpt>
      <trkpt lat="59.976087" lon="17.726056">
        <ele>21.2864</ele>
        <time>2014-04-04T17:19:19Z</time>
      </trkpt>
      <trkpt lat="59.9760652" lon="17.7260768">
        <ele>21.767</ele>
        <time>2014-04-04T17:19:20Z</time>
      </trkpt>
      <trkpt lat="59.9760413" lon="17.726098">
        <ele>21.767</ele>
        <time>2014-04-04T17:19:21Z</time>
      </trkpt>
      <trkpt lat="59.9760156" lon="17.7261218">
        <ele>21.767</ele>
        <time>2014-04-04T17:19:22Z</time>
      </trkpt>
      <trkpt lat="59.975992" lon="17.7261477">
        <ele>21.767</ele>
        <time>2014-04-04T17:19:23Z</time>
      </trkpt>
      <trkpt lat="59.9759699" lon="17.7261782">
        <ele>21.767</ele>
        <time>2014-04-04T17:19:24Z</time>
      </trkpt>
      <trkpt lat="59.9759466" lon="17.7262037">
        <ele>21.767</ele>
        <time>2014-04-04T17:19:25Z</time>
      </trkpt>
      <trkpt lat="59.9759218" lon="17.726229">
        <ele>21.767</ele>
        <time>2014-04-04T17:19:26Z</time>
      </trkpt>
      <trkpt lat="59.9758979" lon="17.7262638">
        <ele>21.767</ele>
        <time>2014-04-04T17:19:27Z</time>
      </trkpt>
      <trkpt lat="59.9758718" lon="17.7263015">
        <ele>21.2864</ele>
        <time>2014-04-04T17:19:28Z</time>
      </trkpt>
      <trkpt lat="59.9758477" lon="17.7263232">
        <ele>21.767</ele>
        <time>2014-04-04T17:19:29Z</time>
      </trkpt>
      <trkpt lat="59.9758259" lon="17.7263417">
        <ele>22.2476</ele>
        <time>2014-04-04T17:19:30Z</time>
      </trkpt>
      <trkpt lat="59.9758011" lon="17.7263632">
        <ele>22.2476</ele>
        <time>2014-04-04T17:19:31Z</time>
      </trkpt>
      <trkpt lat="59.9757755" lon="17.7263854">
        <ele>22.2476</ele>
        <time>2014-04-04T17:19:32Z</time>
      </trkpt>
      <trkpt lat="59.9757513" lon="17.7264102">
        <ele>22.2476</ele>
        <time>2014-04-04T17:19:33Z</time>
      </trkpt>
      <trkpt lat="59.9757196" lon="17.7264404">
        <ele>21.767</ele>
        <time>2014-04-04T17:19:34Z</time>
      </trkpt>
      <trkpt lat="59.9756897" lon="17.7264718">
        <ele>21.767</ele>
        <time>2014-04-04T17:19:35Z</time>
      </trkpt>
      <trkpt lat="59.9756643" lon="17.7264955">
        <ele>21.2864</ele>
        <time>2014-04-04T17:19:36Z</time>
      </trkpt>
      <trkpt lat="59.97564" lon="17.7265163">
        <ele>21.2864</ele>
        <time>2014-04-04T17:19:37Z</time>
      </trkpt>
      <trkpt lat="59.9756171" lon="17.7265409">
        <ele>20.8057</ele>
        <time>2014-04-04T17:19:38Z</time>
      </trkpt>
      <trkpt lat="59.9755945" lon="17.7265652">
        <ele>20.325</ele>
        <time>2014-04-04T17:19:39Z</time>
      </trkpt>
      <trkpt lat="59.9755745" lon="17.7265917">
        <ele>20.325</ele>
        <time>2014-04-04T17:19:40Z</time>
      </trkpt>
      <trkpt lat="59.9755529" lon="17.7266155">
        <ele>20.325</ele>
        <time>2014-04-04T17:19:41Z</time>
      </trkpt>
      <trkpt lat="59.975526" lon="17.726635">
        <ele>19.8444</ele>
        <time>2014-04-04T17:19:42Z</time>
      </trkpt>
      <trkpt lat="59.9754971" lon="17.7266605">
        <ele>19.8444</ele>
        <time>2014-04-04T17:19:43Z</time>
      </trkpt>
      <trkpt lat="59.9754742" lon="17.7266889">
        <ele>19.3638</ele>
        <time>2014-04-04T17:19:44Z</time>
      </trkpt>
      <trkpt lat="59.9754514" lon="17.7267226">
        <ele>18.8831</ele>
        <time>2014-04-04T17:19:45Z</time>
      </trkpt>
      <trkpt lat="59.9754265" lon="17.7267522">
        <ele>18.8831</ele>
        <time>2014-04-04T17:19:46Z</time>
      </trkpt>
      <trkpt lat="59.9754006" lon="17.7267806">
        <ele>18.4023</ele>
        <time>2014-04-04T17:19:47Z</time>
      </trkpt>
      <trkpt lat="59.9753723" lon="17.7268108">
        <ele>17.9218</ele>
        <time>2014-04-04T17:19:48Z</time>
      </trkpt>
      <trkpt lat="59.9753456" lon="17.7268424">
        <ele>17.9218</ele>
        <time>2014-04-04T17:19:49Z</time>
      </trkpt>
      <trkpt lat="59.9753219" lon="17.7268729">
        <ele>17.9218</ele>
        <time>2014-04-04T17:19:50Z</time>
      </trkpt>
      <trkpt lat="59.9752976" lon="17.7268992">
        <ele>17.9218</ele>
        <time>2014-04-04T17:19:51Z</time>
      </trkpt>
      <trkpt lat="59.9752742" lon="17.7269235">
        <ele>17.4412</ele>
        <time>2014-04-04T17:19:52Z</time>
      </trkpt>
      <trkpt lat="59.9752485" lon="17.7269524">
        <ele>17.9218</ele>
        <time>2014-04-04T17:19:53Z</time>
      </trkpt>
      <trkpt lat="59.9752245" lon="17.726979">
        <ele>17.9218</ele>
        <time>2014-04-04T17:19:54Z</time>
      </trkpt>
      <trkpt lat="59.9752026" lon="17.7270019">
        <ele>17.9218</ele>
        <time>2014-04-04T17:19:55Z</time>
      </trkpt>
      <trkpt lat="59.9751772" lon="17.727023">
        <ele>18.4023</ele>
        <time>2014-04-04T17:19:56Z</time>
      </trkpt>
      <trkpt lat="59.9751529" lon="17.7270459">
        <ele>18.8831</ele>
        <time>2014-04-04T17:19:57Z</time>
      </trkpt>
      <trkpt lat="59.9751308" lon="17.7270702">
        <ele>19.3638</ele>
        <time>2014-04-04T17:19:58Z</time>
      </trkpt>
      <trkpt lat="59.9751038" lon="17.7270952">
        <ele>19.8444</ele>
        <time>2014-04-04T17:19:59Z</time>
      </trkpt>
      <trkpt lat="59.9750757" lon="17.727122">
        <ele>19.8444</ele>
        <time>2014-04-04T17:20:00Z</time>
      </trkpt>
      <trkpt lat="59.9750529" lon="17.7271437">
        <ele>19.8444</ele>
        <time>2014-04-04T17:20:01Z</time>
      </trkpt>
      <trkpt lat="59.9750304" lon="17.7271671">
        <ele>19.8444</ele>
        <time>2014-04-04T17:20:02Z</time>
      </trkpt>
      <trkpt lat="59.975008" lon="17.7271893">
        <ele>20.325</ele>
        <time>2014-04-04T17:20:03Z</time>
      </trkpt>
      <trkpt lat="59.9749795" lon="17.7272126">
        <ele>21.2864</ele>
        <time>2014-04-04T17:20:04Z</time>
      </trkpt>
      <trkpt lat="59.9749515" lon="17.7272345">
        <ele>21.767</ele>
        <time>2014-04-04T17:20:05Z</time>
      </trkpt>
      <trkpt lat="59.9749257" lon="17.7272609">
        <ele>22.2476</ele>
        <time>2014-04-04T17:20:06Z</time>
      </trkpt>
      <trkpt lat="59.9749026" lon="17.7272831">
        <ele>23.6896</ele>
        <time>2014-04-04T17:20:07Z</time>
      </trkpt>
      <trkpt lat="59.9748821" lon="17.7272918">
        <ele>24.651</ele>
        <time>2014-04-04T17:20:08Z</time>
      </trkpt>
      <trkpt lat="59.9748645" lon="17.7273002">
        <ele>26.0929</ele>
        <time>2014-04-04T17:20:09Z</time>
      </trkpt>
      <trkpt lat="59.9748433" lon="17.727321">
        <ele>27.0543</ele>
        <time>2014-04-04T17:20:10Z</time>
      </trkpt>
      <trkpt lat="59.974821" lon="17.7273459">
        <ele>28.0155</ele>
        <time>2014-04-04T17:20:11Z</time>
      </trkpt>
      <trkpt lat="59.9747977" lon="17.7273717">
        <ele>28.4962</ele>
        <time>2014-04-04T17:20:12Z</time>
      </trkpt>
      <trkpt lat="59.9747753" lon="17.7273931">
        <ele>28.9769</ele>
        <time>2014-04-04T17:20:13Z</time>
      </trkpt>
      <trkpt lat="59.974751" lon="17.7274171">
        <ele>28.4962</ele>
        <time>2014-04-04T17:20:14Z</time>
      </trkpt>
      <trkpt lat="59.9747284" lon="17.7274354">
        <ele>29.4575</ele>
        <time>2014-04-04T17:20:15Z</time>
      </trkpt>
      <trkpt lat="59.9747056" lon="17.7274544">
        <ele>29.4575</ele>
        <time>2014-04-04T17:20:16Z</time>
      </trkpt>
      <trkpt lat="59.9746847" lon="17.727477">
        <ele>29.4575</ele>
        <time>2014-04-04T17:20:17Z</time>
      </trkpt>
      <trkpt lat="59.9746628" lon="17.7275008">
        <ele>29.9381</ele>
        <time>2014-04-04T17:20:18Z</time>
      </trkpt>
      <trkpt lat="59.9746444" lon="17.7275248">
        <ele>30.4188</ele>
        <time>2014-04-04T17:20:19Z</time>
      </trkpt>
      <trkpt lat="59.9746245" lon="17.7275508">
        <ele>30.8995</ele>
        <time>2014-04-04T17:20:20Z</time>
      </trkpt>
      <trkpt lat="59.9746002" lon="17.7275782">
        <ele>30.8995</ele>
        <time>2014-04-04T17:20:21Z</time>
      </trkpt>
      <trkpt lat="59.9745796" lon="17.7276074">
        <ele>30.8995</ele>
        <time>2014-04-04T17:20:22Z</time>
      </trkpt>
      <trkpt lat="59.9745557" lon="17.7276401">
        <ele>31.3801</ele>
        <time>2014-04-04T17:20:23Z</time>
      </trkpt>
      <trkpt lat="59.9745268" lon="17.7276671">
        <ele>31.3801</ele>
        <time>2014-04-04T17:20:24Z</time>
      </trkpt>
      <trkpt lat="59.9744997" lon="17.7276951">
        <ele>31.3801</ele>
        <time>2014-04-04T17:20:25Z</time>
      </trkpt>
      <trkpt lat="59.9744771" lon="17.7277267">
        <ele>31.3801</ele>
        <time>2014-04-04T17:20:26Z</time>
      </trkpt>
      <trkpt lat="59.974457" lon="17.7277522">
        <ele>31.3801</ele>
        <time>2014-04-04T17:20:27Z</time>
      </trkpt>
      <trkpt lat="59.9744366" lon="17.7277668">
        <ele>30.8995</ele>
        <time>2014-04-04T17:20:28Z</time>
      </trkpt>
      <trkpt lat="59.9744181" lon="17.7277949">
        <ele>30.4188</ele>
        <time>2014-04-04T17:20:29Z</time>
      </trkpt>
      <trkpt lat="59.9744072" lon="17.7278415">
        <ele>30.4188</ele>
        <time>2014-04-04T17:20:30Z</time>
      </trkpt>
      <trkpt lat="59.9744015" lon="17.72789">
        <ele>30.4188</ele>
        <time>2014-04-04T17:20:31Z</time>
      </trkpt>
      <trkpt lat="59.9743983" lon="17.7279472">
        <ele>30.4188</ele>
        <time>2014-04-04T17:20:32Z</time>
      </trkpt>
      <trkpt lat="59.9743986" lon="17.7280062">
        <ele>30.4188</ele>
        <time>2014-04-04T17:20:33Z</time>
      </trkpt>
      <trkpt lat="59.9743973" lon="17.7280632">
        <ele>30.4188</ele>
        <time>2014-04-04T17:20:34Z</time>
      </trkpt>
      <trkpt lat="59.9743983" lon="17.7281207">
        <ele>30.4188</ele>
        <time>2014-04-04T17:20:35Z</time>
      </trkpt>
      <trkpt lat="59.9743981" lon="17.7281791">
        <ele>30.4188</ele>
        <time>2014-04-04T17:20:36Z</time>
      </trkpt>
      <trkpt lat="59.9743973" lon="17.7282374">
        <ele>29.9381</ele>
        <time>2014-04-04T17:20:37Z</time>
      </trkpt>
      <trkpt lat="59.9743999" lon="17.7282932">
        <ele>30.4188</ele>
        <time>2014-04-04T17:20:38Z</time>
      </trkpt>
      <trkpt lat="59.974404" lon="17.7283514">
        <ele>30.4188</ele>
        <time>2014-04-04T17:20:39Z</time>
      </trkpt>
      <trkpt lat="59.9744091" lon="17.7284103">
        <ele>30.4188</ele>
        <time>2014-04-04T17:20:40Z</time>
      </trkpt>
      <trkpt lat="59.9744116" lon="17.7284712">
        <ele>30.8995</ele>
        <time>2014-04-04T17:20:41Z</time>
      </trkpt>
      <trkpt lat="59.9744108" lon="17.7285311">
        <ele>30.8995</ele>
        <time>2014-04-04T17:20:42Z</time>
      </trkpt>
      <trkpt lat="59.9744107" lon="17.7285847">
        <ele>30.8995</ele>
        <time>2014-04-04T17:20:43Z</time>
      </trkpt>
      <trkpt lat="59.9744087" lon="17.7286388">
        <ele>30.4188</ele>
        <time>2014-04-04T17:20:44Z</time>
      </trkpt>
      <trkpt lat="59.9744095" lon="17.7286937">
        <ele>30.8995</ele>
        <time>2014-04-04T17:20:45Z</time>
      </trkpt>
      <trkpt lat="59.9744129" lon="17.7287508">
        <ele>30.8995</ele>
        <time>2014-04-04T17:20:46Z</time>
      </trkpt>
      <trkpt lat="59.9744149" lon="17.7288082">
        <ele>30.4188</ele>
        <time>2014-04-04T17:20:47Z</time>
      </trkpt>
      <trkpt lat="59.9744175" lon="17.7288618">
        <ele>30.8995</ele>
        <time>2014-04-04T17:20:48Z</time>
      </trkpt>
      <trkpt lat="59.9744193" lon="17.728918">
        <ele>30.8995</ele>
        <time>2014-04-04T17:20:49Z</time>
      </trkpt>
      <trkpt lat="59.9744153" lon="17.7289754">
        <ele>30.8995</ele>
        <time>2014-04-04T17:20:50Z</time>
      </trkpt>
      <trkpt lat="59.9744148" lon="17.729031">
        <ele>30.8995</ele>
        <time>2014-04-04T17:20:51Z</time>
      </trkpt>
      <trkpt lat="59.9744176" lon="17.7290873">
        <ele>31.3801</ele>
        <time>2014-04-04T17:20:52Z</time>
      </trkpt>
      <trkpt lat="59.9744176" lon="17.7291407">
        <ele>31.8607</ele>
        <time>2014-04-04T17:20:53Z</time>
      </trkpt>
      <trkpt lat="59.974418" lon="17.7291976">
        <ele>32.3416</ele>
        <time>2014-04-04T17:20:54Z</time>
      </trkpt>
      <trkpt lat="59.9744181" lon="17.7292574">
        <ele>32.8223</ele>
        <time>2014-04-04T17:20:55Z</time>
      </trkpt>
      <trkpt lat="59.9744209" lon="17.7293158">
        <ele>32.8223</ele>
        <time>2014-04-04T17:20:56Z</time>
      </trkpt>
      <trkpt lat="59.9744243" lon="17.7293762">
        <ele>33.7834</ele>
        <time>2014-04-04T17:20:57Z</time>
      </trkpt>
      <trkpt lat="59.9744268" lon="17.7294392">
        <ele>34.2642</ele>
        <time>2014-04-04T17:20:58Z</time>
      </trkpt>
      <trkpt lat="59.974431" lon="17.7295043">
        <ele>34.2642</ele>
        <time>2014-04-04T17:20:59Z</time>
      </trkpt>
      <trkpt lat="59.9744354" lon="17.7295685">
        <ele>35.2255</ele>
        <time>2014-04-04T17:21:00Z</time>
      </trkpt>
      <trkpt lat="59.9744444" lon="17.7296287">
        <ele>35.2255</ele>
        <time>2014-04-04T17:21:01Z</time>
      </trkpt>
      <trkpt lat="59.9744525" lon="17.7296918">
        <ele>35.2255</ele>
        <time>2014-04-04T17:21:02Z</time>
      </trkpt>
      <trkpt lat="59.9744522" lon="17.7297562">
        <ele>35.2255</ele>
        <time>2014-04-04T17:21:03Z</time>
      </trkpt>
      <trkpt lat="59.9744522" lon="17.7298209">
        <ele>35.2255</ele>
        <time>2014-04-04T17:21:04Z</time>
      </trkpt>
      <trkpt lat="59.9744507" lon="17.7298876">
        <ele>35.2255</ele>
        <time>2014-04-04T17:21:05Z</time>
      </trkpt>
      <trkpt lat="59.9744478" lon="17.72995">
        <ele>35.2255</ele>
        <time>2014-04-04T17:21:06Z</time>
      </trkpt>
      <trkpt lat="59.9744439" lon="17.7300099">
        <ele>35.7061</ele>
        <time>2014-04-04T17:21:07Z</time>
      </trkpt>
      <trkpt lat="59.9744359" lon="17.7300762">
        <ele>35.7061</ele>
        <time>2014-04-04T17:21:08Z</time>
      </trkpt>
      <trkpt lat="59.9744288" lon="17.7301393">
        <ele>36.1868</ele>
        <time>2014-04-04T17:21:09Z</time>
      </trkpt>
      <trkpt lat="59.9744238" lon="17.7302009">
        <ele>36.1868</ele>
        <time>2014-04-04T17:21:10Z</time>
      </trkpt>
      <trkpt lat="59.9744206" lon="17.7302628">
        <ele>36.1868</ele>
        <time>2014-04-04T17:21:11Z</time>
      </trkpt>
      <trkpt lat="59.9744174" lon="17.7303229">
        <ele>36.1868</ele>
        <time>2014-04-04T17:21:12Z</time>
      </trkpt>
      <trkpt lat="59.9744102" lon="17.7303786">
        <ele>35.7061</ele>
        <time>2014-04-04T17:21:13Z</time>
      </trkpt>
      <trkpt lat="59.9744035" lon="17.7304295">
        <ele>35.2255</ele>
        <time>2014-04-04T17:21:14Z</time>
      </trkpt>
      <trkpt lat="59.9743973" lon="17.7304871">
        <ele>35.7061</ele>
        <time>2014-04-04T17:21:15Z</time>
      </trkpt>
      <trkpt lat="59.9743881" lon="17.7305501">
        <ele>34.7449</ele>
        <time>2014-04-04T17:21:16Z</time>
      </trkpt>
      <trkpt lat="59.974381" lon="17.7306083">
        <ele>34.7449</ele>
        <time>2014-04-04T17:21:17Z</time>
      </trkpt>
      <trkpt lat="59.9743745" lon="17.7306663">
        <ele>33.7834</ele>
        <time>2014-04-04T17:21:18Z</time>
      </trkpt>
      <trkpt lat="59.9743712" lon="17.7307225">
        <ele>33.7834</ele>
        <time>2014-04-04T17:21:19Z</time>
      </trkpt>
      <trkpt lat="59.9743671" lon="17.7307735">
        <ele>33.7834</ele>
        <time>2014-04-04T17:21:20Z</time>
      </trkpt>
      <trkpt lat="59.9743631" lon="17.7308252">
        <ele>33.7834</ele>
        <time>2014-04-04T17:21:21Z</time>
      </trkpt>
      <trkpt lat="59.9743611" lon="17.7308815">
        <ele>33.7834</ele>
        <time>2014-04-04T17:21:22Z</time>
      </trkpt>
      <trkpt lat="59.9743556" lon="17.7309464">
        <ele>33.7834</ele>
        <time>2014-04-04T17:21:23Z</time>
      </trkpt>
      <trkpt lat="59.97435" lon="17.7310107">
        <ele>33.7834</ele>
        <time>2014-04-04T17:21:24Z</time>
      </trkpt>
      <trkpt lat="59.9743433" lon="17.7310703">
        <ele>33.7834</ele>
        <time>2014-04-04T17:21:25Z</time>
      </trkpt>
      <trkpt lat="59.9743392" lon="17.7311261">
        <ele>33.7834</ele>
        <time>2014-04-04T17:21:26Z</time>
      </trkpt>
      <trkpt lat="59.9743403" lon="17.7311802">
        <ele>34.2642</ele>
        <time>2014-04-04T17:21:27Z</time>
      </trkpt>
      <trkpt lat="59.9743368" lon="17.7312423">
        <ele>34.2642</ele>
        <time>2014-04-04T17:21:28Z</time>
      </trkpt>
      <trkpt lat="59.9743352" lon="17.7313032">
        <ele>33.7834</ele>
        <time>2014-04-04T17:21:29Z</time>
      </trkpt>
      <trkpt lat="59.9743361" lon="17.7313612">
        <ele>33.7834</ele>
        <time>2014-04-04T17:21:30Z</time>
      </trkpt>
      <trkpt lat="59.9743375" lon="17.7314215">
        <ele>33.7834</ele>
        <time>2014-04-04T17:21:31Z</time>
      </trkpt>
      <trkpt lat="59.9743377" lon="17.731481">
        <ele>33.7834</ele>
        <time>2014-04-04T17:21:32Z</time>
      </trkpt>
      <trkpt lat="59.9743372" lon="17.731542">
        <ele>33.3029</ele>
        <time>2014-04-04T17:21:33Z</time>
      </trkpt>
      <trkpt lat="59.9743371" lon="17.7316064">
        <ele>33.3029</ele>
        <time>2014-04-04T17:21:34Z</time>
      </trkpt>
      <trkpt lat="59.9743381" lon="17.7316752">
        <ele>33.3029</ele>
        <time>2014-04-04T17:21:35Z</time>
      </trkpt>
      <trkpt lat="59.9743399" lon="17.7317495">
        <ele>33.3029</ele>
        <time>2014-04-04T17:21:36Z</time>
      </trkpt>
      <trkpt lat="59.9743442" lon="17.7318178">
        <ele>32.8223</ele>
        <time>2014-04-04T17:21:37Z</time>
      </trkpt>
      <trkpt lat="59.9743449" lon="17.7318753">
        <ele>33.3029</ele>
        <time>2014-04-04T17:21:38Z</time>
      </trkpt>
      <trkpt lat="59.9743437" lon="17.731929">
        <ele>33.7834</ele>
        <time>2014-04-04T17:21:39Z</time>
      </trkpt>
      <trkpt lat="59.9743445" lon="17.7319834">
        <ele>34.2642</ele>
        <time>2014-04-04T17:21:40Z</time>
      </trkpt>
      <trkpt lat="59.9743455" lon="17.7320426">
        <ele>33.7834</ele>
        <time>2014-04-04T17:21:41Z</time>
      </trkpt>
      <trkpt lat="59.9743489" lon="17.732103">
        <ele>33.7834</ele>
        <time>2014-04-04T17:21:42Z</time>
      </trkpt>
      <trkpt lat="59.9743526" lon="17.7321607">
        <ele>34.2642</ele>
        <time>2014-04-04T17:21:43Z</time>
      </trkpt>
      <trkpt lat="59.9743535" lon="17.7322223">
        <ele>34.2642</ele>
        <time>2014-04-04T17:21:44Z</time>
      </trkpt>
      <trkpt lat="59.9743548" lon="17.7322843">
        <ele>33.7834</ele>
        <time>2014-04-04T17:21:45Z</time>
      </trkpt>
      <trkpt lat="59.9743579" lon="17.7323428">
        <ele>34.2642</ele>
        <time>2014-04-04T17:21:46Z</time>
      </trkpt>
      <trkpt lat="59.9743594" lon="17.7323986">
        <ele>33.7834</ele>
        <time>2014-04-04T17:21:47Z</time>
      </trkpt>
      <trkpt lat="59.9743646" lon="17.7324511">
        <ele>33.7834</ele>
        <time>2014-04-04T17:21:48Z</time>
      </trkpt>
      <trkpt lat="59.974366" lon="17.7324965">
        <ele>34.2642</ele>
        <time>2014-04-04T17:21:49Z</time>
      </trkpt>
      <trkpt lat="59.9743642" lon="17.7325412">
        <ele>34.2642</ele>
        <time>2014-04-04T17:21:50Z</time>
      </trkpt>
      <trkpt lat="59.9743656" lon="17.7325943">
        <ele>34.2642</ele>
        <time>2014-04-04T17:21:51Z</time>
      </trkpt>
      <trkpt lat="59.9743673" lon="17.7326579">
        <ele>34.2642</ele>
        <time>2014-04-04T17:21:52Z</time>
      </trkpt>
      <trkpt lat="59.9743689" lon="17.7327179">
        <ele>33.7834</ele>
        <time>2014-04-04T17:21:53Z</time>
      </trkpt>
      <trkpt lat="59.9743707" lon="17.7327755">
        <ele>33.7834</ele>
        <time>2014-04-04T17:21:54Z</time>
      </trkpt>
      <trkpt lat="59.9743687" lon="17.7328362">
        <ele>34.2642</ele>
        <time>2014-04-04T17:21:55Z</time>
      </trkpt>
      <trkpt lat="59.9743678" lon="17.7328968">
        <ele>34.2642</ele>
        <time>2014-04-04T17:21:56Z</time>
      </trkpt>
      <trkpt lat="59.9743713" lon="17.7329595">
        <ele>34.2642</ele>
        <time>2014-04-04T17:21:57Z</time>
      </trkpt>
      <trkpt lat="59.9743722" lon="17.7330196">
        <ele>34.7449</ele>
        <time>2014-04-04T17:21:58Z</time>
      </trkpt>
      <trkpt lat="59.974373" lon="17.7330758">
        <ele>34.7449</ele>
        <time>2014-04-04T17:21:59Z</time>
      </trkpt>
      <trkpt lat="59.974377" lon="17.7331352">
        <ele>35.2255</ele>
        <time>2014-04-04T17:22:00Z</time>
      </trkpt>
      <trkpt lat="59.9743738" lon="17.7331967">
        <ele>35.2255</ele>
        <time>2014-04-04T17:22:01Z</time>
      </trkpt>
      <trkpt lat="59.9743678" lon="17.7332501">
        <ele>35.2255</ele>
        <time>2014-04-04T17:22:02Z</time>
      </trkpt>
      <trkpt lat="59.9743667" lon="17.7333072">
        <ele>35.7061</ele>
        <time>2014-04-04T17:22:03Z</time>
      </trkpt>
      <trkpt lat="59.9743717" lon="17.7333708">
        <ele>36.1868</ele>
        <time>2014-04-04T17:22:04Z</time>
      </trkpt>
      <trkpt lat="59.974377" lon="17.7334276">
        <ele>35.7061</ele>
        <time>2014-04-04T17:22:05Z</time>
      </trkpt>
      <trkpt lat="59.9743756" lon="17.7334847">
        <ele>36.1868</ele>
        <time>2014-04-04T17:22:06Z</time>
      </trkpt>
      <trkpt lat="59.974374" lon="17.733542">
        <ele>36.1868</ele>
        <time>2014-04-04T17:22:07Z</time>
      </trkpt>
      <trkpt lat="59.974374" lon="17.733594">
        <ele>36.1868</ele>
        <time>2014-04-04T17:22:08Z</time>
      </trkpt>
      <trkpt lat="59.9743703" lon="17.7336513">
        <ele>36.1868</ele>
        <time>2014-04-04T17:22:09Z</time>
      </trkpt>
      <trkpt lat="59.9743649" lon="17.7337069">
        <ele>36.1868</ele>
        <time>2014-04-04T17:22:10Z</time>
      </trkpt>
      <trkpt lat="59.9743561" lon="17.7337599">
        <ele>36.1868</ele>
        <time>2014-04-04T17:22:11Z</time>
      </trkpt>
      <trkpt lat="59.9743496" lon="17.7338204">
        <ele>36.1868</ele>
        <time>2014-04-04T17:22:12Z</time>
      </trkpt>
      <trkpt lat="59.974346" lon="17.7338819">
        <ele>36.6675</ele>
        <time>2014-04-04T17:22:13Z</time>
      </trkpt>
      <trkpt lat="59.9743417" lon="17.7339405">
        <ele>36.6675</ele>
        <time>2014-04-04T17:22:14Z</time>
      </trkpt>
      <trkpt lat="59.9743403" lon="17.7340029">
        <ele>36.1868</ele>
        <time>2014-04-04T17:22:15Z</time>
      </trkpt>
      <trkpt lat="59.9743402" lon="17.7340668">
        <ele>36.1868</ele>
        <time>2014-04-04T17:22:16Z</time>
      </trkpt>
      <trkpt lat="59.9743354" lon="17.7341263">
        <ele>36.1868</ele>
        <time>2014-04-04T17:22:17Z</time>
      </trkpt>
      <trkpt lat="59.9743254" lon="17.734174">
        <ele>35.2255</ele>
        <time>2014-04-04T17:22:18Z</time>
      </trkpt>
      <trkpt lat="59.9743206" lon="17.7342281">
        <ele>34.7449</ele>
        <time>2014-04-04T17:22:19Z</time>
      </trkpt>
      <trkpt lat="59.9743163" lon="17.7342877">
        <ele>34.7449</ele>
        <time>2014-04-04T17:22:20Z</time>
      </trkpt>
      <trkpt lat="59.9743128" lon="17.734344">
        <ele>34.7449</ele>
        <time>2014-04-04T17:22:21Z</time>
      </trkpt>
      <trkpt lat="59.9743113" lon="17.7343995">
        <ele>34.7449</ele>
        <time>2014-04-04T17:22:22Z</time>
      </trkpt>
      <trkpt lat="59.9743077" lon="17.7344596">
        <ele>34.7449</ele>
        <time>2014-04-04T17:22:23Z</time>
      </trkpt>
      <trkpt lat="59.9743056" lon="17.7345178">
        <ele>34.7449</ele>
        <time>2014-04-04T17:22:24Z</time>
      </trkpt>
      <trkpt lat="59.9743031" lon="17.7345758">
        <ele>34.7449</ele>
        <time>2014-04-04T17:22:25Z</time>
      </trkpt>
      <trkpt lat="59.9743009" lon="17.7346362">
        <ele>34.7449</ele>
        <time>2014-04-04T17:22:26Z</time>
      </trkpt>
      <trkpt lat="59.9743025" lon="17.7346868">
        <ele>35.2255</ele>
        <time>2014-04-04T17:22:27Z</time>
      </trkpt>
      <trkpt lat="59.9743067" lon="17.7347474">
        <ele>35.2255</ele>
        <time>2014-04-04T17:22:28Z</time>
      </trkpt>
      <trkpt lat="59.9743102" lon="17.7348128">
        <ele>35.7061</ele>
        <time>2014-04-04T17:22:29Z</time>
      </trkpt>
      <trkpt lat="59.9743123" lon="17.7348709">
        <ele>35.7061</ele>
        <time>2014-04-04T17:22:30Z</time>
      </trkpt>
      <trkpt lat="59.9743143" lon="17.7349244">
        <ele>35.2255</ele>
        <time>2014-04-04T17:22:31Z</time>
      </trkpt>
      <trkpt lat="59.9743178" lon="17.7349762">
        <ele>35.2255</ele>
        <time>2014-04-04T17:22:32Z</time>
      </trkpt>
      <trkpt lat="59.9743237" lon="17.7350375">
        <ele>35.2255</ele>
        <time>2014-04-04T17:22:33Z</time>
      </trkpt>
      <trkpt lat="59.9743294" lon="17.7350957">
        <ele>35.2255</ele>
        <time>2014-04-04T17:22:34Z</time>
      </trkpt>
      <trkpt lat="59.9743333" lon="17.7351455">
        <ele>35.7061</ele>
        <time>2014-04-04T17:22:35Z</time>
      </trkpt>
      <trkpt lat="59.9743377" lon="17.7351992">
        <ele>35.7061</ele>
        <time>2014-04-04T17:22:36Z</time>
      </trkpt>
      <trkpt lat="59.9743444" lon="17.7352523">
        <ele>36.1868</ele>
        <time>2014-04-04T17:22:37Z</time>
      </trkpt>
      <trkpt lat="59.9743504" lon="17.7353095">
        <ele>35.7061</ele>
        <time>2014-04-04T17:22:38Z</time>
      </trkpt>
      <trkpt lat="59.9743557" lon="17.7353711">
        <ele>35.7061</ele>
        <time>2014-04-04T17:22:39Z</time>
      </trkpt>
      <trkpt lat="59.9743605" lon="17.7354256">
        <ele>36.1868</ele>
        <time>2014-04-04T17:22:40Z</time>
      </trkpt>
      <trkpt lat="59.9743639" lon="17.7354805">
        <ele>36.1868</ele>
        <time>2014-04-04T17:22:41Z</time>
      </trkpt>
      <trkpt lat="59.9743688" lon="17.735534">
        <ele>36.6675</ele>
        <time>2014-04-04T17:22:42Z</time>
      </trkpt>
      <trkpt lat="59.9743769" lon="17.7355862">
        <ele>36.6675</ele>
        <time>2014-04-04T17:22:43Z</time>
      </trkpt>
      <trkpt lat="59.9743864" lon="17.7356475">
        <ele>37.1481</ele>
        <time>2014-04-04T17:22:44Z</time>
      </trkpt>
      <trkpt lat="59.9743971" lon="17.7357034">
        <ele>37.6287</ele>
        <time>2014-04-04T17:22:45Z</time>
      </trkpt>
      <trkpt lat="59.9744101" lon="17.7357543">
        <ele>38.1094</ele>
        <time>2014-04-04T17:22:46Z</time>
      </trkpt>
      <trkpt lat="59.9744222" lon="17.7358059">
        <ele>38.5901</ele>
        <time>2014-04-04T17:22:47Z</time>
      </trkpt>
      <trkpt lat="59.974434" lon="17.7358561">
        <ele>38.5901</ele>
        <time>2014-04-04T17:22:48Z</time>
      </trkpt>
      <trkpt lat="59.974448" lon="17.7359111">
        <ele>39.0707</ele>
        <time>2014-04-04T17:22:49Z</time>
      </trkpt>
      <trkpt lat="59.9744649" lon="17.7359645">
        <ele>39.5513</ele>
        <time>2014-04-04T17:22:50Z</time>
      </trkpt>
      <trkpt lat="59.9744822" lon="17.7360081">
        <ele>40.0321</ele>
        <time>2014-04-04T17:22:51Z</time>
      </trkpt>
      <trkpt lat="59.9744966" lon="17.7360578">
        <ele>40.5128</ele>
        <time>2014-04-04T17:22:52Z</time>
      </trkpt>
      <trkpt lat="59.9745112" lon="17.7361028">
        <ele>41.474</ele>
        <time>2014-04-04T17:22:53Z</time>
      </trkpt>
      <trkpt lat="59.9745232" lon="17.7361443">
        <ele>41.9547</ele>
        <time>2014-04-04T17:22:54Z</time>
      </trkpt>
      <trkpt lat="59.9745325" lon="17.7361828">
        <ele>41.9547</ele>
        <time>2014-04-04T17:22:55Z</time>
      </trkpt>
      <trkpt lat="59.9745434" lon="17.7362224">
        <ele>41.9547</ele>
        <time>2014-04-04T17:22:56Z</time>
      </trkpt>
      <trkpt lat="59.9745495" lon="17.7362715">
        <ele>40.9934</ele>
        <time>2014-04-04T17:22:57Z</time>
      </trkpt>
      <trkpt lat="59.9745521" lon="17.7363214">
        <ele>39.5513</ele>
        <time>2014-04-04T17:22:58Z</time>
      </trkpt>
      <trkpt lat="59.9745646" lon="17.7363645">
        <ele>39.5513</ele>
        <time>2014-04-04T17:22:59Z</time>
      </trkpt>
      <trkpt lat="59.9745744" lon="17.7364047">
        <ele>40.0321</ele>
        <time>2014-04-04T17:23:00Z</time>
      </trkpt>
      <trkpt lat="59.9745817" lon="17.7364419">
        <ele>40.0321</ele>
        <time>2014-04-04T17:23:01Z</time>
      </trkpt>
      <trkpt lat="59.9745935" lon="17.7364871">
        <ele>40.0321</ele>
        <time>2014-04-04T17:23:02Z</time>
      </trkpt>
      <trkpt lat="59.9745972" lon="17.7365297">
        <ele>38.1094</ele>
        <time>2014-04-04T17:23:03Z</time>
      </trkpt>
      <trkpt lat="59.9746108" lon="17.7365727">
        <ele>37.6287</ele>
        <time>2014-04-04T17:23:04Z</time>
      </trkpt>
      <trkpt lat="59.9746288" lon="17.7366192">
        <ele>37.6287</ele>
        <time>2014-04-04T17:23:05Z</time>
      </trkpt>
      <trkpt lat="59.9746433" lon="17.7366747">
        <ele>37.6287</ele>
        <time>2014-04-04T17:23:06Z</time>
      </trkpt>
      <trkpt lat="59.9746546" lon="17.7367263">
        <ele>37.6287</ele>
        <time>2014-04-04T17:23:07Z</time>
      </trkpt>
      <trkpt lat="59.9746634" lon="17.7367746">
        <ele>38.1094</ele>
        <time>2014-04-04T17:23:08Z</time>
      </trkpt>
      <trkpt lat="59.9746708" lon="17.7368243">
        <ele>38.1094</ele>
        <time>2014-04-04T17:23:09Z</time>
      </trkpt>
      <trkpt lat="59.9746818" lon="17.7368697">
        <ele>37.6287</ele>
        <time>2014-04-04T17:23:10Z</time>
      </trkpt>
      <trkpt lat="59.9746892" lon="17.7369081">
        <ele>36.1868</ele>
        <time>2014-04-04T17:23:11Z</time>
      </trkpt>
      <trkpt lat="59.974706" lon="17.7369539">
        <ele>36.6675</ele>
        <time>2014-04-04T17:23:12Z</time>
      </trkpt>
      <trkpt lat="59.9747185" lon="17.7370067">
        <ele>36.6675</ele>
        <time>2014-04-04T17:23:13Z</time>
      </trkpt>
      <trkpt lat="59.9747319" lon="17.73706">
        <ele>36.6675</ele>
        <time>2014-04-04T17:23:14Z</time>
      </trkpt>
      <trkpt lat="59.9747476" lon="17.7371056">
        <ele>37.1481</ele>
        <time>2014-04-04T17:23:15Z</time>
      </trkpt>
      <trkpt lat="59.9747631" lon="17.7371528">
        <ele>36.6675</ele>
        <time>2014-04-04T17:23:16Z</time>
      </trkpt>
      <trkpt lat="59.9747819" lon="17.7372003">
        <ele>36.1868</ele>
        <time>2014-04-04T17:23:17Z</time>
      </trkpt>
      <trkpt lat="59.9748095" lon="17.7372383">
        <ele>35.7061</ele>
        <time>2014-04-04T17:23:18Z</time>
      </trkpt>
      <trkpt lat="59.974835" lon="17.7372793">
        <ele>35.2255</ele>
        <time>2014-04-04T17:23:19Z</time>
      </trkpt>
      <trkpt lat="59.9748536" lon="17.7373279">
        <ele>34.7449</ele>
        <time>2014-04-04T17:23:20Z</time>
      </trkpt>
      <trkpt lat="59.9748731" lon="17.7373729">
        <ele>33.7834</ele>
        <time>2014-04-04T17:23:21Z</time>
      </trkpt>
      <trkpt lat="59.974893" lon="17.7374274">
        <ele>32.8223</ele>
        <time>2014-04-04T17:23:22Z</time>
      </trkpt>
      <trkpt lat="59.9749075" lon="17.737477">
        <ele>31.3801</ele>
        <time>2014-04-04T17:23:23Z</time>
      </trkpt>
      <trkpt lat="59.9749225" lon="17.737515">
        <ele>30.4188</ele>
        <time>2014-04-04T17:23:24Z</time>
      </trkpt>
      <trkpt lat="59.9749381" lon="17.7375448">
        <ele>28.4962</ele>
        <time>2014-04-04T17:23:25Z</time>
      </trkpt>
      <trkpt lat="59.9749572" lon="17.737577">
        <ele>27.5349</ele>
        <time>2014-04-04T17:23:26Z</time>
      </trkpt>
      <trkpt lat="59.9749746" lon="17.7375993">
        <ele>27.0543</ele>
        <time>2014-04-04T17:23:27Z</time>
      </trkpt>
      <trkpt lat="59.974993" lon="17.7376292">
        <ele>26.5736</ele>
        <time>2014-04-04T17:23:28Z</time>
      </trkpt>
      <trkpt lat="59.9750158" lon="17.7376693">
        <ele>26.5736</ele>
        <time>2014-04-04T17:23:29Z</time>
      </trkpt>
      <trkpt lat="59.9750399" lon="17.7377112">
        <ele>26.5736</ele>
        <time>2014-04-04T17:23:30Z</time>
      </trkpt>
      <trkpt lat="59.9750629" lon="17.7377517">
        <ele>26.0929</ele>
        <time>2014-04-04T17:23:31Z</time>
      </trkpt>
      <trkpt lat="59.9750866" lon="17.7377889">
        <ele>26.5736</ele>
        <time>2014-04-04T17:23:32Z</time>
      </trkpt>
      <trkpt lat="59.9751119" lon="17.7378239">
        <ele>26.5736</ele>
        <time>2014-04-04T17:23:33Z</time>
      </trkpt>
      <trkpt lat="59.9751383" lon="17.7378563">
        <ele>26.5736</ele>
        <time>2014-04-04T17:23:34Z</time>
      </trkpt>
      <trkpt lat="59.9751655" lon="17.73789">
        <ele>27.0543</ele>
        <time>2014-04-04T17:23:35Z</time>
      </trkpt>
      <trkpt lat="59.9751934" lon="17.7379246">
        <ele>27.0543</ele>
        <time>2014-04-04T17:23:36Z</time>
      </trkpt>
      <trkpt lat="59.9752204" lon="17.7379517">
        <ele>27.5349</ele>
        <time>2014-04-04T17:23:37Z</time>
      </trkpt>
      <trkpt lat="59.9752447" lon="17.7379842">
        <ele>27.5349</ele>
        <time>2014-04-04T17:23:38Z</time>
      </trkpt>
      <trkpt lat="59.9752653" lon="17.7380249">
        <ele>27.5349</ele>
        <time>2014-04-04T17:23:39Z</time>
      </trkpt>
      <trkpt lat="59.9752854" lon="17.7380646">
        <ele>28.0155</ele>
        <time>2014-04-04T17:23:40Z</time>
      </trkpt>
      <trkpt lat="59.9753053" lon="17.7381095">
        <ele>28.0155</ele>
        <time>2014-04-04T17:23:41Z</time>
      </trkpt>
      <trkpt lat="59.9753248" lon="17.7381513">
        <ele>27.5349</ele>
        <time>2014-04-04T17:23:42Z</time>
      </trkpt>
      <trkpt lat="59.9753458" lon="17.7381876">
        <ele>28.0155</ele>
        <time>2014-04-04T17:23:43Z</time>
      </trkpt>
      <trkpt lat="59.9753675" lon="17.7382261">
        <ele>28.0155</ele>
        <time>2014-04-04T17:23:44Z</time>
      </trkpt>
      <trkpt lat="59.9753886" lon="17.7382687">
        <ele>28.0155</ele>
        <time>2014-04-04T17:23:45Z</time>
      </trkpt>
      <trkpt lat="59.9754079" lon="17.73831">
        <ele>28.0155</ele>
        <time>2014-04-04T17:23:46Z</time>
      </trkpt>
      <trkpt lat="59.9754265" lon="17.7383547">
        <ele>28.0155</ele>
        <time>2014-04-04T17:23:47Z</time>
      </trkpt>
      <trkpt lat="59.9754451" lon="17.738398">
        <ele>28.0155</ele>
        <time>2014-04-04T17:23:48Z</time>
      </trkpt>
      <trkpt lat="59.9754666" lon="17.7384364">
        <ele>27.5349</ele>
        <time>2014-04-04T17:23:49Z</time>
      </trkpt>
      <trkpt lat="59.9754912" lon="17.738475">
        <ele>27.5349</ele>
        <time>2014-04-04T17:23:50Z</time>
      </trkpt>
      <trkpt lat="59.9755132" lon="17.7385089">
        <ele>27.5349</ele>
        <time>2014-04-04T17:23:51Z</time>
      </trkpt>
      <trkpt lat="59.9755405" lon="17.7385455">
        <ele>27.0543</ele>
        <time>2014-04-04T17:23:52Z</time>
      </trkpt>
      <trkpt lat="59.9755704" lon="17.7385874">
        <ele>27.0543</ele>
        <time>2014-04-04T17:23:53Z</time>
      </trkpt>
      <trkpt lat="59.9755995" lon="17.7386276">
        <ele>26.5736</ele>
        <time>2014-04-04T17:23:54Z</time>
      </trkpt>
      <trkpt lat="59.9756289" lon="17.7386746">
        <ele>26.0929</ele>
        <time>2014-04-04T17:23:55Z</time>
      </trkpt>
      <trkpt lat="59.9756561" lon="17.7387178">
        <ele>26.0929</ele>
        <time>2014-04-04T17:23:56Z</time>
      </trkpt>
      <trkpt lat="59.9756795" lon="17.738757">
        <ele>25.6123</ele>
        <time>2014-04-04T17:23:57Z</time>
      </trkpt>
      <trkpt lat="59.9757068" lon="17.7387845">
        <ele>26.0929</ele>
        <time>2014-04-04T17:23:58Z</time>
      </trkpt>
      <trkpt lat="59.9757358" lon="17.7388133">
        <ele>26.0929</ele>
        <time>2014-04-04T17:23:59Z</time>
      </trkpt>
      <trkpt lat="59.9757665" lon="17.7388493">
        <ele>26.0929</ele>
        <time>2014-04-04T17:24:00Z</time>
      </trkpt>
      <trkpt lat="59.9757938" lon="17.7388814">
        <ele>26.0929</ele>
        <time>2014-04-04T17:24:01Z</time>
      </trkpt>
      <trkpt lat="59.9758214" lon="17.7389157">
        <ele>26.0929</ele>
        <time>2014-04-04T17:24:02Z</time>
      </trkpt>
      <trkpt lat="59.9758311" lon="17.7389461">
        <ele>24.651</ele>
        <time>2014-04-04T17:24:03Z</time>
      </trkpt>
      <trkpt lat="59.975843" lon="17.7389777">
        <ele>23.6896</ele>
        <time>2014-04-04T17:24:04Z</time>
      </trkpt>
      <trkpt lat="59.9758608" lon="17.7390151">
        <ele>22.7283</ele>
        <time>2014-04-04T17:24:05Z</time>
      </trkpt>
      <trkpt lat="59.9758737" lon="17.739049">
        <ele>21.2864</ele>
        <time>2014-04-04T17:24:06Z</time>
      </trkpt>
      <trkpt lat="59.9758851" lon="17.7390699">
        <ele>19.8444</ele>
        <time>2014-04-04T17:24:07Z</time>
      </trkpt>
      <trkpt lat="59.9758981" lon="17.7390844">
        <ele>19.3638</ele>
        <time>2014-04-04T17:24:08Z</time>
      </trkpt>
      <trkpt lat="59.9759148" lon="17.7391018">
        <ele>18.8831</ele>
        <time>2014-04-04T17:24:09Z</time>
      </trkpt>
      <trkpt lat="59.9759377" lon="17.7391273">
        <ele>18.4023</ele>
        <time>2014-04-04T17:24:10Z</time>
      </trkpt>
      <trkpt lat="59.9759654" lon="17.7391506">
        <ele>18.8831</ele>
        <time>2014-04-04T17:24:11Z</time>
      </trkpt>
      <trkpt lat="59.9759871" lon="17.7391647">
        <ele>18.8831</ele>
        <time>2014-04-04T17:24:12Z</time>
      </trkpt>
      <trkpt lat="59.9760103" lon="17.7391901">
        <ele>18.8831</ele>
        <time>2014-04-04T17:24:13Z</time>
      </trkpt>
      <trkpt lat="59.9760361" lon="17.739222">
        <ele>18.8831</ele>
        <time>2014-04-04T17:24:14Z</time>
      </trkpt>
      <trkpt lat="59.9760589" lon="17.7392595">
        <ele>18.4023</ele>
        <time>2014-04-04T17:24:15Z</time>
      </trkpt>
      <trkpt lat="59.9760813" lon="17.7392985">
        <ele>17.9218</ele>
        <time>2014-04-04T17:24:16Z</time>
      </trkpt>
      <trkpt lat="59.9760989" lon="17.7393371">
        <ele>17.9218</ele>
        <time>2014-04-04T17:24:17Z</time>
      </trkpt>
      <trkpt lat="59.976116" lon="17.7393739">
        <ele>17.4412</ele>
        <time>2014-04-04T17:24:18Z</time>
      </trkpt>
      <trkpt lat="59.976135" lon="17.7394183">
        <ele>17.4412</ele>
        <time>2014-04-04T17:24:19Z</time>
      </trkpt>
      <trkpt lat="59.9761539" lon="17.7394688">
        <ele>17.4412</ele>
        <time>2014-04-04T17:24:20Z</time>
      </trkpt>
      <trkpt lat="59.9761788" lon="17.7395102">
        <ele>17.9218</ele>
        <time>2014-04-04T17:24:21Z</time>
      </trkpt>
      <trkpt lat="59.9762029" lon="17.7395475">
        <ele>17.9218</ele>
        <time>2014-04-04T17:24:22Z</time>
      </trkpt>
      <trkpt lat="59.9762228" lon="17.7395853">
        <ele>18.8831</ele>
        <time>2014-04-04T17:24:23Z</time>
      </trkpt>
      <trkpt lat="59.9762412" lon="17.7396246">
        <ele>19.3638</ele>
        <time>2014-04-04T17:24:24Z</time>
      </trkpt>
      <trkpt lat="59.976257" lon="17.7396678">
        <ele>19.3638</ele>
        <time>2014-04-04T17:24:25Z</time>
      </trkpt>
      <trkpt lat="59.9762717" lon="17.7397089">
        <ele>18.8831</ele>
        <time>2014-04-04T17:24:26Z</time>
      </trkpt>
      <trkpt lat="59.9762911" lon="17.7397455">
        <ele>19.3638</ele>
        <time>2014-04-04T17:24:27Z</time>
      </trkpt>
      <trkpt lat="59.9763107" lon="17.7397682">
        <ele>19.8444</ele>
        <time>2014-04-04T17:24:28Z</time>
      </trkpt>
      <trkpt lat="59.9763358" lon="17.7397695">
        <ele>19.8444</ele>
        <time>2014-04-04T17:24:29Z</time>
      </trkpt>
      <trkpt lat="59.976364" lon="17.7397661">
        <ele>19.8444</ele>
        <time>2014-04-04T17:24:30Z</time>
      </trkpt>
      <trkpt lat="59.9763875" lon="17.7397604">
        <ele>19.8444</ele>
        <time>2014-04-04T17:24:31Z</time>
      </trkpt>
      <trkpt lat="59.9764129" lon="17.7397455">
        <ele>20.8057</ele>
        <time>2014-04-04T17:24:32Z</time>
      </trkpt>
      <trkpt lat="59.976436" lon="17.7397207">
        <ele>21.2864</ele>
        <time>2014-04-04T17:24:33Z</time>
      </trkpt>
      <trkpt lat="59.9764573" lon="17.7396942">
        <ele>21.2864</ele>
        <time>2014-04-04T17:24:34Z</time>
      </trkpt>
      <trkpt lat="59.9764796" lon="17.7396636">
        <ele>21.767</ele>
        <time>2014-04-04T17:24:35Z</time>
      </trkpt>
      <trkpt lat="59.9764997" lon="17.7396281">
        <ele>21.767</ele>
        <time>2014-04-04T17:24:36Z</time>
      </trkpt>
      <trkpt lat="59.976519" lon="17.7395965">
        <ele>22.2476</ele>
        <time>2014-04-04T17:24:37Z</time>
      </trkpt>
      <trkpt lat="59.9765409" lon="17.7395661">
        <ele>22.7283</ele>
        <time>2014-04-04T17:24:38Z</time>
      </trkpt>
      <trkpt lat="59.9765663" lon="17.7395386">
        <ele>23.209</ele>
        <time>2014-04-04T17:24:39Z</time>
      </trkpt>
      <trkpt lat="59.9765931" lon="17.7395176">
        <ele>23.6896</ele>
        <time>2014-04-04T17:24:40Z</time>
      </trkpt>
      <trkpt lat="59.9766195" lon="17.7395048">
        <ele>24.1703</ele>
        <time>2014-04-04T17:24:41Z</time>
      </trkpt>
      <trkpt lat="59.9766432" lon="17.739487">
        <ele>24.651</ele>
        <time>2014-04-04T17:24:42Z</time>
      </trkpt>
      <trkpt lat="59.9766659" lon="17.7394696">
        <ele>24.651</ele>
        <time>2014-04-04T17:24:43Z</time>
      </trkpt>
      <trkpt lat="59.9766931" lon="17.7394476">
        <ele>25.1317</ele>
        <time>2014-04-04T17:24:44Z</time>
      </trkpt>
      <trkpt lat="59.9767214" lon="17.739424">
        <ele>25.6123</ele>
        <time>2014-04-04T17:24:45Z</time>
      </trkpt>
      <trkpt lat="59.9767439" lon="17.7394132">
        <ele>26.0929</ele>
        <time>2014-04-04T17:24:46Z</time>
      </trkpt>
      <trkpt lat="59.9767621" lon="17.7393945">
        <ele>27.0543</ele>
        <time>2014-04-04T17:24:47Z</time>
      </trkpt>
      <trkpt lat="59.9767847" lon="17.7393718">
        <ele>28.0155</ele>
        <time>2014-04-04T17:24:48Z</time>
      </trkpt>
      <trkpt lat="59.9768092" lon="17.7393518">
        <ele>28.4962</ele>
        <time>2014-04-04T17:24:49Z</time>
      </trkpt>
      <trkpt lat="59.976836" lon="17.7393329">
        <ele>28.9769</ele>
        <time>2014-04-04T17:24:50Z</time>
      </trkpt>
      <trkpt lat="59.9768626" lon="17.7393206">
        <ele>29.4575</ele>
        <time>2014-04-04T17:24:51Z</time>
      </trkpt>
      <trkpt lat="59.9768888" lon="17.7393133">
        <ele>29.9381</ele>
        <time>2014-04-04T17:24:52Z</time>
      </trkpt>
      <trkpt lat="59.9769151" lon="17.7393073">
        <ele>29.9381</ele>
        <time>2014-04-04T17:24:53Z</time>
      </trkpt>
      <trkpt lat="59.9769397" lon="17.7392972">
        <ele>29.9381</ele>
        <time>2014-04-04T17:24:54Z</time>
      </trkpt>
      <trkpt lat="59.9769654" lon="17.7392844">
        <ele>30.4188</ele>
        <time>2014-04-04T17:24:55Z</time>
      </trkpt>
      <trkpt lat="59.9769905" lon="17.739273">
        <ele>30.8995</ele>
        <time>2014-04-04T17:24:56Z</time>
      </trkpt>
      <trkpt lat="59.9770161" lon="17.7392661">
        <ele>30.8995</ele>
        <time>2014-04-04T17:24:57Z</time>
      </trkpt>
      <trkpt lat="59.9770418" lon="17.7392622">
        <ele>31.3801</ele>
        <time>2014-04-04T17:24:58Z</time>
      </trkpt>
      <trkpt lat="59.9770684" lon="17.7392528">
        <ele>31.8607</ele>
        <time>2014-04-04T17:24:59Z</time>
      </trkpt>
      <trkpt lat="59.9770923" lon="17.7392422">
        <ele>31.8607</ele>
        <time>2014-04-04T17:25:00Z</time>
      </trkpt>
      <trkpt lat="59.9771164" lon="17.7392241">
        <ele>32.3416</ele>
        <time>2014-04-04T17:25:01Z</time>
      </trkpt>
      <trkpt lat="59.9771422" lon="17.7392075">
        <ele>32.8223</ele>
        <time>2014-04-04T17:25:02Z</time>
      </trkpt>
      <trkpt lat="59.9771671" lon="17.7391932">
        <ele>33.3029</ele>
        <time>2014-04-04T17:25:03Z</time>
      </trkpt>
      <trkpt lat="59.9771929" lon="17.7391771">
        <ele>33.3029</ele>
        <time>2014-04-04T17:25:04Z</time>
      </trkpt>
      <trkpt lat="59.9772199" lon="17.7391579">
        <ele>32.8223</ele>
        <time>2014-04-04T17:25:05Z</time>
      </trkpt>
      <trkpt lat="59.9772433" lon="17.7391414">
        <ele>32.8223</ele>
        <time>2014-04-04T17:25:06Z</time>
      </trkpt>
      <trkpt lat="59.9772648" lon="17.7391248">
        <ele>32.8223</ele>
        <time>2014-04-04T17:25:07Z</time>
      </trkpt>
      <trkpt lat="59.9772866" lon="17.7391088">
        <ele>33.3029</ele>
        <time>2014-04-04T17:25:08Z</time>
      </trkpt>
      <trkpt lat="59.9773104" lon="17.7390901">
        <ele>33.3029</ele>
        <time>2014-04-04T17:25:09Z</time>
      </trkpt>
      <trkpt lat="59.9773337" lon="17.7390756">
        <ele>33.7834</ele>
        <time>2014-04-04T17:25:10Z</time>
      </trkpt>
      <trkpt lat="59.9773556" lon="17.7390627">
        <ele>34.2642</ele>
        <time>2014-04-04T17:25:11Z</time>
      </trkpt>
      <trkpt lat="59.9773759" lon="17.7390511">
        <ele>34.2642</ele>
        <time>2014-04-04T17:25:12Z</time>
      </trkpt>
      <trkpt lat="59.9773965" lon="17.7390376">
        <ele>34.7449</ele>
        <time>2014-04-04T17:25:13Z</time>
      </trkpt>
      <trkpt lat="59.9774193" lon="17.7390228">
        <ele>35.2255</ele>
        <time>2014-04-04T17:25:14Z</time>
      </trkpt>
      <trkpt lat="59.9774447" lon="17.7390099">
        <ele>35.2255</ele>
        <time>2014-04-04T17:25:15Z</time>
      </trkpt>
      <trkpt lat="59.977473" lon="17.7389969">
        <ele>35.7061</ele>
        <time>2014-04-04T17:25:16Z</time>
      </trkpt>
      <trkpt lat="59.9775017" lon="17.7389845">
        <ele>36.1868</ele>
        <time>2014-04-04T17:25:17Z</time>
      </trkpt>
      <trkpt lat="59.9775316" lon="17.7389731">
        <ele>36.1868</ele>
        <time>2014-04-04T17:25:18Z</time>
      </trkpt>
      <trkpt lat="59.9775597" lon="17.7389644">
        <ele>36.6675</ele>
        <time>2014-04-04T17:25:19Z</time>
      </trkpt>
      <trkpt lat="59.9775875" lon="17.7389592">
        <ele>37.1481</ele>
        <time>2014-04-04T17:25:20Z</time>
      </trkpt>
      <trkpt lat="59.9776194" lon="17.7389483">
        <ele>37.1481</ele>
        <time>2014-04-04T17:25:21Z</time>
      </trkpt>
      <trkpt lat="59.977653" lon="17.738934">
        <ele>37.6287</ele>
        <time>2014-04-04T17:25:22Z</time>
      </trkpt>
      <trkpt lat="59.9776849" lon="17.7389252">
        <ele>38.1094</ele>
        <time>2014-04-04T17:25:23Z</time>
      </trkpt>
      <trkpt lat="59.9777131" lon="17.7389233">
        <ele>38.5901</ele>
        <time>2014-04-04T17:25:24Z</time>
      </trkpt>
      <trkpt lat="59.9777389" lon="17.738928">
        <ele>39.0707</ele>
        <time>2014-04-04T17:25:25Z</time>
      </trkpt>
      <trkpt lat="59.9777658" lon="17.7389376">
        <ele>39.0707</ele>
        <time>2014-04-04T17:25:26Z</time>
      </trkpt>
      <trkpt lat="59.9777952" lon="17.7389472">
        <ele>39.0707</ele>
        <time>2014-04-04T17:25:27Z</time>
      </trkpt>
      <trkpt lat="59.9778239" lon="17.7389611">
        <ele>39.0707</ele>
        <time>2014-04-04T17:25:28Z</time>
      </trkpt>
      <trkpt lat="59.977851" lon="17.7389751">
        <ele>39.0707</ele>
        <time>2014-04-04T17:25:29Z</time>
      </trkpt>
      <trkpt lat="59.9778763" lon="17.7389834">
        <ele>39.0707</ele>
        <time>2014-04-04T17:25:30Z</time>
      </trkpt>
      <trkpt lat="59.9779046" lon="17.7389977">
        <ele>39.0707</ele>
        <time>2014-04-04T17:25:31Z</time>
      </trkpt>
      <trkpt lat="59.977933" lon="17.7390134">
        <ele>39.0707</ele>
        <time>2014-04-04T17:25:32Z</time>
      </trkpt>
      <trkpt lat="59.9779596" lon="17.7390311">
        <ele>38.5901</ele>
        <time>2014-04-04T17:25:33Z</time>
      </trkpt>
      <trkpt lat="59.9779805" lon="17.7390462">
        <ele>38.5901</ele>
        <time>2014-04-04T17:25:34Z</time>
      </trkpt>
      <trkpt lat="59.9780015" lon="17.7390627">
        <ele>38.5901</ele>
        <time>2014-04-04T17:25:35Z</time>
      </trkpt>
      <trkpt lat="59.978027" lon="17.7390813">
        <ele>38.5901</ele>
        <time>2014-04-04T17:25:36Z</time>
      </trkpt>
      <trkpt lat="59.9780519" lon="17.7390958">
        <ele>38.5901</ele>
        <time>2014-04-04T17:25:37Z</time>
      </trkpt>
      <trkpt lat="59.9780747" lon="17.7391088">
        <ele>38.5901</ele>
        <time>2014-04-04T17:25:38Z</time>
      </trkpt>
      <trkpt lat="59.9781008" lon="17.7391184">
        <ele>38.1094</ele>
        <time>2014-04-04T17:25:39Z</time>
      </trkpt>
      <trkpt lat="59.9781315" lon="17.739129">
        <ele>38.1094</ele>
        <time>2014-04-04T17:25:40Z</time>
      </trkpt>
      <trkpt lat="59.9781616" lon="17.7391386">
        <ele>38.1094</ele>
        <time>2014-04-04T17:25:41Z</time>
      </trkpt>
      <trkpt lat="59.9781907" lon="17.7391495">
        <ele>38.1094</ele>
        <time>2014-04-04T17:25:42Z</time>
      </trkpt>
      <trkpt lat="59.9782189" lon="17.7391621">
        <ele>37.6287</ele>
        <time>2014-04-04T17:25:43Z</time>
      </trkpt>
      <trkpt lat="59.9782496" lon="17.7391678">
        <ele>37.6287</ele>
        <time>2014-04-04T17:25:44Z</time>
      </trkpt>
      <trkpt lat="59.9782778" lon="17.7391724">
        <ele>37.1481</ele>
        <time>2014-04-04T17:25:45Z</time>
      </trkpt>
      <trkpt lat="59.9783039" lon="17.7391781">
        <ele>37.1481</ele>
        <time>2014-04-04T17:25:46Z</time>
      </trkpt>
      <trkpt lat="59.9783289" lon="17.7391797">
        <ele>36.6675</ele>
        <time>2014-04-04T17:25:47Z</time>
      </trkpt>
      <trkpt lat="59.9783554" lon="17.7391855">
        <ele>36.6675</ele>
        <time>2014-04-04T17:25:48Z</time>
      </trkpt>
      <trkpt lat="59.9783849" lon="17.7391969">
        <ele>36.6675</ele>
        <time>2014-04-04T17:25:49Z</time>
      </trkpt>
      <trkpt lat="59.9784129" lon="17.7392021">
        <ele>36.6675</ele>
        <time>2014-04-04T17:25:50Z</time>
      </trkpt>
      <trkpt lat="59.9784408" lon="17.7391999">
        <ele>36.6675</ele>
        <time>2014-04-04T17:25:51Z</time>
      </trkpt>
      <trkpt lat="59.9784647" lon="17.7392083">
        <ele>36.1868</ele>
        <time>2014-04-04T17:25:52Z</time>
      </trkpt>
      <trkpt lat="59.9784883" lon="17.7392148">
        <ele>36.1868</ele>
        <time>2014-04-04T17:25:53Z</time>
      </trkpt>
      <trkpt lat="59.9785137" lon="17.7392122">
        <ele>36.1868</ele>
        <time>2014-04-04T17:25:54Z</time>
      </trkpt>
      <trkpt lat="59.9785434" lon="17.739212">
        <ele>36.1868</ele>
        <time>2014-04-04T17:25:55Z</time>
      </trkpt>
      <trkpt lat="59.9785762" lon="17.7392106">
        <ele>36.1868</ele>
        <time>2014-04-04T17:25:56Z</time>
      </trkpt>
      <trkpt lat="59.9786059" lon="17.739212">
        <ele>36.1868</ele>
        <time>2014-04-04T17:25:57Z</time>
      </trkpt>
      <trkpt lat="59.9786341" lon="17.7392146">
        <ele>36.6675</ele>
        <time>2014-04-04T17:25:58Z</time>
      </trkpt>
      <trkpt lat="59.9786619" lon="17.7392189">
        <ele>36.6675</ele>
        <time>2014-04-04T17:25:59Z</time>
      </trkpt>
      <trkpt lat="59.9786927" lon="17.7392279">
        <ele>36.6675</ele>
        <time>2014-04-04T17:26:00Z</time>
      </trkpt>
      <trkpt lat="59.9787211" lon="17.7392388">
        <ele>36.1868</ele>
        <time>2014-04-04T17:26:01Z</time>
      </trkpt>
      <trkpt lat="59.978744" lon="17.7392481">
        <ele>36.1868</ele>
        <time>2014-04-04T17:26:02Z</time>
      </trkpt>
      <trkpt lat="59.9787702" lon="17.739257">
        <ele>36.1868</ele>
        <time>2014-04-04T17:26:03Z</time>
      </trkpt>
      <trkpt lat="59.9788013" lon="17.739273">
        <ele>36.6675</ele>
        <time>2014-04-04T17:26:04Z</time>
      </trkpt>
      <trkpt lat="59.9788346" lon="17.7392954">
        <ele>36.6675</ele>
        <time>2014-04-04T17:26:05Z</time>
      </trkpt>
      <trkpt lat="59.978866" lon="17.7393288">
        <ele>37.1481</ele>
        <time>2014-04-04T17:26:06Z</time>
      </trkpt>
      <trkpt lat="59.9788924" lon="17.739358">
        <ele>37.1481</ele>
        <time>2014-04-04T17:26:07Z</time>
      </trkpt>
      <trkpt lat="59.9789174" lon="17.7393827">
        <ele>37.1481</ele>
        <time>2014-04-04T17:26:08Z</time>
      </trkpt>
    </trkseg>
  </trk>
</gpx>